<?xml version="1.0" encoding="UTF-8" standalone="no" ?>
<gpx xmlns="http://www.topografix.com/GPX/1/1" xmlns:xsi="http://www.w3.org/2001/XMLSchema-instance" xsi:schemaLocation="http://www.topografix.com/GPX/1/1 http://www.topografix.com/GPX/1/1/gpx.xsd" version="1.1" creator="VisuGPX - https://www.visugpx.com">
  <metadata>
    <name>Ploéven/Ty Anquer/Tal Ar Grip</name>
    <desc><![CDATA[Départ parking plage de Ty Anquer, et monter le GR 34, le suivre jusqu'au bout de la plage de Pors Ar Vag, monter l'escalier et quitter le GR impraticable. Monter la rte en direction de Reluyen, traverser Keravel Ar Goulit, passer la chapelle St Sébastien, et rejoindre le village de Kervijen, poursuivre vers Kerlaouéret, longer la ferme par la droite, et rejoindre la rte à prendre à droite, descendre jusque Rozalen, et suivre à droite le chemin de terre jusque St Nicodème. Monter à gauche jusque la rte et descendre à Penhoat, jusqu'au marais, suivre le chemin de terre, et monter au Marrouz, suivre la rte à gauche et redescendre vers le parking. ]]></desc>
  </metadata>
  <trk>
    <name><![CDATA[Pointe de Tal Ar Gripp 3 MAI 2016]]></name>
    <trkseg>
      <trkpt lat="48.14757" lon="-4.27035">
        <ele>5.91</ele>
        <time>2016-05-03T11:55:33Z</time>
      </trkpt>
      <trkpt lat="48.14756" lon="-4.27034">
        <ele>5.42</ele>
        <time>2016-05-03T11:56:07Z</time>
      </trkpt>
      <trkpt lat="48.14756" lon="-4.27034">
        <ele>5.91</ele>
        <time>2016-05-03T11:56:41Z</time>
      </trkpt>
      <trkpt lat="48.14758" lon="-4.27036">
        <ele>2.06</ele>
        <time>2016-05-03T11:57:02Z</time>
      </trkpt>
      <trkpt lat="48.1476" lon="-4.27035">
        <ele>1.1</ele>
        <time>2016-05-03T11:57:45Z</time>
      </trkpt>
      <trkpt lat="48.14759" lon="-4.27036">
        <ele>1.1</ele>
        <time>2016-05-03T11:58:10Z</time>
      </trkpt>
      <trkpt lat="48.14757" lon="-4.27041">
        <ele>-0.34</ele>
        <time>2016-05-03T11:58:21Z</time>
      </trkpt>
      <trkpt lat="48.14761" lon="-4.27051">
        <ele>-1.79</ele>
        <time>2016-05-03T11:58:30Z</time>
      </trkpt>
      <trkpt lat="48.14768" lon="-4.27068">
        <ele>-0.34</ele>
        <time>2016-05-03T11:58:44Z</time>
      </trkpt>
      <trkpt lat="48.14768" lon="-4.27076">
        <ele>0.14</ele>
        <time>2016-05-03T11:58:49Z</time>
      </trkpt>
      <trkpt lat="48.14767" lon="-4.271">
        <ele>0.14</ele>
        <time>2016-05-03T11:59:04Z</time>
      </trkpt>
      <trkpt lat="48.14767" lon="-4.27102">
        <ele>0.62</ele>
        <time>2016-05-03T11:59:05Z</time>
      </trkpt>
      <trkpt lat="48.14765" lon="-4.2712">
        <ele>2.06</ele>
        <time>2016-05-03T11:59:16Z</time>
      </trkpt>
      <trkpt lat="48.14763" lon="-4.27137">
        <ele>2.06</ele>
        <time>2016-05-03T11:59:26Z</time>
      </trkpt>
      <trkpt lat="48.14761" lon="-4.27141">
        <ele>2.06</ele>
        <time>2016-05-03T11:59:29Z</time>
      </trkpt>
      <trkpt lat="48.14759" lon="-4.27145">
        <ele>3.02</ele>
        <time>2016-05-03T11:59:35Z</time>
      </trkpt>
      <trkpt lat="48.14755" lon="-4.27153">
        <ele>3.02</ele>
        <time>2016-05-03T11:59:41Z</time>
      </trkpt>
      <trkpt lat="48.14758" lon="-4.27174">
        <ele>2.54</ele>
        <time>2016-05-03T11:59:54Z</time>
      </trkpt>
      <trkpt lat="48.14759" lon="-4.27177">
        <ele>3.02</ele>
        <time>2016-05-03T11:59:56Z</time>
      </trkpt>
      <trkpt lat="48.14771" lon="-4.27187">
        <ele>2.54</ele>
        <time>2016-05-03T12:00:08Z</time>
      </trkpt>
      <trkpt lat="48.14776" lon="-4.2719">
        <ele>3.02</ele>
        <time>2016-05-03T12:00:12Z</time>
      </trkpt>
      <trkpt lat="48.14785" lon="-4.27193">
        <ele>3.5</ele>
        <time>2016-05-03T12:00:20Z</time>
      </trkpt>
      <trkpt lat="48.14793" lon="-4.27194">
        <ele>4.46</ele>
        <time>2016-05-03T12:00:27Z</time>
      </trkpt>
      <trkpt lat="48.14809" lon="-4.27196">
        <ele>5.42</ele>
        <time>2016-05-03T12:00:43Z</time>
      </trkpt>
      <trkpt lat="48.14815" lon="-4.27197">
        <ele>4.46</ele>
        <time>2016-05-03T12:00:51Z</time>
      </trkpt>
      <trkpt lat="48.1482" lon="-4.272">
        <ele>4.46</ele>
        <time>2016-05-03T12:00:56Z</time>
      </trkpt>
      <trkpt lat="48.14825" lon="-4.272">
        <ele>5.91</ele>
        <time>2016-05-03T12:01:01Z</time>
      </trkpt>
      <trkpt lat="48.14827" lon="-4.27201">
        <ele>6.39</ele>
        <time>2016-05-03T12:01:03Z</time>
      </trkpt>
      <trkpt lat="48.14829" lon="-4.27201">
        <ele>6.87</ele>
        <time>2016-05-03T12:01:05Z</time>
      </trkpt>
      <trkpt lat="48.14837" lon="-4.27208">
        <ele>8.79</ele>
        <time>2016-05-03T12:01:17Z</time>
      </trkpt>
      <trkpt lat="48.14841" lon="-4.27209">
        <ele>8.79</ele>
        <time>2016-05-03T12:01:22Z</time>
      </trkpt>
      <trkpt lat="48.14845" lon="-4.27212">
        <ele>8.79</ele>
        <time>2016-05-03T12:01:28Z</time>
      </trkpt>
      <trkpt lat="48.14851" lon="-4.27217">
        <ele>10.71</ele>
        <time>2016-05-03T12:01:39Z</time>
      </trkpt>
      <trkpt lat="48.14859" lon="-4.27225">
        <ele>13.6</ele>
        <time>2016-05-03T12:01:48Z</time>
      </trkpt>
      <trkpt lat="48.1486" lon="-4.27226">
        <ele>14.08</ele>
        <time>2016-05-03T12:01:50Z</time>
      </trkpt>
      <trkpt lat="48.14869" lon="-4.27234">
        <ele>15.04</ele>
        <time>2016-05-03T12:02:01Z</time>
      </trkpt>
      <trkpt lat="48.14873" lon="-4.27241">
        <ele>16.96</ele>
        <time>2016-05-03T12:02:08Z</time>
      </trkpt>
      <trkpt lat="48.14875" lon="-4.27244">
        <ele>17.92</ele>
        <time>2016-05-03T12:02:10Z</time>
      </trkpt>
      <trkpt lat="48.14877" lon="-4.27247">
        <ele>18.4</ele>
        <time>2016-05-03T12:02:13Z</time>
      </trkpt>
      <trkpt lat="48.14881" lon="-4.27261">
        <ele>18.4</ele>
        <time>2016-05-03T12:02:22Z</time>
      </trkpt>
      <trkpt lat="48.14882" lon="-4.27263">
        <ele>17.92</ele>
        <time>2016-05-03T12:02:24Z</time>
      </trkpt>
      <trkpt lat="48.14886" lon="-4.27271">
        <ele>18.88</ele>
        <time>2016-05-03T12:02:30Z</time>
      </trkpt>
      <trkpt lat="48.1489" lon="-4.27279">
        <ele>18.88</ele>
        <time>2016-05-03T12:02:36Z</time>
      </trkpt>
      <trkpt lat="48.14901" lon="-4.27295">
        <ele>18.88</ele>
        <time>2016-05-03T12:02:50Z</time>
      </trkpt>
      <trkpt lat="48.14906" lon="-4.273">
        <ele>18.4</ele>
        <time>2016-05-03T12:02:55Z</time>
      </trkpt>
      <trkpt lat="48.14909" lon="-4.27303">
        <ele>18.4</ele>
        <time>2016-05-03T12:02:58Z</time>
      </trkpt>
      <trkpt lat="48.14919" lon="-4.27321">
        <ele>19.84</ele>
        <time>2016-05-03T12:03:13Z</time>
      </trkpt>
      <trkpt lat="48.14921" lon="-4.27326">
        <ele>20.32</ele>
        <time>2016-05-03T12:03:16Z</time>
      </trkpt>
      <trkpt lat="48.14926" lon="-4.27331">
        <ele>21.29</ele>
        <time>2016-05-03T12:03:21Z</time>
      </trkpt>
      <trkpt lat="48.1494" lon="-4.27347">
        <ele>22.25</ele>
        <time>2016-05-03T12:03:36Z</time>
      </trkpt>
      <trkpt lat="48.14946" lon="-4.27354">
        <ele>21.77</ele>
        <time>2016-05-03T12:03:42Z</time>
      </trkpt>
      <trkpt lat="48.1496" lon="-4.27366">
        <ele>21.77</ele>
        <time>2016-05-03T12:03:56Z</time>
      </trkpt>
      <trkpt lat="48.14965" lon="-4.27371">
        <ele>21.29</ele>
        <time>2016-05-03T12:04:01Z</time>
      </trkpt>
      <trkpt lat="48.14974" lon="-4.2739">
        <ele>22.73</ele>
        <time>2016-05-03T12:04:15Z</time>
      </trkpt>
      <trkpt lat="48.14979" lon="-4.274">
        <ele>21.77</ele>
        <time>2016-05-03T12:04:22Z</time>
      </trkpt>
      <trkpt lat="48.1498" lon="-4.27403">
        <ele>21.77</ele>
        <time>2016-05-03T12:04:24Z</time>
      </trkpt>
      <trkpt lat="48.14985" lon="-4.27409">
        <ele>21.77</ele>
        <time>2016-05-03T12:04:30Z</time>
      </trkpt>
      <trkpt lat="48.14986" lon="-4.27414">
        <ele>20.32</ele>
        <time>2016-05-03T12:04:34Z</time>
      </trkpt>
      <trkpt lat="48.14989" lon="-4.27418">
        <ele>19.84</ele>
        <time>2016-05-03T12:04:38Z</time>
      </trkpt>
      <trkpt lat="48.14994" lon="-4.27428">
        <ele>17.92</ele>
        <time>2016-05-03T12:04:45Z</time>
      </trkpt>
      <trkpt lat="48.14997" lon="-4.27435">
        <ele>19.84</ele>
        <time>2016-05-03T12:04:51Z</time>
      </trkpt>
      <trkpt lat="48.15003" lon="-4.27438">
        <ele>20.32</ele>
        <time>2016-05-03T12:04:56Z</time>
      </trkpt>
      <trkpt lat="48.15005" lon="-4.27444">
        <ele>19.36</ele>
        <time>2016-05-03T12:05:01Z</time>
      </trkpt>
      <trkpt lat="48.15009" lon="-4.27448">
        <ele>18.88</ele>
        <time>2016-05-03T12:05:05Z</time>
      </trkpt>
      <trkpt lat="48.15014" lon="-4.27476">
        <ele>16.96</ele>
        <time>2016-05-03T12:05:21Z</time>
      </trkpt>
      <trkpt lat="48.15022" lon="-4.27495">
        <ele>14.56</ele>
        <time>2016-05-03T12:05:34Z</time>
      </trkpt>
      <trkpt lat="48.15023" lon="-4.27497">
        <ele>14.08</ele>
        <time>2016-05-03T12:05:36Z</time>
      </trkpt>
      <trkpt lat="48.15029" lon="-4.27505">
        <ele>14.08</ele>
        <time>2016-05-03T12:05:44Z</time>
      </trkpt>
      <trkpt lat="48.15031" lon="-4.27513">
        <ele>15.52</ele>
        <time>2016-05-03T12:05:50Z</time>
      </trkpt>
      <trkpt lat="48.15031" lon="-4.27516">
        <ele>15.52</ele>
        <time>2016-05-03T12:05:52Z</time>
      </trkpt>
      <trkpt lat="48.15036" lon="-4.2753">
        <ele>14.56</ele>
        <time>2016-05-03T12:06:01Z</time>
      </trkpt>
      <trkpt lat="48.1505" lon="-4.27521">
        <ele>11.19</ele>
        <time>2016-05-03T12:06:15Z</time>
      </trkpt>
      <trkpt lat="48.15048" lon="-4.27508">
        <ele>10.23</ele>
        <time>2016-05-03T12:06:23Z</time>
      </trkpt>
      <trkpt lat="48.15045" lon="-4.27502">
        <ele>9.75</ele>
        <time>2016-05-03T12:06:27Z</time>
      </trkpt>
      <trkpt lat="48.15043" lon="-4.27493">
        <ele>9.27</ele>
        <time>2016-05-03T12:06:33Z</time>
      </trkpt>
      <trkpt lat="48.15045" lon="-4.27474">
        <ele>8.31</ele>
        <time>2016-05-03T12:06:44Z</time>
      </trkpt>
      <trkpt lat="48.15046" lon="-4.27463">
        <ele>8.31</ele>
        <time>2016-05-03T12:06:51Z</time>
      </trkpt>
      <trkpt lat="48.15047" lon="-4.27439">
        <ele>9.27</ele>
        <time>2016-05-03T12:07:06Z</time>
      </trkpt>
      <trkpt lat="48.15047" lon="-4.27436">
        <ele>9.75</ele>
        <time>2016-05-03T12:07:08Z</time>
      </trkpt>
      <trkpt lat="48.15049" lon="-4.27419">
        <ele>12.63</ele>
        <time>2016-05-03T12:07:20Z</time>
      </trkpt>
      <trkpt lat="48.15051" lon="-4.27409">
        <ele>12.15</ele>
        <time>2016-05-03T12:07:26Z</time>
      </trkpt>
      <trkpt lat="48.15051" lon="-4.27406">
        <ele>12.63</ele>
        <time>2016-05-03T12:07:28Z</time>
      </trkpt>
      <trkpt lat="48.15052" lon="-4.27393">
        <ele>11.67</ele>
        <time>2016-05-03T12:07:37Z</time>
      </trkpt>
      <trkpt lat="48.15055" lon="-4.27388">
        <ele>11.67</ele>
        <time>2016-05-03T12:07:41Z</time>
      </trkpt>
      <trkpt lat="48.15062" lon="-4.2737">
        <ele>11.19</ele>
        <time>2016-05-03T12:07:52Z</time>
      </trkpt>
      <trkpt lat="48.15069" lon="-4.27346">
        <ele>10.23</ele>
        <time>2016-05-03T12:08:06Z</time>
      </trkpt>
      <trkpt lat="48.1507" lon="-4.27337">
        <ele>9.27</ele>
        <time>2016-05-03T12:08:12Z</time>
      </trkpt>
      <trkpt lat="48.15069" lon="-4.27324">
        <ele>11.19</ele>
        <time>2016-05-03T12:08:20Z</time>
      </trkpt>
      <trkpt lat="48.1507" lon="-4.27308">
        <ele>11.67</ele>
        <time>2016-05-03T12:08:29Z</time>
      </trkpt>
      <trkpt lat="48.15072" lon="-4.27298">
        <ele>11.19</ele>
        <time>2016-05-03T12:08:35Z</time>
      </trkpt>
      <trkpt lat="48.15072" lon="-4.27294">
        <ele>10.71</ele>
        <time>2016-05-03T12:08:37Z</time>
      </trkpt>
      <trkpt lat="48.15072" lon="-4.27288">
        <ele>11.19</ele>
        <time>2016-05-03T12:08:41Z</time>
      </trkpt>
      <trkpt lat="48.15073" lon="-4.2728">
        <ele>10.71</ele>
        <time>2016-05-03T12:08:48Z</time>
      </trkpt>
      <trkpt lat="48.15076" lon="-4.2726">
        <ele>10.23</ele>
        <time>2016-05-03T12:08:59Z</time>
      </trkpt>
      <trkpt lat="48.15078" lon="-4.27253">
        <ele>9.75</ele>
        <time>2016-05-03T12:09:03Z</time>
      </trkpt>
      <trkpt lat="48.1508" lon="-4.27246">
        <ele>8.79</ele>
        <time>2016-05-03T12:09:08Z</time>
      </trkpt>
      <trkpt lat="48.15083" lon="-4.27244">
        <ele>7.83</ele>
        <time>2016-05-03T12:09:12Z</time>
      </trkpt>
      <trkpt lat="48.15089" lon="-4.27249">
        <ele>9.27</ele>
        <time>2016-05-03T12:09:20Z</time>
      </trkpt>
      <trkpt lat="48.15092" lon="-4.27247">
        <ele>9.27</ele>
        <time>2016-05-03T12:09:23Z</time>
      </trkpt>
      <trkpt lat="48.15097" lon="-4.27248">
        <ele>9.27</ele>
        <time>2016-05-03T12:09:27Z</time>
      </trkpt>
      <trkpt lat="48.15108" lon="-4.27243">
        <ele>8.79</ele>
        <time>2016-05-03T12:09:37Z</time>
      </trkpt>
      <trkpt lat="48.15125" lon="-4.27239">
        <ele>7.35</ele>
        <time>2016-05-03T12:09:52Z</time>
      </trkpt>
      <trkpt lat="48.15144" lon="-4.27224">
        <ele>3.5</ele>
        <time>2016-05-03T12:10:10Z</time>
      </trkpt>
      <trkpt lat="48.15154" lon="-4.27222">
        <ele>3.5</ele>
        <time>2016-05-03T12:10:24Z</time>
      </trkpt>
      <trkpt lat="48.15154" lon="-4.27222">
        <ele>2.06</ele>
        <time>2016-05-03T12:10:37Z</time>
      </trkpt>
      <trkpt lat="48.15153" lon="-4.27222">
        <ele>1.1</ele>
        <time>2016-05-03T12:10:52Z</time>
      </trkpt>
      <trkpt lat="48.15154" lon="-4.27218">
        <ele>-0.82</ele>
        <time>2016-05-03T12:11:01Z</time>
      </trkpt>
      <trkpt lat="48.15155" lon="-4.27217">
        <ele>-1.3</ele>
        <time>2016-05-03T12:11:13Z</time>
      </trkpt>
      <trkpt lat="48.15161" lon="-4.27215">
        <ele>-0.82</ele>
        <time>2016-05-03T12:11:20Z</time>
      </trkpt>
      <trkpt lat="48.15165" lon="-4.27212">
        <ele>0.14</ele>
        <time>2016-05-03T12:11:25Z</time>
      </trkpt>
      <trkpt lat="48.1517" lon="-4.27208">
        <ele>0.14</ele>
        <time>2016-05-03T12:11:31Z</time>
      </trkpt>
      <trkpt lat="48.1517" lon="-4.27205">
        <ele>0.14</ele>
        <time>2016-05-03T12:11:33Z</time>
      </trkpt>
      <trkpt lat="48.15173" lon="-4.27203">
        <ele>0.14</ele>
        <time>2016-05-03T12:11:36Z</time>
      </trkpt>
      <trkpt lat="48.15175" lon="-4.27201">
        <ele>0.14</ele>
        <time>2016-05-03T12:11:38Z</time>
      </trkpt>
      <trkpt lat="48.15179" lon="-4.27197">
        <ele>1.1</ele>
        <time>2016-05-03T12:11:43Z</time>
      </trkpt>
      <trkpt lat="48.15186" lon="-4.2719">
        <ele>0.62</ele>
        <time>2016-05-03T12:11:52Z</time>
      </trkpt>
      <trkpt lat="48.15194" lon="-4.27181">
        <ele>-0.82</ele>
        <time>2016-05-03T12:12:04Z</time>
      </trkpt>
      <trkpt lat="48.15206" lon="-4.27182">
        <ele>-0.82</ele>
        <time>2016-05-03T12:12:20Z</time>
      </trkpt>
      <trkpt lat="48.15215" lon="-4.27192">
        <ele>0.14</ele>
        <time>2016-05-03T12:12:34Z</time>
      </trkpt>
      <trkpt lat="48.15224" lon="-4.27198">
        <ele>1.1</ele>
        <time>2016-05-03T12:12:47Z</time>
      </trkpt>
      <trkpt lat="48.15227" lon="-4.272">
        <ele>1.1</ele>
        <time>2016-05-03T12:12:51Z</time>
      </trkpt>
      <trkpt lat="48.15237" lon="-4.27209">
        <ele>1.58</ele>
        <time>2016-05-03T12:13:03Z</time>
      </trkpt>
      <trkpt lat="48.15244" lon="-4.27212">
        <ele>1.58</ele>
        <time>2016-05-03T12:13:09Z</time>
      </trkpt>
      <trkpt lat="48.15251" lon="-4.27218">
        <ele>2.06</ele>
        <time>2016-05-03T12:13:16Z</time>
      </trkpt>
      <trkpt lat="48.15252" lon="-4.2722">
        <ele>2.06</ele>
        <time>2016-05-03T12:13:18Z</time>
      </trkpt>
      <trkpt lat="48.15257" lon="-4.27224">
        <ele>2.06</ele>
        <time>2016-05-03T12:13:23Z</time>
      </trkpt>
      <trkpt lat="48.15274" lon="-4.27229">
        <ele>1.58</ele>
        <time>2016-05-03T12:13:40Z</time>
      </trkpt>
      <trkpt lat="48.15279" lon="-4.27232">
        <ele>1.58</ele>
        <time>2016-05-03T12:13:45Z</time>
      </trkpt>
      <trkpt lat="48.15296" lon="-4.27244">
        <ele>-0.34</ele>
        <time>2016-05-03T12:14:02Z</time>
      </trkpt>
      <trkpt lat="48.15302" lon="-4.27256">
        <ele>-0.34</ele>
        <time>2016-05-03T12:14:11Z</time>
      </trkpt>
      <trkpt lat="48.1531" lon="-4.27272">
        <ele>0.14</ele>
        <time>2016-05-03T12:14:25Z</time>
      </trkpt>
      <trkpt lat="48.15311" lon="-4.27273">
        <ele>0.14</ele>
        <time>2016-05-03T12:14:26Z</time>
      </trkpt>
      <trkpt lat="48.15316" lon="-4.27278">
        <ele>0.62</ele>
        <time>2016-05-03T12:14:32Z</time>
      </trkpt>
      <trkpt lat="48.15334" lon="-4.27282">
        <ele>0.14</ele>
        <time>2016-05-03T12:14:48Z</time>
      </trkpt>
      <trkpt lat="48.1534" lon="-4.27287">
        <ele>0.14</ele>
        <time>2016-05-03T12:14:56Z</time>
      </trkpt>
      <trkpt lat="48.15348" lon="-4.27291">
        <ele>1.1</ele>
        <time>2016-05-03T12:15:04Z</time>
      </trkpt>
      <trkpt lat="48.15365" lon="-4.273">
        <ele>1.58</ele>
        <time>2016-05-03T12:15:20Z</time>
      </trkpt>
      <trkpt lat="48.15381" lon="-4.27306">
        <ele>-0.82</ele>
        <time>2016-05-03T12:15:36Z</time>
      </trkpt>
      <trkpt lat="48.15382" lon="-4.27306">
        <ele>-0.82</ele>
        <time>2016-05-03T12:15:37Z</time>
      </trkpt>
      <trkpt lat="48.15396" lon="-4.27307">
        <ele>-2.75</ele>
        <time>2016-05-03T12:15:50Z</time>
      </trkpt>
      <trkpt lat="48.15406" lon="-4.27312">
        <ele>-4.19</ele>
        <time>2016-05-03T12:15:59Z</time>
      </trkpt>
      <trkpt lat="48.15424" lon="-4.27321">
        <ele>-3.71</ele>
        <time>2016-05-03T12:16:15Z</time>
      </trkpt>
      <trkpt lat="48.15428" lon="-4.27323">
        <ele>-4.19</ele>
        <time>2016-05-03T12:16:19Z</time>
      </trkpt>
      <trkpt lat="48.15448" lon="-4.27334">
        <ele>-2.75</ele>
        <time>2016-05-03T12:16:37Z</time>
      </trkpt>
      <trkpt lat="48.15455" lon="-4.27337">
        <ele>-2.27</ele>
        <time>2016-05-03T12:16:43Z</time>
      </trkpt>
      <trkpt lat="48.15467" lon="-4.27345">
        <ele>-2.27</ele>
        <time>2016-05-03T12:16:54Z</time>
      </trkpt>
      <trkpt lat="48.15472" lon="-4.27346">
        <ele>-2.75</ele>
        <time>2016-05-03T12:16:59Z</time>
      </trkpt>
      <trkpt lat="48.15475" lon="-4.27349">
        <ele>-2.75</ele>
        <time>2016-05-03T12:17:02Z</time>
      </trkpt>
      <trkpt lat="48.15492" lon="-4.27355">
        <ele>-2.75</ele>
        <time>2016-05-03T12:17:16Z</time>
      </trkpt>
      <trkpt lat="48.15505" lon="-4.27363">
        <ele>-4.19</ele>
        <time>2016-05-03T12:17:30Z</time>
      </trkpt>
      <trkpt lat="48.15509" lon="-4.27364">
        <ele>-4.19</ele>
        <time>2016-05-03T12:17:33Z</time>
      </trkpt>
      <trkpt lat="48.15518" lon="-4.27368">
        <ele>-4.19</ele>
        <time>2016-05-03T12:17:45Z</time>
      </trkpt>
      <trkpt lat="48.15531" lon="-4.27391">
        <ele>-1.3</ele>
        <time>2016-05-03T12:18:02Z</time>
      </trkpt>
      <trkpt lat="48.15539" lon="-4.27414">
        <ele>0.62</ele>
        <time>2016-05-03T12:18:18Z</time>
      </trkpt>
      <trkpt lat="48.15554" lon="-4.27421">
        <ele>1.1</ele>
        <time>2016-05-03T12:18:32Z</time>
      </trkpt>
      <trkpt lat="48.15568" lon="-4.27426">
        <ele>2.06</ele>
        <time>2016-05-03T12:18:46Z</time>
      </trkpt>
      <trkpt lat="48.15582" lon="-4.27436">
        <ele>3.5</ele>
        <time>2016-05-03T12:19:02Z</time>
      </trkpt>
      <trkpt lat="48.15593" lon="-4.27447">
        <ele>5.42</ele>
        <time>2016-05-03T12:19:15Z</time>
      </trkpt>
      <trkpt lat="48.15602" lon="-4.27454">
        <ele>8.31</ele>
        <time>2016-05-03T12:19:28Z</time>
      </trkpt>
      <trkpt lat="48.15609" lon="-4.27474">
        <ele>10.71</ele>
        <time>2016-05-03T12:19:42Z</time>
      </trkpt>
      <trkpt lat="48.15616" lon="-4.27497">
        <ele>12.63</ele>
        <time>2016-05-03T12:19:57Z</time>
      </trkpt>
      <trkpt lat="48.15617" lon="-4.27502">
        <ele>13.6</ele>
        <time>2016-05-03T12:20:01Z</time>
      </trkpt>
      <trkpt lat="48.15619" lon="-4.27529">
        <ele>15.52</ele>
        <time>2016-05-03T12:20:17Z</time>
      </trkpt>
      <trkpt lat="48.15621" lon="-4.27556">
        <ele>16.48</ele>
        <time>2016-05-03T12:20:32Z</time>
      </trkpt>
      <trkpt lat="48.15621" lon="-4.27558">
        <ele>16.48</ele>
        <time>2016-05-03T12:20:33Z</time>
      </trkpt>
      <trkpt lat="48.15623" lon="-4.27592">
        <ele>16.48</ele>
        <time>2016-05-03T12:20:52Z</time>
      </trkpt>
      <trkpt lat="48.15622" lon="-4.2762">
        <ele>14.08</ele>
        <time>2016-05-03T12:21:08Z</time>
      </trkpt>
      <trkpt lat="48.15621" lon="-4.27647">
        <ele>13.6</ele>
        <time>2016-05-03T12:21:22Z</time>
      </trkpt>
      <trkpt lat="48.15621" lon="-4.27671">
        <ele>13.6</ele>
        <time>2016-05-03T12:21:36Z</time>
      </trkpt>
      <trkpt lat="48.15614" lon="-4.27695">
        <ele>13.6</ele>
        <time>2016-05-03T12:21:51Z</time>
      </trkpt>
      <trkpt lat="48.15616" lon="-4.27719">
        <ele>11.67</ele>
        <time>2016-05-03T12:22:05Z</time>
      </trkpt>
      <trkpt lat="48.15617" lon="-4.27721">
        <ele>11.67</ele>
        <time>2016-05-03T12:22:06Z</time>
      </trkpt>
      <trkpt lat="48.15622" lon="-4.27739">
        <ele>13.12</ele>
        <time>2016-05-03T12:22:18Z</time>
      </trkpt>
      <trkpt lat="48.15623" lon="-4.27765">
        <ele>13.6</ele>
        <time>2016-05-03T12:22:33Z</time>
      </trkpt>
      <trkpt lat="48.15622" lon="-4.27773">
        <ele>13.6</ele>
        <time>2016-05-03T12:22:38Z</time>
      </trkpt>
      <trkpt lat="48.15625" lon="-4.27798">
        <ele>13.12</ele>
        <time>2016-05-03T12:22:52Z</time>
      </trkpt>
      <trkpt lat="48.15625" lon="-4.27803">
        <ele>13.6</ele>
        <time>2016-05-03T12:22:54Z</time>
      </trkpt>
      <trkpt lat="48.15626" lon="-4.27826">
        <ele>14.08</ele>
        <time>2016-05-03T12:23:07Z</time>
      </trkpt>
      <trkpt lat="48.15629" lon="-4.27847">
        <ele>14.56</ele>
        <time>2016-05-03T12:23:17Z</time>
      </trkpt>
      <trkpt lat="48.15631" lon="-4.2787">
        <ele>15.52</ele>
        <time>2016-05-03T12:23:30Z</time>
      </trkpt>
      <trkpt lat="48.15631" lon="-4.27872">
        <ele>15.52</ele>
        <time>2016-05-03T12:23:31Z</time>
      </trkpt>
      <trkpt lat="48.15631" lon="-4.27892">
        <ele>15.52</ele>
        <time>2016-05-03T12:23:44Z</time>
      </trkpt>
      <trkpt lat="48.15637" lon="-4.27921">
        <ele>18.4</ele>
        <time>2016-05-03T12:24:00Z</time>
      </trkpt>
      <trkpt lat="48.15643" lon="-4.27936">
        <ele>17.92</ele>
        <time>2016-05-03T12:24:10Z</time>
      </trkpt>
      <trkpt lat="48.15645" lon="-4.27954">
        <ele>19.84</ele>
        <time>2016-05-03T12:24:19Z</time>
      </trkpt>
      <trkpt lat="48.15645" lon="-4.27972">
        <ele>18.88</ele>
        <time>2016-05-03T12:24:29Z</time>
      </trkpt>
      <trkpt lat="48.15647" lon="-4.27977">
        <ele>18.4</ele>
        <time>2016-05-03T12:24:33Z</time>
      </trkpt>
      <trkpt lat="48.15655" lon="-4.27995">
        <ele>17.44</ele>
        <time>2016-05-03T12:24:46Z</time>
      </trkpt>
      <trkpt lat="48.15656" lon="-4.28003">
        <ele>18.4</ele>
        <time>2016-05-03T12:24:51Z</time>
      </trkpt>
      <trkpt lat="48.15659" lon="-4.28016">
        <ele>17.92</ele>
        <time>2016-05-03T12:24:59Z</time>
      </trkpt>
      <trkpt lat="48.1566" lon="-4.28021">
        <ele>17.92</ele>
        <time>2016-05-03T12:25:02Z</time>
      </trkpt>
      <trkpt lat="48.15662" lon="-4.28029">
        <ele>17.92</ele>
        <time>2016-05-03T12:25:07Z</time>
      </trkpt>
      <trkpt lat="48.15667" lon="-4.28042">
        <ele>19.36</ele>
        <time>2016-05-03T12:25:15Z</time>
      </trkpt>
      <trkpt lat="48.15671" lon="-4.28059">
        <ele>18.4</ele>
        <time>2016-05-03T12:25:25Z</time>
      </trkpt>
      <trkpt lat="48.15668" lon="-4.28071">
        <ele>16.96</ele>
        <time>2016-05-03T12:25:34Z</time>
      </trkpt>
      <trkpt lat="48.1567" lon="-4.28104">
        <ele>15.52</ele>
        <time>2016-05-03T12:25:52Z</time>
      </trkpt>
      <trkpt lat="48.15681" lon="-4.28122">
        <ele>16</ele>
        <time>2016-05-03T12:26:06Z</time>
      </trkpt>
      <trkpt lat="48.15683" lon="-4.28124">
        <ele>16.48</ele>
        <time>2016-05-03T12:26:09Z</time>
      </trkpt>
      <trkpt lat="48.15695" lon="-4.2815">
        <ele>18.88</ele>
        <time>2016-05-03T12:26:27Z</time>
      </trkpt>
      <trkpt lat="48.15696" lon="-4.28154">
        <ele>18.88</ele>
        <time>2016-05-03T12:26:30Z</time>
      </trkpt>
      <trkpt lat="48.15691" lon="-4.28182">
        <ele>18.88</ele>
        <time>2016-05-03T12:26:46Z</time>
      </trkpt>
      <trkpt lat="48.15696" lon="-4.28205">
        <ele>17.44</ele>
        <time>2016-05-03T12:27:00Z</time>
      </trkpt>
      <trkpt lat="48.15699" lon="-4.28225">
        <ele>16</ele>
        <time>2016-05-03T12:27:11Z</time>
      </trkpt>
      <trkpt lat="48.15699" lon="-4.28238">
        <ele>16.48</ele>
        <time>2016-05-03T12:27:18Z</time>
      </trkpt>
      <trkpt lat="48.15703" lon="-4.28275">
        <ele>16</ele>
        <time>2016-05-03T12:27:38Z</time>
      </trkpt>
      <trkpt lat="48.15702" lon="-4.28279">
        <ele>16</ele>
        <time>2016-05-03T12:27:40Z</time>
      </trkpt>
      <trkpt lat="48.157" lon="-4.28308">
        <ele>16.96</ele>
        <time>2016-05-03T12:27:55Z</time>
      </trkpt>
      <trkpt lat="48.157" lon="-4.28313">
        <ele>16.96</ele>
        <time>2016-05-03T12:27:58Z</time>
      </trkpt>
      <trkpt lat="48.15695" lon="-4.28342">
        <ele>16.48</ele>
        <time>2016-05-03T12:28:14Z</time>
      </trkpt>
      <trkpt lat="48.15688" lon="-4.28362">
        <ele>15.52</ele>
        <time>2016-05-03T12:28:26Z</time>
      </trkpt>
      <trkpt lat="48.15669" lon="-4.28382">
        <ele>14.08</ele>
        <time>2016-05-03T12:28:43Z</time>
      </trkpt>
      <trkpt lat="48.15649" lon="-4.284">
        <ele>13.12</ele>
        <time>2016-05-03T12:29:01Z</time>
      </trkpt>
      <trkpt lat="48.15633" lon="-4.28422">
        <ele>11.67</ele>
        <time>2016-05-03T12:29:19Z</time>
      </trkpt>
      <trkpt lat="48.1562" lon="-4.28445">
        <ele>10.71</ele>
        <time>2016-05-03T12:29:34Z</time>
      </trkpt>
      <trkpt lat="48.15611" lon="-4.28472">
        <ele>10.23</ele>
        <time>2016-05-03T12:29:50Z</time>
      </trkpt>
      <trkpt lat="48.15608" lon="-4.28495">
        <ele>10.71</ele>
        <time>2016-05-03T12:30:03Z</time>
      </trkpt>
      <trkpt lat="48.15607" lon="-4.28518">
        <ele>10.71</ele>
        <time>2016-05-03T12:30:16Z</time>
      </trkpt>
      <trkpt lat="48.15607" lon="-4.28521">
        <ele>10.71</ele>
        <time>2016-05-03T12:30:18Z</time>
      </trkpt>
      <trkpt lat="48.15607" lon="-4.28537">
        <ele>11.19</ele>
        <time>2016-05-03T12:30:27Z</time>
      </trkpt>
      <trkpt lat="48.15606" lon="-4.28553">
        <ele>11.19</ele>
        <time>2016-05-03T12:30:35Z</time>
      </trkpt>
      <trkpt lat="48.15604" lon="-4.28563">
        <ele>11.67</ele>
        <time>2016-05-03T12:30:40Z</time>
      </trkpt>
      <trkpt lat="48.15602" lon="-4.28587">
        <ele>12.15</ele>
        <time>2016-05-03T12:30:55Z</time>
      </trkpt>
      <trkpt lat="48.15606" lon="-4.28614">
        <ele>12.63</ele>
        <time>2016-05-03T12:31:12Z</time>
      </trkpt>
      <trkpt lat="48.15607" lon="-4.28624">
        <ele>13.12</ele>
        <time>2016-05-03T12:31:18Z</time>
      </trkpt>
      <trkpt lat="48.15611" lon="-4.28634">
        <ele>13.12</ele>
        <time>2016-05-03T12:31:25Z</time>
      </trkpt>
      <trkpt lat="48.15616" lon="-4.28643">
        <ele>13.6</ele>
        <time>2016-05-03T12:31:32Z</time>
      </trkpt>
      <trkpt lat="48.15623" lon="-4.28648">
        <ele>13.6</ele>
        <time>2016-05-03T12:31:38Z</time>
      </trkpt>
      <trkpt lat="48.15625" lon="-4.28652">
        <ele>13.6</ele>
        <time>2016-05-03T12:31:42Z</time>
      </trkpt>
      <trkpt lat="48.1563" lon="-4.2866">
        <ele>13.6</ele>
        <time>2016-05-03T12:31:57Z</time>
      </trkpt>
      <trkpt lat="48.15633" lon="-4.28664">
        <ele>14.08</ele>
        <time>2016-05-03T12:32:09Z</time>
      </trkpt>
      <trkpt lat="48.15633" lon="-4.28666">
        <ele>13.6</ele>
        <time>2016-05-03T12:32:11Z</time>
      </trkpt>
      <trkpt lat="48.15642" lon="-4.28681">
        <ele>13.6</ele>
        <time>2016-05-03T12:32:25Z</time>
      </trkpt>
      <trkpt lat="48.15644" lon="-4.28685">
        <ele>13.12</ele>
        <time>2016-05-03T12:32:28Z</time>
      </trkpt>
      <trkpt lat="48.15656" lon="-4.28696">
        <ele>13.6</ele>
        <time>2016-05-03T12:32:43Z</time>
      </trkpt>
      <trkpt lat="48.1566" lon="-4.28698">
        <ele>13.6</ele>
        <time>2016-05-03T12:32:47Z</time>
      </trkpt>
      <trkpt lat="48.15666" lon="-4.28701">
        <ele>13.6</ele>
        <time>2016-05-03T12:32:52Z</time>
      </trkpt>
      <trkpt lat="48.15669" lon="-4.28703">
        <ele>14.08</ele>
        <time>2016-05-03T12:32:55Z</time>
      </trkpt>
      <trkpt lat="48.15681" lon="-4.28714">
        <ele>14.56</ele>
        <time>2016-05-03T12:33:08Z</time>
      </trkpt>
      <trkpt lat="48.15692" lon="-4.28736">
        <ele>13.12</ele>
        <time>2016-05-03T12:33:24Z</time>
      </trkpt>
      <trkpt lat="48.15693" lon="-4.28739">
        <ele>12.63</ele>
        <time>2016-05-03T12:33:26Z</time>
      </trkpt>
      <trkpt lat="48.15698" lon="-4.28748">
        <ele>13.12</ele>
        <time>2016-05-03T12:33:34Z</time>
      </trkpt>
      <trkpt lat="48.15708" lon="-4.28765">
        <ele>13.12</ele>
        <time>2016-05-03T12:33:47Z</time>
      </trkpt>
      <trkpt lat="48.15718" lon="-4.28777">
        <ele>12.63</ele>
        <time>2016-05-03T12:33:57Z</time>
      </trkpt>
      <trkpt lat="48.15735" lon="-4.28788">
        <ele>12.15</ele>
        <time>2016-05-03T12:34:12Z</time>
      </trkpt>
      <trkpt lat="48.15747" lon="-4.28803">
        <ele>11.19</ele>
        <time>2016-05-03T12:34:25Z</time>
      </trkpt>
      <trkpt lat="48.15763" lon="-4.28824">
        <ele>9.75</ele>
        <time>2016-05-03T12:34:41Z</time>
      </trkpt>
      <trkpt lat="48.15779" lon="-4.28832">
        <ele>9.75</ele>
        <time>2016-05-03T12:34:55Z</time>
      </trkpt>
      <trkpt lat="48.15795" lon="-4.28823">
        <ele>10.71</ele>
        <time>2016-05-03T12:35:10Z</time>
      </trkpt>
      <trkpt lat="48.15799" lon="-4.28817">
        <ele>11.19</ele>
        <time>2016-05-03T12:35:15Z</time>
      </trkpt>
      <trkpt lat="48.15807" lon="-4.28807">
        <ele>13.12</ele>
        <time>2016-05-03T12:35:24Z</time>
      </trkpt>
      <trkpt lat="48.15824" lon="-4.28791">
        <ele>13.6</ele>
        <time>2016-05-03T12:35:40Z</time>
      </trkpt>
      <trkpt lat="48.15839" lon="-4.28775">
        <ele>13.12</ele>
        <time>2016-05-03T12:35:55Z</time>
      </trkpt>
      <trkpt lat="48.15854" lon="-4.2876">
        <ele>12.63</ele>
        <time>2016-05-03T12:36:09Z</time>
      </trkpt>
      <trkpt lat="48.15857" lon="-4.28757">
        <ele>12.63</ele>
        <time>2016-05-03T12:36:12Z</time>
      </trkpt>
      <trkpt lat="48.15876" lon="-4.28743">
        <ele>12.15</ele>
        <time>2016-05-03T12:36:27Z</time>
      </trkpt>
      <trkpt lat="48.15879" lon="-4.28741">
        <ele>12.15</ele>
        <time>2016-05-03T12:36:29Z</time>
      </trkpt>
      <trkpt lat="48.15887" lon="-4.28733">
        <ele>10.71</ele>
        <time>2016-05-03T12:36:38Z</time>
      </trkpt>
      <trkpt lat="48.15899" lon="-4.28732">
        <ele>11.67</ele>
        <time>2016-05-03T12:36:50Z</time>
      </trkpt>
      <trkpt lat="48.15905" lon="-4.28732">
        <ele>10.71</ele>
        <time>2016-05-03T12:36:56Z</time>
      </trkpt>
      <trkpt lat="48.15909" lon="-4.2873">
        <ele>9.75</ele>
        <time>2016-05-03T12:37:00Z</time>
      </trkpt>
      <trkpt lat="48.15925" lon="-4.28724">
        <ele>7.35</ele>
        <time>2016-05-03T12:37:15Z</time>
      </trkpt>
      <trkpt lat="48.15937" lon="-4.28718">
        <ele>6.87</ele>
        <time>2016-05-03T12:37:30Z</time>
      </trkpt>
      <trkpt lat="48.15937" lon="-4.28719">
        <ele>6.39</ele>
        <time>2016-05-03T12:37:51Z</time>
      </trkpt>
      <trkpt lat="48.15938" lon="-4.28719">
        <ele>7.83</ele>
        <time>2016-05-03T12:38:16Z</time>
      </trkpt>
      <trkpt lat="48.15938" lon="-4.28718">
        <ele>8.31</ele>
        <time>2016-05-03T12:38:45Z</time>
      </trkpt>
      <trkpt lat="48.15939" lon="-4.28719">
        <ele>8.31</ele>
        <time>2016-05-03T12:38:53Z</time>
      </trkpt>
      <trkpt lat="48.1595" lon="-4.2873">
        <ele>7.83</ele>
        <time>2016-05-03T12:39:06Z</time>
      </trkpt>
      <trkpt lat="48.1596" lon="-4.28751">
        <ele>6.87</ele>
        <time>2016-05-03T12:39:21Z</time>
      </trkpt>
      <trkpt lat="48.15964" lon="-4.28764">
        <ele>5.42</ele>
        <time>2016-05-03T12:39:29Z</time>
      </trkpt>
      <trkpt lat="48.1597" lon="-4.28776">
        <ele>3.98</ele>
        <time>2016-05-03T12:39:37Z</time>
      </trkpt>
      <trkpt lat="48.15984" lon="-4.28803">
        <ele>5.91</ele>
        <time>2016-05-03T12:39:55Z</time>
      </trkpt>
      <trkpt lat="48.15992" lon="-4.28825">
        <ele>6.87</ele>
        <time>2016-05-03T12:40:08Z</time>
      </trkpt>
      <trkpt lat="48.16002" lon="-4.28846">
        <ele>8.31</ele>
        <time>2016-05-03T12:40:22Z</time>
      </trkpt>
      <trkpt lat="48.16011" lon="-4.28869">
        <ele>9.75</ele>
        <time>2016-05-03T12:40:37Z</time>
      </trkpt>
      <trkpt lat="48.16022" lon="-4.2889">
        <ele>10.71</ele>
        <time>2016-05-03T12:40:52Z</time>
      </trkpt>
      <trkpt lat="48.16031" lon="-4.28909">
        <ele>12.15</ele>
        <time>2016-05-03T12:41:05Z</time>
      </trkpt>
      <trkpt lat="48.16034" lon="-4.28916">
        <ele>12.63</ele>
        <time>2016-05-03T12:41:10Z</time>
      </trkpt>
      <trkpt lat="48.16045" lon="-4.28939">
        <ele>14.08</ele>
        <time>2016-05-03T12:41:26Z</time>
      </trkpt>
      <trkpt lat="48.16054" lon="-4.28958">
        <ele>16.96</ele>
        <time>2016-05-03T12:41:41Z</time>
      </trkpt>
      <trkpt lat="48.16064" lon="-4.28979">
        <ele>19.36</ele>
        <time>2016-05-03T12:41:57Z</time>
      </trkpt>
      <trkpt lat="48.16074" lon="-4.29001">
        <ele>20.81</ele>
        <time>2016-05-03T12:42:14Z</time>
      </trkpt>
      <trkpt lat="48.16078" lon="-4.29011">
        <ele>22.25</ele>
        <time>2016-05-03T12:42:22Z</time>
      </trkpt>
      <trkpt lat="48.16086" lon="-4.29023">
        <ele>23.21</ele>
        <time>2016-05-03T12:42:33Z</time>
      </trkpt>
      <trkpt lat="48.16094" lon="-4.29039">
        <ele>24.65</ele>
        <time>2016-05-03T12:42:48Z</time>
      </trkpt>
      <trkpt lat="48.16094" lon="-4.29042">
        <ele>25.13</ele>
        <time>2016-05-03T12:42:50Z</time>
      </trkpt>
      <trkpt lat="48.16083" lon="-4.29065">
        <ele>26.09</ele>
        <time>2016-05-03T12:43:06Z</time>
      </trkpt>
      <trkpt lat="48.16073" lon="-4.29088">
        <ele>24.65</ele>
        <time>2016-05-03T12:43:21Z</time>
      </trkpt>
      <trkpt lat="48.16063" lon="-4.2911">
        <ele>24.17</ele>
        <time>2016-05-03T12:43:35Z</time>
      </trkpt>
      <trkpt lat="48.16062" lon="-4.29112">
        <ele>24.17</ele>
        <time>2016-05-03T12:43:36Z</time>
      </trkpt>
      <trkpt lat="48.1605" lon="-4.2913">
        <ele>25.61</ele>
        <time>2016-05-03T12:43:49Z</time>
      </trkpt>
      <trkpt lat="48.16041" lon="-4.29145">
        <ele>26.09</ele>
        <time>2016-05-03T12:44:00Z</time>
      </trkpt>
      <trkpt lat="48.16037" lon="-4.29151">
        <ele>26.57</ele>
        <time>2016-05-03T12:44:04Z</time>
      </trkpt>
      <trkpt lat="48.16029" lon="-4.29164">
        <ele>27.05</ele>
        <time>2016-05-03T12:44:14Z</time>
      </trkpt>
      <trkpt lat="48.16021" lon="-4.29168">
        <ele>26.09</ele>
        <time>2016-05-03T12:44:24Z</time>
      </trkpt>
      <trkpt lat="48.16001" lon="-4.29162">
        <ele>23.21</ele>
        <time>2016-05-03T12:44:41Z</time>
      </trkpt>
      <trkpt lat="48.15984" lon="-4.29171">
        <ele>21.77</ele>
        <time>2016-05-03T12:44:56Z</time>
      </trkpt>
      <trkpt lat="48.15969" lon="-4.29182">
        <ele>20.32</ele>
        <time>2016-05-03T12:45:09Z</time>
      </trkpt>
      <trkpt lat="48.15962" lon="-4.29189">
        <ele>19.84</ele>
        <time>2016-05-03T12:45:16Z</time>
      </trkpt>
      <trkpt lat="48.15954" lon="-4.29195">
        <ele>19.36</ele>
        <time>2016-05-03T12:45:24Z</time>
      </trkpt>
      <trkpt lat="48.1594" lon="-4.29204">
        <ele>20.32</ele>
        <time>2016-05-03T12:45:36Z</time>
      </trkpt>
      <trkpt lat="48.15924" lon="-4.2922">
        <ele>20.81</ele>
        <time>2016-05-03T12:45:51Z</time>
      </trkpt>
      <trkpt lat="48.15912" lon="-4.29236">
        <ele>19.84</ele>
        <time>2016-05-03T12:46:04Z</time>
      </trkpt>
      <trkpt lat="48.15901" lon="-4.29256">
        <ele>19.84</ele>
        <time>2016-05-03T12:46:18Z</time>
      </trkpt>
      <trkpt lat="48.15894" lon="-4.29268">
        <ele>19.84</ele>
        <time>2016-05-03T12:46:27Z</time>
      </trkpt>
      <trkpt lat="48.15888" lon="-4.2929">
        <ele>20.81</ele>
        <time>2016-05-03T12:46:40Z</time>
      </trkpt>
      <trkpt lat="48.15885" lon="-4.29296">
        <ele>21.77</ele>
        <time>2016-05-03T12:46:44Z</time>
      </trkpt>
      <trkpt lat="48.15875" lon="-4.2932">
        <ele>22.25</ele>
        <time>2016-05-03T12:47:00Z</time>
      </trkpt>
      <trkpt lat="48.15874" lon="-4.29323">
        <ele>21.77</ele>
        <time>2016-05-03T12:47:02Z</time>
      </trkpt>
      <trkpt lat="48.15865" lon="-4.29352">
        <ele>23.21</ele>
        <time>2016-05-03T12:47:19Z</time>
      </trkpt>
      <trkpt lat="48.15861" lon="-4.29373">
        <ele>24.65</ele>
        <time>2016-05-03T12:47:32Z</time>
      </trkpt>
      <trkpt lat="48.15855" lon="-4.29396">
        <ele>25.13</ele>
        <time>2016-05-03T12:47:46Z</time>
      </trkpt>
      <trkpt lat="48.15855" lon="-4.29398">
        <ele>25.13</ele>
        <time>2016-05-03T12:47:47Z</time>
      </trkpt>
      <trkpt lat="48.1586" lon="-4.29427">
        <ele>25.13</ele>
        <time>2016-05-03T12:48:04Z</time>
      </trkpt>
      <trkpt lat="48.15872" lon="-4.29442">
        <ele>25.61</ele>
        <time>2016-05-03T12:48:19Z</time>
      </trkpt>
      <trkpt lat="48.15883" lon="-4.29448">
        <ele>29.46</ele>
        <time>2016-05-03T12:48:32Z</time>
      </trkpt>
      <trkpt lat="48.1589" lon="-4.29453">
        <ele>31.86</ele>
        <time>2016-05-03T12:48:41Z</time>
      </trkpt>
      <trkpt lat="48.15897" lon="-4.29459">
        <ele>33.78</ele>
        <time>2016-05-03T12:48:49Z</time>
      </trkpt>
      <trkpt lat="48.15908" lon="-4.29471">
        <ele>34.74</ele>
        <time>2016-05-03T12:49:04Z</time>
      </trkpt>
      <trkpt lat="48.15922" lon="-4.29476">
        <ele>36.67</ele>
        <time>2016-05-03T12:49:17Z</time>
      </trkpt>
      <trkpt lat="48.15924" lon="-4.29477">
        <ele>36.67</ele>
        <time>2016-05-03T12:49:19Z</time>
      </trkpt>
      <trkpt lat="48.15936" lon="-4.29472">
        <ele>37.63</ele>
        <time>2016-05-03T12:49:32Z</time>
      </trkpt>
      <trkpt lat="48.15943" lon="-4.29476">
        <ele>37.15</ele>
        <time>2016-05-03T12:49:39Z</time>
      </trkpt>
      <trkpt lat="48.15955" lon="-4.29491">
        <ele>36.19</ele>
        <time>2016-05-03T12:49:53Z</time>
      </trkpt>
      <trkpt lat="48.15967" lon="-4.29502">
        <ele>35.71</ele>
        <time>2016-05-03T12:50:06Z</time>
      </trkpt>
      <trkpt lat="48.1597" lon="-4.29504">
        <ele>35.23</ele>
        <time>2016-05-03T12:50:09Z</time>
      </trkpt>
      <trkpt lat="48.15976" lon="-4.29508">
        <ele>35.71</ele>
        <time>2016-05-03T12:50:14Z</time>
      </trkpt>
      <trkpt lat="48.15979" lon="-4.29513">
        <ele>34.74</ele>
        <time>2016-05-03T12:50:18Z</time>
      </trkpt>
      <trkpt lat="48.15985" lon="-4.2952">
        <ele>33.78</ele>
        <time>2016-05-03T12:50:25Z</time>
      </trkpt>
      <trkpt lat="48.15987" lon="-4.29529">
        <ele>33.78</ele>
        <time>2016-05-03T12:50:31Z</time>
      </trkpt>
      <trkpt lat="48.15992" lon="-4.29534">
        <ele>33.3</ele>
        <time>2016-05-03T12:50:36Z</time>
      </trkpt>
      <trkpt lat="48.15994" lon="-4.29534">
        <ele>33.3</ele>
        <time>2016-05-03T12:50:38Z</time>
      </trkpt>
      <trkpt lat="48.16002" lon="-4.29538">
        <ele>34.74</ele>
        <time>2016-05-03T12:50:48Z</time>
      </trkpt>
      <trkpt lat="48.16004" lon="-4.29541">
        <ele>34.74</ele>
        <time>2016-05-03T12:51:02Z</time>
      </trkpt>
      <trkpt lat="48.16006" lon="-4.29537">
        <ele>34.26</ele>
        <time>2016-05-03T12:51:16Z</time>
      </trkpt>
      <trkpt lat="48.16006" lon="-4.29537">
        <ele>34.26</ele>
        <time>2016-05-03T12:51:25Z</time>
      </trkpt>
      <trkpt lat="48.16008" lon="-4.29535">
        <ele>32.82</ele>
        <time>2016-05-03T12:51:28Z</time>
      </trkpt>
      <trkpt lat="48.16012" lon="-4.29536">
        <ele>31.86</ele>
        <time>2016-05-03T12:51:34Z</time>
      </trkpt>
      <trkpt lat="48.16021" lon="-4.29526">
        <ele>29.94</ele>
        <time>2016-05-03T12:51:44Z</time>
      </trkpt>
      <trkpt lat="48.16023" lon="-4.29517">
        <ele>29.94</ele>
        <time>2016-05-03T12:51:49Z</time>
      </trkpt>
      <trkpt lat="48.16026" lon="-4.29512">
        <ele>30.42</ele>
        <time>2016-05-03T12:51:53Z</time>
      </trkpt>
      <trkpt lat="48.16038" lon="-4.29492">
        <ele>32.34</ele>
        <time>2016-05-03T12:52:06Z</time>
      </trkpt>
      <trkpt lat="48.16038" lon="-4.29489">
        <ele>31.86</ele>
        <time>2016-05-03T12:52:08Z</time>
      </trkpt>
      <trkpt lat="48.16043" lon="-4.29479">
        <ele>31.38</ele>
        <time>2016-05-03T12:52:16Z</time>
      </trkpt>
      <trkpt lat="48.16058" lon="-4.29466">
        <ele>31.38</ele>
        <time>2016-05-03T12:52:31Z</time>
      </trkpt>
      <trkpt lat="48.16061" lon="-4.29465">
        <ele>30.9</ele>
        <time>2016-05-03T12:52:34Z</time>
      </trkpt>
      <trkpt lat="48.1607" lon="-4.2946">
        <ele>29.46</ele>
        <time>2016-05-03T12:52:43Z</time>
      </trkpt>
      <trkpt lat="48.16072" lon="-4.29461">
        <ele>29.94</ele>
        <time>2016-05-03T12:52:45Z</time>
      </trkpt>
      <trkpt lat="48.16081" lon="-4.29464">
        <ele>29.46</ele>
        <time>2016-05-03T12:52:53Z</time>
      </trkpt>
      <trkpt lat="48.1609" lon="-4.29479">
        <ele>26.57</ele>
        <time>2016-05-03T12:53:08Z</time>
      </trkpt>
      <trkpt lat="48.1609" lon="-4.2948">
        <ele>26.57</ele>
        <time>2016-05-03T12:53:09Z</time>
      </trkpt>
      <trkpt lat="48.16092" lon="-4.29492">
        <ele>23.69</ele>
        <time>2016-05-03T12:53:19Z</time>
      </trkpt>
      <trkpt lat="48.16092" lon="-4.29505">
        <ele>20.81</ele>
        <time>2016-05-03T12:53:29Z</time>
      </trkpt>
      <trkpt lat="48.16095" lon="-4.29512">
        <ele>19.84</ele>
        <time>2016-05-03T12:53:34Z</time>
      </trkpt>
      <trkpt lat="48.16098" lon="-4.29516">
        <ele>19.36</ele>
        <time>2016-05-03T12:53:37Z</time>
      </trkpt>
      <trkpt lat="48.16104" lon="-4.29518">
        <ele>19.36</ele>
        <time>2016-05-03T12:53:42Z</time>
      </trkpt>
      <trkpt lat="48.16109" lon="-4.29521">
        <ele>19.36</ele>
        <time>2016-05-03T12:53:46Z</time>
      </trkpt>
      <trkpt lat="48.16112" lon="-4.2952">
        <ele>19.36</ele>
        <time>2016-05-03T12:53:49Z</time>
      </trkpt>
      <trkpt lat="48.16115" lon="-4.29521">
        <ele>19.36</ele>
        <time>2016-05-03T12:53:52Z</time>
      </trkpt>
      <trkpt lat="48.16119" lon="-4.29518">
        <ele>19.84</ele>
        <time>2016-05-03T12:53:57Z</time>
      </trkpt>
      <trkpt lat="48.16121" lon="-4.29514">
        <ele>19.36</ele>
        <time>2016-05-03T12:54:00Z</time>
      </trkpt>
      <trkpt lat="48.16123" lon="-4.29513">
        <ele>19.36</ele>
        <time>2016-05-03T12:54:02Z</time>
      </trkpt>
      <trkpt lat="48.16129" lon="-4.2949">
        <ele>19.84</ele>
        <time>2016-05-03T12:54:16Z</time>
      </trkpt>
      <trkpt lat="48.16136" lon="-4.2947">
        <ele>19.84</ele>
        <time>2016-05-03T12:54:31Z</time>
      </trkpt>
      <trkpt lat="48.16139" lon="-4.29461">
        <ele>19.36</ele>
        <time>2016-05-03T12:54:38Z</time>
      </trkpt>
      <trkpt lat="48.16147" lon="-4.29449">
        <ele>18.88</ele>
        <time>2016-05-03T12:54:47Z</time>
      </trkpt>
      <trkpt lat="48.1615" lon="-4.29445">
        <ele>19.84</ele>
        <time>2016-05-03T12:54:51Z</time>
      </trkpt>
      <trkpt lat="48.16158" lon="-4.29429">
        <ele>20.32</ele>
        <time>2016-05-03T12:55:04Z</time>
      </trkpt>
      <trkpt lat="48.16159" lon="-4.29427">
        <ele>20.32</ele>
        <time>2016-05-03T12:55:06Z</time>
      </trkpt>
      <trkpt lat="48.1616" lon="-4.29423">
        <ele>19.84</ele>
        <time>2016-05-03T12:55:08Z</time>
      </trkpt>
      <trkpt lat="48.16162" lon="-4.2942">
        <ele>19.36</ele>
        <time>2016-05-03T12:55:11Z</time>
      </trkpt>
      <trkpt lat="48.16166" lon="-4.29412">
        <ele>19.36</ele>
        <time>2016-05-03T12:55:18Z</time>
      </trkpt>
      <trkpt lat="48.16178" lon="-4.29392">
        <ele>22.25</ele>
        <time>2016-05-03T12:55:33Z</time>
      </trkpt>
      <trkpt lat="48.16182" lon="-4.29387">
        <ele>22.73</ele>
        <time>2016-05-03T12:55:37Z</time>
      </trkpt>
      <trkpt lat="48.16186" lon="-4.2938">
        <ele>23.21</ele>
        <time>2016-05-03T12:55:42Z</time>
      </trkpt>
      <trkpt lat="48.162" lon="-4.29364">
        <ele>22.73</ele>
        <time>2016-05-03T12:55:57Z</time>
      </trkpt>
      <trkpt lat="48.16204" lon="-4.29361">
        <ele>22.73</ele>
        <time>2016-05-03T12:56:01Z</time>
      </trkpt>
      <trkpt lat="48.16211" lon="-4.29354">
        <ele>22.25</ele>
        <time>2016-05-03T12:56:08Z</time>
      </trkpt>
      <trkpt lat="48.1623" lon="-4.29341">
        <ele>20.32</ele>
        <time>2016-05-03T12:56:26Z</time>
      </trkpt>
      <trkpt lat="48.16243" lon="-4.29336">
        <ele>18.88</ele>
        <time>2016-05-03T12:56:41Z</time>
      </trkpt>
      <trkpt lat="48.16244" lon="-4.29336">
        <ele>18.88</ele>
        <time>2016-05-03T12:56:43Z</time>
      </trkpt>
      <trkpt lat="48.16248" lon="-4.29339">
        <ele>18.4</ele>
        <time>2016-05-03T12:56:47Z</time>
      </trkpt>
      <trkpt lat="48.1626" lon="-4.2934">
        <ele>19.36</ele>
        <time>2016-05-03T12:56:58Z</time>
      </trkpt>
      <trkpt lat="48.16267" lon="-4.29338">
        <ele>20.32</ele>
        <time>2016-05-03T12:57:03Z</time>
      </trkpt>
      <trkpt lat="48.16272" lon="-4.2934">
        <ele>20.32</ele>
        <time>2016-05-03T12:57:07Z</time>
      </trkpt>
      <trkpt lat="48.16276" lon="-4.2934">
        <ele>20.81</ele>
        <time>2016-05-03T12:57:11Z</time>
      </trkpt>
      <trkpt lat="48.1629" lon="-4.29341">
        <ele>20.81</ele>
        <time>2016-05-03T12:57:22Z</time>
      </trkpt>
      <trkpt lat="48.16303" lon="-4.29343">
        <ele>20.81</ele>
        <time>2016-05-03T12:57:35Z</time>
      </trkpt>
      <trkpt lat="48.16312" lon="-4.29344">
        <ele>20.32</ele>
        <time>2016-05-03T12:57:43Z</time>
      </trkpt>
      <trkpt lat="48.1633" lon="-4.29347">
        <ele>20.81</ele>
        <time>2016-05-03T12:57:56Z</time>
      </trkpt>
      <trkpt lat="48.16341" lon="-4.29351">
        <ele>21.29</ele>
        <time>2016-05-03T12:58:05Z</time>
      </trkpt>
      <trkpt lat="48.16349" lon="-4.29353">
        <ele>21.29</ele>
        <time>2016-05-03T12:58:12Z</time>
      </trkpt>
      <trkpt lat="48.16354" lon="-4.29352">
        <ele>21.29</ele>
        <time>2016-05-03T12:58:16Z</time>
      </trkpt>
      <trkpt lat="48.1637" lon="-4.29357">
        <ele>20.32</ele>
        <time>2016-05-03T12:58:30Z</time>
      </trkpt>
      <trkpt lat="48.16376" lon="-4.29357">
        <ele>19.84</ele>
        <time>2016-05-03T12:58:35Z</time>
      </trkpt>
      <trkpt lat="48.16381" lon="-4.29354">
        <ele>19.36</ele>
        <time>2016-05-03T12:58:39Z</time>
      </trkpt>
      <trkpt lat="48.16386" lon="-4.29355">
        <ele>18.88</ele>
        <time>2016-05-03T12:58:43Z</time>
      </trkpt>
      <trkpt lat="48.16388" lon="-4.29353">
        <ele>18.88</ele>
        <time>2016-05-03T12:58:46Z</time>
      </trkpt>
      <trkpt lat="48.16392" lon="-4.29353">
        <ele>18.88</ele>
        <time>2016-05-03T12:58:49Z</time>
      </trkpt>
      <trkpt lat="48.16394" lon="-4.29352">
        <ele>18.88</ele>
        <time>2016-05-03T12:58:51Z</time>
      </trkpt>
      <trkpt lat="48.16402" lon="-4.29353">
        <ele>19.36</ele>
        <time>2016-05-03T12:58:57Z</time>
      </trkpt>
      <trkpt lat="48.16414" lon="-4.29351">
        <ele>18.88</ele>
        <time>2016-05-03T12:59:08Z</time>
      </trkpt>
      <trkpt lat="48.16425" lon="-4.29344">
        <ele>17.92</ele>
        <time>2016-05-03T12:59:18Z</time>
      </trkpt>
      <trkpt lat="48.1643" lon="-4.29345">
        <ele>17.92</ele>
        <time>2016-05-03T12:59:22Z</time>
      </trkpt>
      <trkpt lat="48.16446" lon="-4.29353">
        <ele>16.48</ele>
        <time>2016-05-03T12:59:38Z</time>
      </trkpt>
      <trkpt lat="48.16459" lon="-4.29362">
        <ele>14.08</ele>
        <time>2016-05-03T12:59:51Z</time>
      </trkpt>
      <trkpt lat="48.16459" lon="-4.29364">
        <ele>13.6</ele>
        <time>2016-05-03T12:59:53Z</time>
      </trkpt>
      <trkpt lat="48.16468" lon="-4.29383">
        <ele>12.15</ele>
        <time>2016-05-03T13:00:05Z</time>
      </trkpt>
      <trkpt lat="48.16472" lon="-4.29392">
        <ele>11.19</ele>
        <time>2016-05-03T13:00:11Z</time>
      </trkpt>
      <trkpt lat="48.16477" lon="-4.29411">
        <ele>8.79</ele>
        <time>2016-05-03T13:00:24Z</time>
      </trkpt>
      <trkpt lat="48.16481" lon="-4.29435">
        <ele>8.31</ele>
        <time>2016-05-03T13:00:38Z</time>
      </trkpt>
      <trkpt lat="48.16489" lon="-4.29457">
        <ele>8.31</ele>
        <time>2016-05-03T13:00:51Z</time>
      </trkpt>
      <trkpt lat="48.16496" lon="-4.29467">
        <ele>8.31</ele>
        <time>2016-05-03T13:01:00Z</time>
      </trkpt>
      <trkpt lat="48.16499" lon="-4.29471">
        <ele>7.83</ele>
        <time>2016-05-03T13:01:04Z</time>
      </trkpt>
      <trkpt lat="48.16502" lon="-4.29474">
        <ele>7.83</ele>
        <time>2016-05-03T13:01:07Z</time>
      </trkpt>
      <trkpt lat="48.16505" lon="-4.29477">
        <ele>7.83</ele>
        <time>2016-05-03T13:01:10Z</time>
      </trkpt>
      <trkpt lat="48.16507" lon="-4.29478">
        <ele>8.31</ele>
        <time>2016-05-03T13:01:13Z</time>
      </trkpt>
      <trkpt lat="48.16513" lon="-4.29484">
        <ele>9.27</ele>
        <time>2016-05-03T13:01:18Z</time>
      </trkpt>
      <trkpt lat="48.16517" lon="-4.29491">
        <ele>9.75</ele>
        <time>2016-05-03T13:01:23Z</time>
      </trkpt>
      <trkpt lat="48.16519" lon="-4.29495">
        <ele>10.71</ele>
        <time>2016-05-03T13:01:26Z</time>
      </trkpt>
      <trkpt lat="48.16528" lon="-4.29505">
        <ele>12.15</ele>
        <time>2016-05-03T13:01:37Z</time>
      </trkpt>
      <trkpt lat="48.16535" lon="-4.2951">
        <ele>12.63</ele>
        <time>2016-05-03T13:01:43Z</time>
      </trkpt>
      <trkpt lat="48.16546" lon="-4.29521">
        <ele>14.08</ele>
        <time>2016-05-03T13:01:55Z</time>
      </trkpt>
      <trkpt lat="48.16548" lon="-4.29525">
        <ele>14.08</ele>
        <time>2016-05-03T13:01:58Z</time>
      </trkpt>
      <trkpt lat="48.16547" lon="-4.29534">
        <ele>14.08</ele>
        <time>2016-05-03T13:02:03Z</time>
      </trkpt>
      <trkpt lat="48.16546" lon="-4.29539">
        <ele>13.6</ele>
        <time>2016-05-03T13:02:06Z</time>
      </trkpt>
      <trkpt lat="48.16542" lon="-4.29559">
        <ele>11.67</ele>
        <time>2016-05-03T13:02:18Z</time>
      </trkpt>
      <trkpt lat="48.16543" lon="-4.29561">
        <ele>11.19</ele>
        <time>2016-05-03T13:02:19Z</time>
      </trkpt>
      <trkpt lat="48.16552" lon="-4.29571">
        <ele>7.83</ele>
        <time>2016-05-03T13:02:29Z</time>
      </trkpt>
      <trkpt lat="48.16549" lon="-4.29585">
        <ele>6.87</ele>
        <time>2016-05-03T13:02:38Z</time>
      </trkpt>
      <trkpt lat="48.16546" lon="-4.2959">
        <ele>5.91</ele>
        <time>2016-05-03T13:02:42Z</time>
      </trkpt>
      <trkpt lat="48.16542" lon="-4.29616">
        <ele>4.46</ele>
        <time>2016-05-03T13:02:56Z</time>
      </trkpt>
      <trkpt lat="48.16538" lon="-4.29618">
        <ele>4.94</ele>
        <time>2016-05-03T13:03:00Z</time>
      </trkpt>
      <trkpt lat="48.16532" lon="-4.29629">
        <ele>4.94</ele>
        <time>2016-05-03T13:03:11Z</time>
      </trkpt>
      <trkpt lat="48.16532" lon="-4.29634">
        <ele>4.94</ele>
        <time>2016-05-03T13:03:14Z</time>
      </trkpt>
      <trkpt lat="48.1653" lon="-4.29658">
        <ele>2.06</ele>
        <time>2016-05-03T13:03:28Z</time>
      </trkpt>
      <trkpt lat="48.16529" lon="-4.29664">
        <ele>1.1</ele>
        <time>2016-05-03T13:03:32Z</time>
      </trkpt>
      <trkpt lat="48.16526" lon="-4.29679">
        <ele>0.62</ele>
        <time>2016-05-03T13:03:41Z</time>
      </trkpt>
      <trkpt lat="48.16523" lon="-4.29697">
        <ele>2.54</ele>
        <time>2016-05-03T13:03:52Z</time>
      </trkpt>
      <trkpt lat="48.16522" lon="-4.29701">
        <ele>2.54</ele>
        <time>2016-05-03T13:03:55Z</time>
      </trkpt>
      <trkpt lat="48.16523" lon="-4.29711">
        <ele>3.02</ele>
        <time>2016-05-03T13:04:01Z</time>
      </trkpt>
      <trkpt lat="48.16526" lon="-4.29712">
        <ele>3.98</ele>
        <time>2016-05-03T13:04:09Z</time>
      </trkpt>
      <trkpt lat="48.16531" lon="-4.29702">
        <ele>5.42</ele>
        <time>2016-05-03T13:04:21Z</time>
      </trkpt>
      <trkpt lat="48.16534" lon="-4.29698">
        <ele>6.39</ele>
        <time>2016-05-03T13:04:26Z</time>
      </trkpt>
      <trkpt lat="48.16539" lon="-4.29703">
        <ele>7.83</ele>
        <time>2016-05-03T13:04:34Z</time>
      </trkpt>
      <trkpt lat="48.16542" lon="-4.29727">
        <ele>7.35</ele>
        <time>2016-05-03T13:04:50Z</time>
      </trkpt>
      <trkpt lat="48.16547" lon="-4.2973">
        <ele>6.87</ele>
        <time>2016-05-03T13:04:56Z</time>
      </trkpt>
      <trkpt lat="48.16552" lon="-4.29731">
        <ele>5.91</ele>
        <time>2016-05-03T13:05:00Z</time>
      </trkpt>
      <trkpt lat="48.16568" lon="-4.29719">
        <ele>5.91</ele>
        <time>2016-05-03T13:05:15Z</time>
      </trkpt>
      <trkpt lat="48.16583" lon="-4.2972">
        <ele>6.87</ele>
        <time>2016-05-03T13:05:28Z</time>
      </trkpt>
      <trkpt lat="48.16585" lon="-4.29721">
        <ele>6.39</ele>
        <time>2016-05-03T13:05:30Z</time>
      </trkpt>
      <trkpt lat="48.16605" lon="-4.29716">
        <ele>7.35</ele>
        <time>2016-05-03T13:05:48Z</time>
      </trkpt>
      <trkpt lat="48.16619" lon="-4.29723">
        <ele>8.79</ele>
        <time>2016-05-03T13:06:01Z</time>
      </trkpt>
      <trkpt lat="48.16632" lon="-4.29734">
        <ele>9.27</ele>
        <time>2016-05-03T13:06:15Z</time>
      </trkpt>
      <trkpt lat="48.16651" lon="-4.2973">
        <ele>7.35</ele>
        <time>2016-05-03T13:06:32Z</time>
      </trkpt>
      <trkpt lat="48.16665" lon="-4.29716">
        <ele>9.75</ele>
        <time>2016-05-03T13:06:48Z</time>
      </trkpt>
      <trkpt lat="48.16669" lon="-4.29713">
        <ele>11.67</ele>
        <time>2016-05-03T13:06:52Z</time>
      </trkpt>
      <trkpt lat="48.16675" lon="-4.29714">
        <ele>13.12</ele>
        <time>2016-05-03T13:06:58Z</time>
      </trkpt>
      <trkpt lat="48.16678" lon="-4.29715">
        <ele>13.12</ele>
        <time>2016-05-03T13:07:01Z</time>
      </trkpt>
      <trkpt lat="48.16686" lon="-4.29729">
        <ele>12.63</ele>
        <time>2016-05-03T13:07:12Z</time>
      </trkpt>
      <trkpt lat="48.16699" lon="-4.29735">
        <ele>13.12</ele>
        <time>2016-05-03T13:07:27Z</time>
      </trkpt>
      <trkpt lat="48.16713" lon="-4.29734">
        <ele>16</ele>
        <time>2016-05-03T13:07:43Z</time>
      </trkpt>
      <trkpt lat="48.16717" lon="-4.29739">
        <ele>17.44</ele>
        <time>2016-05-03T13:07:51Z</time>
      </trkpt>
      <trkpt lat="48.16723" lon="-4.29757">
        <ele>17.44</ele>
        <time>2016-05-03T13:08:05Z</time>
      </trkpt>
      <trkpt lat="48.16725" lon="-4.2976">
        <ele>17.92</ele>
        <time>2016-05-03T13:08:08Z</time>
      </trkpt>
      <trkpt lat="48.16731" lon="-4.29768">
        <ele>19.84</ele>
        <time>2016-05-03T13:08:20Z</time>
      </trkpt>
      <trkpt lat="48.16736" lon="-4.29773">
        <ele>20.81</ele>
        <time>2016-05-03T13:08:27Z</time>
      </trkpt>
      <trkpt lat="48.16749" lon="-4.29782">
        <ele>21.77</ele>
        <time>2016-05-03T13:08:41Z</time>
      </trkpt>
      <trkpt lat="48.1675" lon="-4.29783">
        <ele>21.77</ele>
        <time>2016-05-03T13:08:42Z</time>
      </trkpt>
      <trkpt lat="48.16764" lon="-4.29792">
        <ele>22.25</ele>
        <time>2016-05-03T13:08:57Z</time>
      </trkpt>
      <trkpt lat="48.1677" lon="-4.298">
        <ele>23.69</ele>
        <time>2016-05-03T13:09:11Z</time>
      </trkpt>
      <trkpt lat="48.16781" lon="-4.29809">
        <ele>25.61</ele>
        <time>2016-05-03T13:09:26Z</time>
      </trkpt>
      <trkpt lat="48.16782" lon="-4.2981">
        <ele>26.09</ele>
        <time>2016-05-03T13:09:28Z</time>
      </trkpt>
      <trkpt lat="48.16782" lon="-4.29814">
        <ele>26.09</ele>
        <time>2016-05-03T13:09:31Z</time>
      </trkpt>
      <trkpt lat="48.16781" lon="-4.2982">
        <ele>25.13</ele>
        <time>2016-05-03T13:09:36Z</time>
      </trkpt>
      <trkpt lat="48.16781" lon="-4.29818">
        <ele>24.65</ele>
        <time>2016-05-03T13:09:46Z</time>
      </trkpt>
      <trkpt lat="48.16782" lon="-4.29816">
        <ele>25.13</ele>
        <time>2016-05-03T13:09:50Z</time>
      </trkpt>
      <trkpt lat="48.16784" lon="-4.29811">
        <ele>25.61</ele>
        <time>2016-05-03T13:10:04Z</time>
      </trkpt>
      <trkpt lat="48.16784" lon="-4.29811">
        <ele>25.61</ele>
        <time>2016-05-03T13:10:06Z</time>
      </trkpt>
      <trkpt lat="48.16776" lon="-4.29817">
        <ele>24.65</ele>
        <time>2016-05-03T13:10:20Z</time>
      </trkpt>
      <trkpt lat="48.16778" lon="-4.2982">
        <ele>24.65</ele>
        <time>2016-05-03T13:10:33Z</time>
      </trkpt>
      <trkpt lat="48.1678" lon="-4.29819">
        <ele>24.17</ele>
        <time>2016-05-03T13:10:42Z</time>
      </trkpt>
      <trkpt lat="48.16784" lon="-4.29808">
        <ele>24.17</ele>
        <time>2016-05-03T13:10:54Z</time>
      </trkpt>
      <trkpt lat="48.16793" lon="-4.2981">
        <ele>21.29</ele>
        <time>2016-05-03T13:11:07Z</time>
      </trkpt>
      <trkpt lat="48.16797" lon="-4.29808">
        <ele>19.36</ele>
        <time>2016-05-03T13:11:14Z</time>
      </trkpt>
      <trkpt lat="48.16801" lon="-4.29807">
        <ele>18.4</ele>
        <time>2016-05-03T13:11:18Z</time>
      </trkpt>
      <trkpt lat="48.16815" lon="-4.29793">
        <ele>13.12</ele>
        <time>2016-05-03T13:11:37Z</time>
      </trkpt>
      <trkpt lat="48.16816" lon="-4.29788">
        <ele>12.63</ele>
        <time>2016-05-03T13:11:54Z</time>
      </trkpt>
      <trkpt lat="48.16819" lon="-4.29789">
        <ele>13.6</ele>
        <time>2016-05-03T13:11:57Z</time>
      </trkpt>
      <trkpt lat="48.16824" lon="-4.29788">
        <ele>16</ele>
        <time>2016-05-03T13:12:00Z</time>
      </trkpt>
      <trkpt lat="48.16829" lon="-4.29785">
        <ele>18.4</ele>
        <time>2016-05-03T13:12:10Z</time>
      </trkpt>
      <trkpt lat="48.16832" lon="-4.2978">
        <ele>18.88</ele>
        <time>2016-05-03T13:12:15Z</time>
      </trkpt>
      <trkpt lat="48.16844" lon="-4.29765">
        <ele>16.48</ele>
        <time>2016-05-03T13:12:30Z</time>
      </trkpt>
      <trkpt lat="48.16854" lon="-4.29745">
        <ele>14.56</ele>
        <time>2016-05-03T13:12:45Z</time>
      </trkpt>
      <trkpt lat="48.16856" lon="-4.29743">
        <ele>14.08</ele>
        <time>2016-05-03T13:12:47Z</time>
      </trkpt>
      <trkpt lat="48.16861" lon="-4.29727">
        <ele>11.67</ele>
        <time>2016-05-03T13:13:01Z</time>
      </trkpt>
      <trkpt lat="48.16862" lon="-4.29725">
        <ele>11.67</ele>
        <time>2016-05-03T13:13:03Z</time>
      </trkpt>
      <trkpt lat="48.16861" lon="-4.29715">
        <ele>11.67</ele>
        <time>2016-05-03T13:13:09Z</time>
      </trkpt>
      <trkpt lat="48.1686" lon="-4.29709">
        <ele>11.67</ele>
        <time>2016-05-03T13:13:13Z</time>
      </trkpt>
      <trkpt lat="48.16857" lon="-4.29681">
        <ele>12.63</ele>
        <time>2016-05-03T13:13:29Z</time>
      </trkpt>
      <trkpt lat="48.16854" lon="-4.29666">
        <ele>12.63</ele>
        <time>2016-05-03T13:13:38Z</time>
      </trkpt>
      <trkpt lat="48.16854" lon="-4.29656">
        <ele>10.71</ele>
        <time>2016-05-03T13:13:46Z</time>
      </trkpt>
      <trkpt lat="48.16853" lon="-4.29649">
        <ele>9.75</ele>
        <time>2016-05-03T13:13:51Z</time>
      </trkpt>
      <trkpt lat="48.16848" lon="-4.29632">
        <ele>8.31</ele>
        <time>2016-05-03T13:14:02Z</time>
      </trkpt>
      <trkpt lat="48.16847" lon="-4.29609">
        <ele>6.87</ele>
        <time>2016-05-03T13:14:16Z</time>
      </trkpt>
      <trkpt lat="48.16847" lon="-4.29603">
        <ele>6.39</ele>
        <time>2016-05-03T13:14:20Z</time>
      </trkpt>
      <trkpt lat="48.16842" lon="-4.29592">
        <ele>5.42</ele>
        <time>2016-05-03T13:14:28Z</time>
      </trkpt>
      <trkpt lat="48.16834" lon="-4.29561">
        <ele>3.98</ele>
        <time>2016-05-03T13:14:47Z</time>
      </trkpt>
      <trkpt lat="48.1683" lon="-4.29536">
        <ele>3.02</ele>
        <time>2016-05-03T13:15:03Z</time>
      </trkpt>
      <trkpt lat="48.16822" lon="-4.29511">
        <ele>3.5</ele>
        <time>2016-05-03T13:15:18Z</time>
      </trkpt>
      <trkpt lat="48.16817" lon="-4.29503">
        <ele>3.5</ele>
        <time>2016-05-03T13:15:25Z</time>
      </trkpt>
      <trkpt lat="48.16798" lon="-4.29491">
        <ele>5.91</ele>
        <time>2016-05-03T13:15:43Z</time>
      </trkpt>
      <trkpt lat="48.16781" lon="-4.29476">
        <ele>8.79</ele>
        <time>2016-05-03T13:16:00Z</time>
      </trkpt>
      <trkpt lat="48.16769" lon="-4.29459">
        <ele>9.27</ele>
        <time>2016-05-03T13:16:15Z</time>
      </trkpt>
      <trkpt lat="48.16759" lon="-4.29441">
        <ele>7.35</ele>
        <time>2016-05-03T13:16:30Z</time>
      </trkpt>
      <trkpt lat="48.16753" lon="-4.29424">
        <ele>3.02</ele>
        <time>2016-05-03T13:16:44Z</time>
      </trkpt>
      <trkpt lat="48.16742" lon="-4.29409">
        <ele>-0.82</ele>
        <time>2016-05-03T13:16:58Z</time>
      </trkpt>
      <trkpt lat="48.16739" lon="-4.29399">
        <ele>-0.82</ele>
        <time>2016-05-03T13:17:08Z</time>
      </trkpt>
      <trkpt lat="48.16739" lon="-4.29394">
        <ele>0.62</ele>
        <time>2016-05-03T13:17:13Z</time>
      </trkpt>
      <trkpt lat="48.16743" lon="-4.29394">
        <ele>0.14</ele>
        <time>2016-05-03T13:17:20Z</time>
      </trkpt>
      <trkpt lat="48.1675" lon="-4.29387">
        <ele>0.14</ele>
        <time>2016-05-03T13:17:32Z</time>
      </trkpt>
      <trkpt lat="48.1675" lon="-4.29385">
        <ele>0.14</ele>
        <time>2016-05-03T13:17:33Z</time>
      </trkpt>
      <trkpt lat="48.16754" lon="-4.29374">
        <ele>1.1</ele>
        <time>2016-05-03T13:17:45Z</time>
      </trkpt>
      <trkpt lat="48.16757" lon="-4.2937">
        <ele>1.1</ele>
        <time>2016-05-03T13:17:58Z</time>
      </trkpt>
      <trkpt lat="48.16758" lon="-4.2937">
        <ele>1.1</ele>
        <time>2016-05-03T13:18:08Z</time>
      </trkpt>
      <trkpt lat="48.16758" lon="-4.29369">
        <ele>1.1</ele>
        <time>2016-05-03T13:18:22Z</time>
      </trkpt>
      <trkpt lat="48.16757" lon="-4.2937">
        <ele>1.1</ele>
        <time>2016-05-03T13:18:34Z</time>
      </trkpt>
      <trkpt lat="48.16757" lon="-4.2937">
        <ele>1.1</ele>
        <time>2016-05-03T13:18:45Z</time>
      </trkpt>
      <trkpt lat="48.16757" lon="-4.2937">
        <ele>1.1</ele>
        <time>2016-05-03T13:18:46Z</time>
      </trkpt>
      <trkpt lat="48.16758" lon="-4.29372">
        <ele>1.58</ele>
        <time>2016-05-03T13:18:56Z</time>
      </trkpt>
      <trkpt lat="48.16758" lon="-4.29372">
        <ele>1.1</ele>
        <time>2016-05-03T13:19:08Z</time>
      </trkpt>
      <trkpt lat="48.16758" lon="-4.29372">
        <ele>0.62</ele>
        <time>2016-05-03T13:19:15Z</time>
      </trkpt>
      <trkpt lat="48.16758" lon="-4.2937">
        <ele>0.62</ele>
        <time>2016-05-03T13:19:28Z</time>
      </trkpt>
      <trkpt lat="48.16758" lon="-4.2937">
        <ele>0.62</ele>
        <time>2016-05-03T13:19:29Z</time>
      </trkpt>
      <trkpt lat="48.1676" lon="-4.2937">
        <ele>0.14</ele>
        <time>2016-05-03T13:19:32Z</time>
      </trkpt>
      <trkpt lat="48.16771" lon="-4.29357">
        <ele>-5.15</ele>
        <time>2016-05-03T13:19:45Z</time>
      </trkpt>
      <trkpt lat="48.16778" lon="-4.29343">
        <ele>-7.55</ele>
        <time>2016-05-03T13:19:59Z</time>
      </trkpt>
      <trkpt lat="48.16787" lon="-4.29325">
        <ele>-8.51</ele>
        <time>2016-05-03T13:20:14Z</time>
      </trkpt>
      <trkpt lat="48.16799" lon="-4.29307">
        <ele>-9</ele>
        <time>2016-05-03T13:20:28Z</time>
      </trkpt>
      <trkpt lat="48.1681" lon="-4.29291">
        <ele>-6.11</ele>
        <time>2016-05-03T13:20:41Z</time>
      </trkpt>
      <trkpt lat="48.16813" lon="-4.29287">
        <ele>-6.11</ele>
        <time>2016-05-03T13:20:45Z</time>
      </trkpt>
      <trkpt lat="48.16817" lon="-4.29285">
        <ele>-6.11</ele>
        <time>2016-05-03T13:20:48Z</time>
      </trkpt>
      <trkpt lat="48.16819" lon="-4.29282">
        <ele>-6.11</ele>
        <time>2016-05-03T13:20:51Z</time>
      </trkpt>
      <trkpt lat="48.1683" lon="-4.29269">
        <ele>-6.11</ele>
        <time>2016-05-03T13:21:02Z</time>
      </trkpt>
      <trkpt lat="48.16843" lon="-4.29255">
        <ele>-4.19</ele>
        <time>2016-05-03T13:21:15Z</time>
      </trkpt>
      <trkpt lat="48.16849" lon="-4.29252">
        <ele>-3.71</ele>
        <time>2016-05-03T13:21:19Z</time>
      </trkpt>
      <trkpt lat="48.16858" lon="-4.29243">
        <ele>-2.27</ele>
        <time>2016-05-03T13:21:27Z</time>
      </trkpt>
      <trkpt lat="48.16871" lon="-4.29233">
        <ele>-1.79</ele>
        <time>2016-05-03T13:21:40Z</time>
      </trkpt>
      <trkpt lat="48.16884" lon="-4.29219">
        <ele>-2.27</ele>
        <time>2016-05-03T13:21:54Z</time>
      </trkpt>
      <trkpt lat="48.16897" lon="-4.29206">
        <ele>-3.23</ele>
        <time>2016-05-03T13:22:08Z</time>
      </trkpt>
      <trkpt lat="48.16908" lon="-4.29199">
        <ele>-2.75</ele>
        <time>2016-05-03T13:22:21Z</time>
      </trkpt>
      <trkpt lat="48.16913" lon="-4.29197">
        <ele>-2.75</ele>
        <time>2016-05-03T13:22:28Z</time>
      </trkpt>
      <trkpt lat="48.16926" lon="-4.29189">
        <ele>-4.19</ele>
        <time>2016-05-03T13:22:40Z</time>
      </trkpt>
      <trkpt lat="48.16936" lon="-4.29183">
        <ele>-4.19</ele>
        <time>2016-05-03T13:22:49Z</time>
      </trkpt>
      <trkpt lat="48.16947" lon="-4.29178">
        <ele>-4.67</ele>
        <time>2016-05-03T13:22:59Z</time>
      </trkpt>
      <trkpt lat="48.16948" lon="-4.29177">
        <ele>-4.67</ele>
        <time>2016-05-03T13:23:01Z</time>
      </trkpt>
      <trkpt lat="48.16953" lon="-4.29176">
        <ele>-5.15</ele>
        <time>2016-05-03T13:23:05Z</time>
      </trkpt>
      <trkpt lat="48.16956" lon="-4.29173">
        <ele>-5.15</ele>
        <time>2016-05-03T13:23:09Z</time>
      </trkpt>
      <trkpt lat="48.16964" lon="-4.29171">
        <ele>-4.19</ele>
        <time>2016-05-03T13:23:17Z</time>
      </trkpt>
      <trkpt lat="48.16975" lon="-4.29169">
        <ele>-3.23</ele>
        <time>2016-05-03T13:23:25Z</time>
      </trkpt>
      <trkpt lat="48.16983" lon="-4.29166">
        <ele>-3.71</ele>
        <time>2016-05-03T13:23:32Z</time>
      </trkpt>
      <trkpt lat="48.16993" lon="-4.29162">
        <ele>-4.67</ele>
        <time>2016-05-03T13:23:42Z</time>
      </trkpt>
      <trkpt lat="48.17002" lon="-4.29161">
        <ele>-3.71</ele>
        <time>2016-05-03T13:23:49Z</time>
      </trkpt>
      <trkpt lat="48.17007" lon="-4.29161">
        <ele>-3.23</ele>
        <time>2016-05-03T13:23:53Z</time>
      </trkpt>
      <trkpt lat="48.1701" lon="-4.29159">
        <ele>-2.75</ele>
        <time>2016-05-03T13:23:56Z</time>
      </trkpt>
      <trkpt lat="48.17029" lon="-4.29156">
        <ele>-1.3</ele>
        <time>2016-05-03T13:24:11Z</time>
      </trkpt>
      <trkpt lat="48.1704" lon="-4.29153">
        <ele>-2.27</ele>
        <time>2016-05-03T13:24:21Z</time>
      </trkpt>
      <trkpt lat="48.17044" lon="-4.29153">
        <ele>-1.79</ele>
        <time>2016-05-03T13:24:24Z</time>
      </trkpt>
      <trkpt lat="48.17055" lon="-4.29152">
        <ele>-0.82</ele>
        <time>2016-05-03T13:24:33Z</time>
      </trkpt>
      <trkpt lat="48.17056" lon="-4.29153">
        <ele>-0.82</ele>
        <time>2016-05-03T13:24:35Z</time>
      </trkpt>
      <trkpt lat="48.17061" lon="-4.29154">
        <ele>-0.82</ele>
        <time>2016-05-03T13:24:39Z</time>
      </trkpt>
      <trkpt lat="48.17067" lon="-4.29154">
        <ele>-0.34</ele>
        <time>2016-05-03T13:24:44Z</time>
      </trkpt>
      <trkpt lat="48.17081" lon="-4.29155">
        <ele>0.14</ele>
        <time>2016-05-03T13:24:55Z</time>
      </trkpt>
      <trkpt lat="48.17086" lon="-4.29154">
        <ele>0.14</ele>
        <time>2016-05-03T13:24:59Z</time>
      </trkpt>
      <trkpt lat="48.171" lon="-4.29155">
        <ele>1.1</ele>
        <time>2016-05-03T13:25:11Z</time>
      </trkpt>
      <trkpt lat="48.17104" lon="-4.29157">
        <ele>1.1</ele>
        <time>2016-05-03T13:25:15Z</time>
      </trkpt>
      <trkpt lat="48.17109" lon="-4.29156">
        <ele>1.1</ele>
        <time>2016-05-03T13:25:19Z</time>
      </trkpt>
      <trkpt lat="48.17125" lon="-4.29159">
        <ele>0.62</ele>
        <time>2016-05-03T13:25:33Z</time>
      </trkpt>
      <trkpt lat="48.17136" lon="-4.29161">
        <ele>-1.3</ele>
        <time>2016-05-03T13:25:42Z</time>
      </trkpt>
      <trkpt lat="48.17142" lon="-4.29163">
        <ele>-2.27</ele>
        <time>2016-05-03T13:25:46Z</time>
      </trkpt>
      <trkpt lat="48.1715" lon="-4.29164">
        <ele>-2.75</ele>
        <time>2016-05-03T13:25:58Z</time>
      </trkpt>
      <trkpt lat="48.17151" lon="-4.29164">
        <ele>-2.75</ele>
        <time>2016-05-03T13:26:03Z</time>
      </trkpt>
      <trkpt lat="48.17153" lon="-4.29164">
        <ele>-2.27</ele>
        <time>2016-05-03T13:26:07Z</time>
      </trkpt>
      <trkpt lat="48.17154" lon="-4.29167">
        <ele>-1.3</ele>
        <time>2016-05-03T13:26:21Z</time>
      </trkpt>
      <trkpt lat="48.17158" lon="-4.29168">
        <ele>-1.3</ele>
        <time>2016-05-03T13:26:30Z</time>
      </trkpt>
      <trkpt lat="48.1716" lon="-4.2917">
        <ele>-1.3</ele>
        <time>2016-05-03T13:26:32Z</time>
      </trkpt>
      <trkpt lat="48.17175" lon="-4.29173">
        <ele>-1.79</ele>
        <time>2016-05-03T13:26:45Z</time>
      </trkpt>
      <trkpt lat="48.17178" lon="-4.29174">
        <ele>-2.27</ele>
        <time>2016-05-03T13:26:48Z</time>
      </trkpt>
      <trkpt lat="48.17185" lon="-4.29175">
        <ele>-2.75</ele>
        <time>2016-05-03T13:26:54Z</time>
      </trkpt>
      <trkpt lat="48.17188" lon="-4.29176">
        <ele>-2.27</ele>
        <time>2016-05-03T13:27:05Z</time>
      </trkpt>
      <trkpt lat="48.17191" lon="-4.29178">
        <ele>-2.27</ele>
        <time>2016-05-03T13:27:11Z</time>
      </trkpt>
      <trkpt lat="48.17194" lon="-4.2918">
        <ele>-2.27</ele>
        <time>2016-05-03T13:27:14Z</time>
      </trkpt>
      <trkpt lat="48.17201" lon="-4.29182">
        <ele>-2.75</ele>
        <time>2016-05-03T13:27:19Z</time>
      </trkpt>
      <trkpt lat="48.17208" lon="-4.29183">
        <ele>1.1</ele>
        <time>2016-05-03T13:27:32Z</time>
      </trkpt>
      <trkpt lat="48.17212" lon="-4.29188">
        <ele>3.5</ele>
        <time>2016-05-03T13:27:41Z</time>
      </trkpt>
      <trkpt lat="48.17214" lon="-4.29189">
        <ele>4.94</ele>
        <time>2016-05-03T13:27:53Z</time>
      </trkpt>
      <trkpt lat="48.17216" lon="-4.29189">
        <ele>4.94</ele>
        <time>2016-05-03T13:28:06Z</time>
      </trkpt>
      <trkpt lat="48.17219" lon="-4.29191">
        <ele>4.94</ele>
        <time>2016-05-03T13:28:23Z</time>
      </trkpt>
      <trkpt lat="48.17219" lon="-4.29191">
        <ele>5.42</ele>
        <time>2016-05-03T13:28:38Z</time>
      </trkpt>
      <trkpt lat="48.17218" lon="-4.29185">
        <ele>4.46</ele>
        <time>2016-05-03T13:28:49Z</time>
      </trkpt>
      <trkpt lat="48.17219" lon="-4.29182">
        <ele>4.94</ele>
        <time>2016-05-03T13:28:59Z</time>
      </trkpt>
      <trkpt lat="48.17225" lon="-4.29164">
        <ele>7.35</ele>
        <time>2016-05-03T13:29:13Z</time>
      </trkpt>
      <trkpt lat="48.17229" lon="-4.29156">
        <ele>7.35</ele>
        <time>2016-05-03T13:29:25Z</time>
      </trkpt>
      <trkpt lat="48.17234" lon="-4.2915">
        <ele>6.87</ele>
        <time>2016-05-03T13:29:32Z</time>
      </trkpt>
      <trkpt lat="48.17239" lon="-4.29144">
        <ele>8.79</ele>
        <time>2016-05-03T13:29:40Z</time>
      </trkpt>
      <trkpt lat="48.17253" lon="-4.29132">
        <ele>9.75</ele>
        <time>2016-05-03T13:29:55Z</time>
      </trkpt>
      <trkpt lat="48.1726" lon="-4.29125">
        <ele>11.67</ele>
        <time>2016-05-03T13:30:03Z</time>
      </trkpt>
      <trkpt lat="48.17261" lon="-4.29123">
        <ele>12.15</ele>
        <time>2016-05-03T13:30:05Z</time>
      </trkpt>
      <trkpt lat="48.17267" lon="-4.29118">
        <ele>14.08</ele>
        <time>2016-05-03T13:30:11Z</time>
      </trkpt>
      <trkpt lat="48.17279" lon="-4.29112">
        <ele>16.96</ele>
        <time>2016-05-03T13:30:24Z</time>
      </trkpt>
      <trkpt lat="48.17286" lon="-4.2911">
        <ele>17.44</ele>
        <time>2016-05-03T13:30:31Z</time>
      </trkpt>
      <trkpt lat="48.17289" lon="-4.29109">
        <ele>17.92</ele>
        <time>2016-05-03T13:30:34Z</time>
      </trkpt>
      <trkpt lat="48.17304" lon="-4.29102">
        <ele>18.4</ele>
        <time>2016-05-03T13:30:47Z</time>
      </trkpt>
      <trkpt lat="48.17307" lon="-4.29096">
        <ele>17.44</ele>
        <time>2016-05-03T13:30:51Z</time>
      </trkpt>
      <trkpt lat="48.17311" lon="-4.29093">
        <ele>17.44</ele>
        <time>2016-05-03T13:30:55Z</time>
      </trkpt>
      <trkpt lat="48.17321" lon="-4.29074">
        <ele>17.92</ele>
        <time>2016-05-03T13:31:12Z</time>
      </trkpt>
      <trkpt lat="48.17325" lon="-4.29063">
        <ele>17.92</ele>
        <time>2016-05-03T13:31:36Z</time>
      </trkpt>
      <trkpt lat="48.17326" lon="-4.29062">
        <ele>18.4</ele>
        <time>2016-05-03T13:31:37Z</time>
      </trkpt>
      <trkpt lat="48.17328" lon="-4.2906">
        <ele>18.4</ele>
        <time>2016-05-03T13:31:39Z</time>
      </trkpt>
      <trkpt lat="48.17329" lon="-4.29056">
        <ele>18.4</ele>
        <time>2016-05-03T13:31:42Z</time>
      </trkpt>
      <trkpt lat="48.1734" lon="-4.29041">
        <ele>17.92</ele>
        <time>2016-05-03T13:31:55Z</time>
      </trkpt>
      <trkpt lat="48.17353" lon="-4.29022">
        <ele>19.84</ele>
        <time>2016-05-03T13:32:09Z</time>
      </trkpt>
      <trkpt lat="48.17358" lon="-4.29015">
        <ele>20.81</ele>
        <time>2016-05-03T13:32:19Z</time>
      </trkpt>
      <trkpt lat="48.1736" lon="-4.29013">
        <ele>21.29</ele>
        <time>2016-05-03T13:32:21Z</time>
      </trkpt>
      <trkpt lat="48.17374" lon="-4.28996">
        <ele>22.73</ele>
        <time>2016-05-03T13:32:36Z</time>
      </trkpt>
      <trkpt lat="48.17379" lon="-4.28987">
        <ele>22.73</ele>
        <time>2016-05-03T13:32:43Z</time>
      </trkpt>
      <trkpt lat="48.1739" lon="-4.28965">
        <ele>21.77</ele>
        <time>2016-05-03T13:32:58Z</time>
      </trkpt>
      <trkpt lat="48.17393" lon="-4.28951">
        <ele>18.88</ele>
        <time>2016-05-03T13:33:11Z</time>
      </trkpt>
      <trkpt lat="48.17399" lon="-4.28938">
        <ele>16.96</ele>
        <time>2016-05-03T13:33:20Z</time>
      </trkpt>
      <trkpt lat="48.17404" lon="-4.2893">
        <ele>15.52</ele>
        <time>2016-05-03T13:33:27Z</time>
      </trkpt>
      <trkpt lat="48.17408" lon="-4.28924">
        <ele>15.04</ele>
        <time>2016-05-03T13:33:32Z</time>
      </trkpt>
      <trkpt lat="48.1741" lon="-4.28921">
        <ele>15.04</ele>
        <time>2016-05-03T13:33:34Z</time>
      </trkpt>
      <trkpt lat="48.17414" lon="-4.28908">
        <ele>16</ele>
        <time>2016-05-03T13:33:42Z</time>
      </trkpt>
      <trkpt lat="48.17417" lon="-4.289">
        <ele>16</ele>
        <time>2016-05-03T13:33:48Z</time>
      </trkpt>
      <trkpt lat="48.1741" lon="-4.28877">
        <ele>16.48</ele>
        <time>2016-05-03T13:34:03Z</time>
      </trkpt>
      <trkpt lat="48.1741" lon="-4.28876">
        <ele>16.48</ele>
        <time>2016-05-03T13:34:04Z</time>
      </trkpt>
      <trkpt lat="48.17407" lon="-4.28863">
        <ele>17.92</ele>
        <time>2016-05-03T13:34:13Z</time>
      </trkpt>
      <trkpt lat="48.17401" lon="-4.28847">
        <ele>20.81</ele>
        <time>2016-05-03T13:34:26Z</time>
      </trkpt>
      <trkpt lat="48.17396" lon="-4.28834">
        <ele>20.32</ele>
        <time>2016-05-03T13:34:36Z</time>
      </trkpt>
      <trkpt lat="48.17393" lon="-4.28815">
        <ele>19.84</ele>
        <time>2016-05-03T13:34:48Z</time>
      </trkpt>
      <trkpt lat="48.17389" lon="-4.28797">
        <ele>21.29</ele>
        <time>2016-05-03T13:34:58Z</time>
      </trkpt>
      <trkpt lat="48.17387" lon="-4.28789">
        <ele>22.73</ele>
        <time>2016-05-03T13:35:03Z</time>
      </trkpt>
      <trkpt lat="48.17385" lon="-4.28785">
        <ele>23.21</ele>
        <time>2016-05-03T13:35:06Z</time>
      </trkpt>
      <trkpt lat="48.17383" lon="-4.28779">
        <ele>23.69</ele>
        <time>2016-05-03T13:35:09Z</time>
      </trkpt>
      <trkpt lat="48.17382" lon="-4.28775">
        <ele>24.17</ele>
        <time>2016-05-03T13:35:12Z</time>
      </trkpt>
      <trkpt lat="48.17379" lon="-4.28769">
        <ele>24.17</ele>
        <time>2016-05-03T13:35:16Z</time>
      </trkpt>
      <trkpt lat="48.17371" lon="-4.28746">
        <ele>24.65</ele>
        <time>2016-05-03T13:35:30Z</time>
      </trkpt>
      <trkpt lat="48.17369" lon="-4.28739">
        <ele>25.61</ele>
        <time>2016-05-03T13:35:35Z</time>
      </trkpt>
      <trkpt lat="48.17368" lon="-4.28735">
        <ele>26.57</ele>
        <time>2016-05-03T13:35:38Z</time>
      </trkpt>
      <trkpt lat="48.1736" lon="-4.28713">
        <ele>28.02</ele>
        <time>2016-05-03T13:35:52Z</time>
      </trkpt>
      <trkpt lat="48.17355" lon="-4.28702">
        <ele>27.53</ele>
        <time>2016-05-03T13:36:00Z</time>
      </trkpt>
      <trkpt lat="48.1735" lon="-4.28687">
        <ele>27.53</ele>
        <time>2016-05-03T13:36:09Z</time>
      </trkpt>
      <trkpt lat="48.17344" lon="-4.28685">
        <ele>28.02</ele>
        <time>2016-05-03T13:36:15Z</time>
      </trkpt>
      <trkpt lat="48.17333" lon="-4.28686">
        <ele>29.94</ele>
        <time>2016-05-03T13:36:27Z</time>
      </trkpt>
      <trkpt lat="48.17327" lon="-4.28687">
        <ele>30.9</ele>
        <time>2016-05-03T13:36:31Z</time>
      </trkpt>
      <trkpt lat="48.17316" lon="-4.28692">
        <ele>30.42</ele>
        <time>2016-05-03T13:36:40Z</time>
      </trkpt>
      <trkpt lat="48.17312" lon="-4.28689">
        <ele>28.02</ele>
        <time>2016-05-03T13:36:44Z</time>
      </trkpt>
      <trkpt lat="48.17294" lon="-4.28678">
        <ele>25.61</ele>
        <time>2016-05-03T13:37:02Z</time>
      </trkpt>
      <trkpt lat="48.17289" lon="-4.28678">
        <ele>25.13</ele>
        <time>2016-05-03T13:37:06Z</time>
      </trkpt>
      <trkpt lat="48.17271" lon="-4.28673">
        <ele>22.73</ele>
        <time>2016-05-03T13:37:22Z</time>
      </trkpt>
      <trkpt lat="48.17258" lon="-4.28674">
        <ele>20.81</ele>
        <time>2016-05-03T13:37:32Z</time>
      </trkpt>
      <trkpt lat="48.17249" lon="-4.28677">
        <ele>20.32</ele>
        <time>2016-05-03T13:37:40Z</time>
      </trkpt>
      <trkpt lat="48.17236" lon="-4.28683">
        <ele>20.32</ele>
        <time>2016-05-03T13:37:52Z</time>
      </trkpt>
      <trkpt lat="48.17228" lon="-4.28686">
        <ele>20.32</ele>
        <time>2016-05-03T13:37:59Z</time>
      </trkpt>
      <trkpt lat="48.1722" lon="-4.28689">
        <ele>20.32</ele>
        <time>2016-05-03T13:38:05Z</time>
      </trkpt>
      <trkpt lat="48.17217" lon="-4.28691">
        <ele>20.32</ele>
        <time>2016-05-03T13:38:08Z</time>
      </trkpt>
      <trkpt lat="48.17198" lon="-4.28698">
        <ele>19.84</ele>
        <time>2016-05-03T13:38:23Z</time>
      </trkpt>
      <trkpt lat="48.17181" lon="-4.28705">
        <ele>17.92</ele>
        <time>2016-05-03T13:38:37Z</time>
      </trkpt>
      <trkpt lat="48.17162" lon="-4.28712">
        <ele>17.92</ele>
        <time>2016-05-03T13:38:53Z</time>
      </trkpt>
      <trkpt lat="48.17148" lon="-4.28714">
        <ele>16.96</ele>
        <time>2016-05-03T13:39:04Z</time>
      </trkpt>
      <trkpt lat="48.17135" lon="-4.28712">
        <ele>16.48</ele>
        <time>2016-05-03T13:39:16Z</time>
      </trkpt>
      <trkpt lat="48.1713" lon="-4.28713">
        <ele>16</ele>
        <time>2016-05-03T13:39:20Z</time>
      </trkpt>
      <trkpt lat="48.17122" lon="-4.28707">
        <ele>16.48</ele>
        <time>2016-05-03T13:39:29Z</time>
      </trkpt>
      <trkpt lat="48.17119" lon="-4.28697">
        <ele>17.44</ele>
        <time>2016-05-03T13:39:35Z</time>
      </trkpt>
      <trkpt lat="48.17119" lon="-4.28694">
        <ele>17.92</ele>
        <time>2016-05-03T13:39:37Z</time>
      </trkpt>
      <trkpt lat="48.17117" lon="-4.28682">
        <ele>19.36</ele>
        <time>2016-05-03T13:39:45Z</time>
      </trkpt>
      <trkpt lat="48.17116" lon="-4.2866">
        <ele>21.77</ele>
        <time>2016-05-03T13:39:58Z</time>
      </trkpt>
      <trkpt lat="48.17116" lon="-4.28657">
        <ele>21.77</ele>
        <time>2016-05-03T13:40:00Z</time>
      </trkpt>
      <trkpt lat="48.17116" lon="-4.28654">
        <ele>22.25</ele>
        <time>2016-05-03T13:40:02Z</time>
      </trkpt>
      <trkpt lat="48.17113" lon="-4.28626">
        <ele>24.65</ele>
        <time>2016-05-03T13:40:18Z</time>
      </trkpt>
      <trkpt lat="48.17111" lon="-4.28605">
        <ele>25.13</ele>
        <time>2016-05-03T13:40:31Z</time>
      </trkpt>
      <trkpt lat="48.17111" lon="-4.28599">
        <ele>26.09</ele>
        <time>2016-05-03T13:40:36Z</time>
      </trkpt>
      <trkpt lat="48.17109" lon="-4.28592">
        <ele>26.57</ele>
        <time>2016-05-03T13:40:40Z</time>
      </trkpt>
      <trkpt lat="48.17108" lon="-4.28565">
        <ele>27.53</ele>
        <time>2016-05-03T13:40:56Z</time>
      </trkpt>
      <trkpt lat="48.17108" lon="-4.28562">
        <ele>28.02</ele>
        <time>2016-05-03T13:40:58Z</time>
      </trkpt>
      <trkpt lat="48.17104" lon="-4.2854">
        <ele>28.98</ele>
        <time>2016-05-03T13:41:12Z</time>
      </trkpt>
      <trkpt lat="48.17104" lon="-4.28539">
        <ele>29.46</ele>
        <time>2016-05-03T13:41:13Z</time>
      </trkpt>
      <trkpt lat="48.17105" lon="-4.28534">
        <ele>29.94</ele>
        <time>2016-05-03T13:41:16Z</time>
      </trkpt>
      <trkpt lat="48.17103" lon="-4.28514">
        <ele>30.9</ele>
        <time>2016-05-03T13:41:29Z</time>
      </trkpt>
      <trkpt lat="48.17104" lon="-4.28504">
        <ele>31.38</ele>
        <time>2016-05-03T13:41:40Z</time>
      </trkpt>
      <trkpt lat="48.17103" lon="-4.28498">
        <ele>32.34</ele>
        <time>2016-05-03T13:41:45Z</time>
      </trkpt>
      <trkpt lat="48.17102" lon="-4.28495">
        <ele>32.82</ele>
        <time>2016-05-03T13:41:47Z</time>
      </trkpt>
      <trkpt lat="48.17101" lon="-4.28487">
        <ele>33.3</ele>
        <time>2016-05-03T13:41:52Z</time>
      </trkpt>
      <trkpt lat="48.17099" lon="-4.28476">
        <ele>34.74</ele>
        <time>2016-05-03T13:41:58Z</time>
      </trkpt>
      <trkpt lat="48.17096" lon="-4.28454">
        <ele>38.11</ele>
        <time>2016-05-03T13:42:11Z</time>
      </trkpt>
      <trkpt lat="48.17089" lon="-4.28434">
        <ele>41.95</ele>
        <time>2016-05-03T13:42:22Z</time>
      </trkpt>
      <trkpt lat="48.17088" lon="-4.28416">
        <ele>43.88</ele>
        <time>2016-05-03T13:42:32Z</time>
      </trkpt>
      <trkpt lat="48.17085" lon="-4.28406">
        <ele>43.4</ele>
        <time>2016-05-03T13:42:40Z</time>
      </trkpt>
      <trkpt lat="48.17085" lon="-4.28402">
        <ele>43.4</ele>
        <time>2016-05-03T13:42:42Z</time>
      </trkpt>
      <trkpt lat="48.17083" lon="-4.28396">
        <ele>43.88</ele>
        <time>2016-05-03T13:42:46Z</time>
      </trkpt>
      <trkpt lat="48.17078" lon="-4.28373">
        <ele>44.84</ele>
        <time>2016-05-03T13:43:00Z</time>
      </trkpt>
      <trkpt lat="48.17077" lon="-4.28372">
        <ele>45.32</ele>
        <time>2016-05-03T13:43:01Z</time>
      </trkpt>
      <trkpt lat="48.17076" lon="-4.28369">
        <ele>44.84</ele>
        <time>2016-05-03T13:43:03Z</time>
      </trkpt>
      <trkpt lat="48.17073" lon="-4.28352">
        <ele>44.84</ele>
        <time>2016-05-03T13:43:14Z</time>
      </trkpt>
      <trkpt lat="48.1707" lon="-4.2833">
        <ele>45.8</ele>
        <time>2016-05-03T13:43:27Z</time>
      </trkpt>
      <trkpt lat="48.17069" lon="-4.28327">
        <ele>46.76</ele>
        <time>2016-05-03T13:43:29Z</time>
      </trkpt>
      <trkpt lat="48.1707" lon="-4.28315">
        <ele>48.2</ele>
        <time>2016-05-03T13:43:36Z</time>
      </trkpt>
      <trkpt lat="48.17068" lon="-4.28305">
        <ele>49.65</ele>
        <time>2016-05-03T13:43:42Z</time>
      </trkpt>
      <trkpt lat="48.1707" lon="-4.2828">
        <ele>50.61</ele>
        <time>2016-05-03T13:43:56Z</time>
      </trkpt>
      <trkpt lat="48.1707" lon="-4.28267">
        <ele>50.61</ele>
        <time>2016-05-03T13:44:04Z</time>
      </trkpt>
      <trkpt lat="48.17067" lon="-4.2826">
        <ele>50.61</ele>
        <time>2016-05-03T13:44:09Z</time>
      </trkpt>
      <trkpt lat="48.17065" lon="-4.28256">
        <ele>51.09</ele>
        <time>2016-05-03T13:44:11Z</time>
      </trkpt>
      <trkpt lat="48.17063" lon="-4.28255">
        <ele>51.09</ele>
        <time>2016-05-03T13:44:13Z</time>
      </trkpt>
      <trkpt lat="48.17052" lon="-4.28236">
        <ele>53.01</ele>
        <time>2016-05-03T13:44:27Z</time>
      </trkpt>
      <trkpt lat="48.1705" lon="-4.28233">
        <ele>53.49</ele>
        <time>2016-05-03T13:44:29Z</time>
      </trkpt>
      <trkpt lat="48.17037" lon="-4.28219">
        <ele>54.45</ele>
        <time>2016-05-03T13:44:43Z</time>
      </trkpt>
      <trkpt lat="48.1703" lon="-4.28208">
        <ele>53.97</ele>
        <time>2016-05-03T13:44:52Z</time>
      </trkpt>
      <trkpt lat="48.17023" lon="-4.28198">
        <ele>53.01</ele>
        <time>2016-05-03T13:45:00Z</time>
      </trkpt>
      <trkpt lat="48.17011" lon="-4.28177">
        <ele>52.53</ele>
        <time>2016-05-03T13:45:15Z</time>
      </trkpt>
      <trkpt lat="48.17011" lon="-4.28176">
        <ele>52.53</ele>
        <time>2016-05-03T13:45:16Z</time>
      </trkpt>
      <trkpt lat="48.16998" lon="-4.28151">
        <ele>52.05</ele>
        <time>2016-05-03T13:45:32Z</time>
      </trkpt>
      <trkpt lat="48.16994" lon="-4.28143">
        <ele>52.05</ele>
        <time>2016-05-03T13:45:38Z</time>
      </trkpt>
      <trkpt lat="48.16991" lon="-4.28137">
        <ele>52.05</ele>
        <time>2016-05-03T13:45:42Z</time>
      </trkpt>
      <trkpt lat="48.16985" lon="-4.28124">
        <ele>52.05</ele>
        <time>2016-05-03T13:45:50Z</time>
      </trkpt>
      <trkpt lat="48.16984" lon="-4.28121">
        <ele>52.05</ele>
        <time>2016-05-03T13:45:52Z</time>
      </trkpt>
      <trkpt lat="48.16983" lon="-4.28116">
        <ele>52.05</ele>
        <time>2016-05-03T13:45:54Z</time>
      </trkpt>
      <trkpt lat="48.16978" lon="-4.28101">
        <ele>53.49</ele>
        <time>2016-05-03T13:46:03Z</time>
      </trkpt>
      <trkpt lat="48.1697" lon="-4.28073">
        <ele>53.97</ele>
        <time>2016-05-03T13:46:19Z</time>
      </trkpt>
      <trkpt lat="48.16964" lon="-4.28051">
        <ele>52.53</ele>
        <time>2016-05-03T13:46:32Z</time>
      </trkpt>
      <trkpt lat="48.16962" lon="-4.28045">
        <ele>52.05</ele>
        <time>2016-05-03T13:46:36Z</time>
      </trkpt>
      <trkpt lat="48.16956" lon="-4.28023">
        <ele>52.05</ele>
        <time>2016-05-03T13:46:48Z</time>
      </trkpt>
      <trkpt lat="48.16953" lon="-4.28008">
        <ele>51.09</ele>
        <time>2016-05-03T13:46:56Z</time>
      </trkpt>
      <trkpt lat="48.16952" lon="-4.27999">
        <ele>51.09</ele>
        <time>2016-05-03T13:47:01Z</time>
      </trkpt>
      <trkpt lat="48.16947" lon="-4.27981">
        <ele>51.09</ele>
        <time>2016-05-03T13:47:12Z</time>
      </trkpt>
      <trkpt lat="48.1694" lon="-4.27951">
        <ele>51.09</ele>
        <time>2016-05-03T13:47:28Z</time>
      </trkpt>
      <trkpt lat="48.16936" lon="-4.27932">
        <ele>50.13</ele>
        <time>2016-05-03T13:47:40Z</time>
      </trkpt>
      <trkpt lat="48.16934" lon="-4.27924">
        <ele>49.65</ele>
        <time>2016-05-03T13:47:45Z</time>
      </trkpt>
      <trkpt lat="48.16928" lon="-4.27909">
        <ele>50.13</ele>
        <time>2016-05-03T13:47:53Z</time>
      </trkpt>
      <trkpt lat="48.16923" lon="-4.27903">
        <ele>49.65</ele>
        <time>2016-05-03T13:47:58Z</time>
      </trkpt>
      <trkpt lat="48.16917" lon="-4.27898">
        <ele>49.65</ele>
        <time>2016-05-03T13:48:04Z</time>
      </trkpt>
      <trkpt lat="48.16911" lon="-4.279">
        <ele>49.16</ele>
        <time>2016-05-03T13:48:09Z</time>
      </trkpt>
      <trkpt lat="48.16906" lon="-4.27901">
        <ele>48.68</ele>
        <time>2016-05-03T13:48:13Z</time>
      </trkpt>
      <trkpt lat="48.16885" lon="-4.27907">
        <ele>48.68</ele>
        <time>2016-05-03T13:48:30Z</time>
      </trkpt>
      <trkpt lat="48.16884" lon="-4.27907">
        <ele>48.68</ele>
        <time>2016-05-03T13:48:31Z</time>
      </trkpt>
      <trkpt lat="48.16872" lon="-4.27909">
        <ele>48.68</ele>
        <time>2016-05-03T13:48:41Z</time>
      </trkpt>
      <trkpt lat="48.16868" lon="-4.27908">
        <ele>49.16</ele>
        <time>2016-05-03T13:48:44Z</time>
      </trkpt>
      <trkpt lat="48.16858" lon="-4.27909">
        <ele>48.68</ele>
        <time>2016-05-03T13:48:52Z</time>
      </trkpt>
      <trkpt lat="48.16836" lon="-4.27907">
        <ele>48.2</ele>
        <time>2016-05-03T13:49:09Z</time>
      </trkpt>
      <trkpt lat="48.16824" lon="-4.27906">
        <ele>48.2</ele>
        <time>2016-05-03T13:49:19Z</time>
      </trkpt>
      <trkpt lat="48.16809" lon="-4.27903">
        <ele>47.72</ele>
        <time>2016-05-03T13:49:31Z</time>
      </trkpt>
      <trkpt lat="48.16802" lon="-4.27903">
        <ele>47.24</ele>
        <time>2016-05-03T13:49:37Z</time>
      </trkpt>
      <trkpt lat="48.1678" lon="-4.27899">
        <ele>47.24</ele>
        <time>2016-05-03T13:49:54Z</time>
      </trkpt>
      <trkpt lat="48.16768" lon="-4.27891">
        <ele>48.68</ele>
        <time>2016-05-03T13:50:05Z</time>
      </trkpt>
      <trkpt lat="48.16753" lon="-4.27882">
        <ele>49.65</ele>
        <time>2016-05-03T13:50:19Z</time>
      </trkpt>
      <trkpt lat="48.1675" lon="-4.27881">
        <ele>49.16</ele>
        <time>2016-05-03T13:50:22Z</time>
      </trkpt>
      <trkpt lat="48.16746" lon="-4.27878">
        <ele>48.68</ele>
        <time>2016-05-03T13:50:26Z</time>
      </trkpt>
      <trkpt lat="48.16726" lon="-4.27864">
        <ele>48.2</ele>
        <time>2016-05-03T13:50:43Z</time>
      </trkpt>
      <trkpt lat="48.1672" lon="-4.2786">
        <ele>47.72</ele>
        <time>2016-05-03T13:50:48Z</time>
      </trkpt>
      <trkpt lat="48.16717" lon="-4.27859">
        <ele>47.72</ele>
        <time>2016-05-03T13:50:50Z</time>
      </trkpt>
      <trkpt lat="48.167" lon="-4.27846">
        <ele>46.76</ele>
        <time>2016-05-03T13:51:05Z</time>
      </trkpt>
      <trkpt lat="48.16693" lon="-4.27842">
        <ele>46.76</ele>
        <time>2016-05-03T13:51:11Z</time>
      </trkpt>
      <trkpt lat="48.16689" lon="-4.27838">
        <ele>46.76</ele>
        <time>2016-05-03T13:51:15Z</time>
      </trkpt>
      <trkpt lat="48.16684" lon="-4.27836">
        <ele>46.28</ele>
        <time>2016-05-03T13:51:19Z</time>
      </trkpt>
      <trkpt lat="48.16664" lon="-4.2782">
        <ele>45.32</ele>
        <time>2016-05-03T13:51:37Z</time>
      </trkpt>
      <trkpt lat="48.1666" lon="-4.27817">
        <ele>44.84</ele>
        <time>2016-05-03T13:51:41Z</time>
      </trkpt>
      <trkpt lat="48.16641" lon="-4.27827">
        <ele>42.44</ele>
        <time>2016-05-03T13:51:57Z</time>
      </trkpt>
      <trkpt lat="48.16637" lon="-4.27829">
        <ele>42.44</ele>
        <time>2016-05-03T13:52:14Z</time>
      </trkpt>
      <trkpt lat="48.16632" lon="-4.27824">
        <ele>42.44</ele>
        <time>2016-05-03T13:52:39Z</time>
      </trkpt>
      <trkpt lat="48.1663" lon="-4.27822">
        <ele>42.44</ele>
        <time>2016-05-03T13:52:42Z</time>
      </trkpt>
      <trkpt lat="48.16626" lon="-4.27796">
        <ele>41.47</ele>
        <time>2016-05-03T13:52:58Z</time>
      </trkpt>
      <trkpt lat="48.16626" lon="-4.27794">
        <ele>41.47</ele>
        <time>2016-05-03T13:52:59Z</time>
      </trkpt>
      <trkpt lat="48.16625" lon="-4.2778">
        <ele>41.95</ele>
        <time>2016-05-03T13:53:09Z</time>
      </trkpt>
      <trkpt lat="48.1662" lon="-4.27766">
        <ele>43.4</ele>
        <time>2016-05-03T13:53:21Z</time>
      </trkpt>
      <trkpt lat="48.16607" lon="-4.27747">
        <ele>43.4</ele>
        <time>2016-05-03T13:53:37Z</time>
      </trkpt>
      <trkpt lat="48.166" lon="-4.27739">
        <ele>44.36</ele>
        <time>2016-05-03T13:53:48Z</time>
      </trkpt>
      <trkpt lat="48.16595" lon="-4.27732">
        <ele>44.36</ele>
        <time>2016-05-03T13:54:02Z</time>
      </trkpt>
      <trkpt lat="48.16593" lon="-4.27727">
        <ele>43.88</ele>
        <time>2016-05-03T13:54:06Z</time>
      </trkpt>
      <trkpt lat="48.16578" lon="-4.27708">
        <ele>42.92</ele>
        <time>2016-05-03T13:54:22Z</time>
      </trkpt>
      <trkpt lat="48.16566" lon="-4.27693">
        <ele>42.44</ele>
        <time>2016-05-03T13:54:35Z</time>
      </trkpt>
      <trkpt lat="48.16562" lon="-4.2769">
        <ele>42.44</ele>
        <time>2016-05-03T13:54:39Z</time>
      </trkpt>
      <trkpt lat="48.16558" lon="-4.27685">
        <ele>42.92</ele>
        <time>2016-05-03T13:54:44Z</time>
      </trkpt>
      <trkpt lat="48.16544" lon="-4.27668">
        <ele>42.92</ele>
        <time>2016-05-03T13:54:58Z</time>
      </trkpt>
      <trkpt lat="48.16532" lon="-4.27652">
        <ele>43.4</ele>
        <time>2016-05-03T13:55:11Z</time>
      </trkpt>
      <trkpt lat="48.16528" lon="-4.27647">
        <ele>43.88</ele>
        <time>2016-05-03T13:55:15Z</time>
      </trkpt>
      <trkpt lat="48.1652" lon="-4.27638">
        <ele>44.36</ele>
        <time>2016-05-03T13:55:23Z</time>
      </trkpt>
      <trkpt lat="48.16515" lon="-4.27634">
        <ele>44.84</ele>
        <time>2016-05-03T13:55:27Z</time>
      </trkpt>
      <trkpt lat="48.16508" lon="-4.27625">
        <ele>45.32</ele>
        <time>2016-05-03T13:55:35Z</time>
      </trkpt>
      <trkpt lat="48.16504" lon="-4.27622">
        <ele>45.32</ele>
        <time>2016-05-03T13:55:38Z</time>
      </trkpt>
      <trkpt lat="48.16502" lon="-4.27618">
        <ele>45.32</ele>
        <time>2016-05-03T13:55:41Z</time>
      </trkpt>
      <trkpt lat="48.16488" lon="-4.27602">
        <ele>47.24</ele>
        <time>2016-05-03T13:55:56Z</time>
      </trkpt>
      <trkpt lat="48.16485" lon="-4.27598">
        <ele>47.72</ele>
        <time>2016-05-03T13:55:59Z</time>
      </trkpt>
      <trkpt lat="48.1648" lon="-4.27583">
        <ele>48.68</ele>
        <time>2016-05-03T13:56:09Z</time>
      </trkpt>
      <trkpt lat="48.16482" lon="-4.27568">
        <ele>48.2</ele>
        <time>2016-05-03T13:56:18Z</time>
      </trkpt>
      <trkpt lat="48.16488" lon="-4.27546">
        <ele>47.24</ele>
        <time>2016-05-03T13:56:31Z</time>
      </trkpt>
      <trkpt lat="48.16493" lon="-4.27528">
        <ele>46.76</ele>
        <time>2016-05-03T13:56:41Z</time>
      </trkpt>
      <trkpt lat="48.16495" lon="-4.27522">
        <ele>46.28</ele>
        <time>2016-05-03T13:56:45Z</time>
      </trkpt>
      <trkpt lat="48.16502" lon="-4.27499">
        <ele>44.84</ele>
        <time>2016-05-03T13:57:00Z</time>
      </trkpt>
      <trkpt lat="48.16503" lon="-4.27487">
        <ele>44.84</ele>
        <time>2016-05-03T13:57:09Z</time>
      </trkpt>
      <trkpt lat="48.16499" lon="-4.27482">
        <ele>44.36</ele>
        <time>2016-05-03T13:57:13Z</time>
      </trkpt>
      <trkpt lat="48.16494" lon="-4.27478">
        <ele>43.4</ele>
        <time>2016-05-03T13:57:18Z</time>
      </trkpt>
      <trkpt lat="48.1649" lon="-4.27475">
        <ele>42.92</ele>
        <time>2016-05-03T13:57:22Z</time>
      </trkpt>
      <trkpt lat="48.16475" lon="-4.27471">
        <ele>41.95</ele>
        <time>2016-05-03T13:57:35Z</time>
      </trkpt>
      <trkpt lat="48.16457" lon="-4.27466">
        <ele>41.95</ele>
        <time>2016-05-03T13:57:50Z</time>
      </trkpt>
      <trkpt lat="48.16437" lon="-4.27459">
        <ele>43.88</ele>
        <time>2016-05-03T13:58:06Z</time>
      </trkpt>
      <trkpt lat="48.16417" lon="-4.27452">
        <ele>45.8</ele>
        <time>2016-05-03T13:58:21Z</time>
      </trkpt>
      <trkpt lat="48.16403" lon="-4.27445">
        <ele>47.72</ele>
        <time>2016-05-03T13:58:34Z</time>
      </trkpt>
      <trkpt lat="48.16384" lon="-4.27437">
        <ele>48.68</ele>
        <time>2016-05-03T13:58:49Z</time>
      </trkpt>
      <trkpt lat="48.16366" lon="-4.2743">
        <ele>49.16</ele>
        <time>2016-05-03T13:59:05Z</time>
      </trkpt>
      <trkpt lat="48.16347" lon="-4.2742">
        <ele>50.13</ele>
        <time>2016-05-03T13:59:21Z</time>
      </trkpt>
      <trkpt lat="48.1633" lon="-4.27411">
        <ele>51.09</ele>
        <time>2016-05-03T13:59:36Z</time>
      </trkpt>
      <trkpt lat="48.16315" lon="-4.27401">
        <ele>52.05</ele>
        <time>2016-05-03T13:59:50Z</time>
      </trkpt>
      <trkpt lat="48.16315" lon="-4.27403">
        <ele>51.09</ele>
        <time>2016-05-03T14:00:00Z</time>
      </trkpt>
      <trkpt lat="48.1631" lon="-4.27398">
        <ele>50.13</ele>
        <time>2016-05-03T14:00:11Z</time>
      </trkpt>
      <trkpt lat="48.16309" lon="-4.27397">
        <ele>50.13</ele>
        <time>2016-05-03T14:00:12Z</time>
      </trkpt>
      <trkpt lat="48.16308" lon="-4.27397">
        <ele>50.13</ele>
        <time>2016-05-03T14:00:14Z</time>
      </trkpt>
      <trkpt lat="48.16298" lon="-4.27386">
        <ele>51.09</ele>
        <time>2016-05-03T14:00:25Z</time>
      </trkpt>
      <trkpt lat="48.16295" lon="-4.27382">
        <ele>51.57</ele>
        <time>2016-05-03T14:00:28Z</time>
      </trkpt>
      <trkpt lat="48.16281" lon="-4.27368">
        <ele>53.01</ele>
        <time>2016-05-03T14:00:42Z</time>
      </trkpt>
      <trkpt lat="48.16277" lon="-4.27364">
        <ele>53.97</ele>
        <time>2016-05-03T14:00:46Z</time>
      </trkpt>
      <trkpt lat="48.16264" lon="-4.27351">
        <ele>55.41</ele>
        <time>2016-05-03T14:00:59Z</time>
      </trkpt>
      <trkpt lat="48.16263" lon="-4.27349">
        <ele>55.41</ele>
        <time>2016-05-03T14:01:01Z</time>
      </trkpt>
      <trkpt lat="48.16254" lon="-4.27339">
        <ele>55.89</ele>
        <time>2016-05-03T14:01:10Z</time>
      </trkpt>
      <trkpt lat="48.16248" lon="-4.27336">
        <ele>55.89</ele>
        <time>2016-05-03T14:01:15Z</time>
      </trkpt>
      <trkpt lat="48.16235" lon="-4.27325">
        <ele>55.89</ele>
        <time>2016-05-03T14:01:27Z</time>
      </trkpt>
      <trkpt lat="48.16233" lon="-4.27322">
        <ele>56.37</ele>
        <time>2016-05-03T14:01:30Z</time>
      </trkpt>
      <trkpt lat="48.16227" lon="-4.27316">
        <ele>55.89</ele>
        <time>2016-05-03T14:01:35Z</time>
      </trkpt>
      <trkpt lat="48.16223" lon="-4.27314">
        <ele>55.89</ele>
        <time>2016-05-03T14:01:39Z</time>
      </trkpt>
      <trkpt lat="48.16214" lon="-4.27305">
        <ele>54.45</ele>
        <time>2016-05-03T14:01:48Z</time>
      </trkpt>
      <trkpt lat="48.162" lon="-4.27291">
        <ele>54.93</ele>
        <time>2016-05-03T14:02:02Z</time>
      </trkpt>
      <trkpt lat="48.16191" lon="-4.27283">
        <ele>55.41</ele>
        <time>2016-05-03T14:02:10Z</time>
      </trkpt>
      <trkpt lat="48.16182" lon="-4.27276">
        <ele>55.89</ele>
        <time>2016-05-03T14:02:18Z</time>
      </trkpt>
      <trkpt lat="48.16176" lon="-4.27271">
        <ele>55.89</ele>
        <time>2016-05-03T14:02:23Z</time>
      </trkpt>
      <trkpt lat="48.16159" lon="-4.2726">
        <ele>56.37</ele>
        <time>2016-05-03T14:02:37Z</time>
      </trkpt>
      <trkpt lat="48.16157" lon="-4.27259">
        <ele>56.86</ele>
        <time>2016-05-03T14:02:39Z</time>
      </trkpt>
      <trkpt lat="48.16137" lon="-4.27249">
        <ele>58.3</ele>
        <time>2016-05-03T14:02:55Z</time>
      </trkpt>
      <trkpt lat="48.16121" lon="-4.27244">
        <ele>58.78</ele>
        <time>2016-05-03T14:03:08Z</time>
      </trkpt>
      <trkpt lat="48.16102" lon="-4.27241">
        <ele>60.22</ele>
        <time>2016-05-03T14:03:23Z</time>
      </trkpt>
      <trkpt lat="48.16082" lon="-4.27241">
        <ele>58.78</ele>
        <time>2016-05-03T14:03:40Z</time>
      </trkpt>
      <trkpt lat="48.16061" lon="-4.27248">
        <ele>56.86</ele>
        <time>2016-05-03T14:03:56Z</time>
      </trkpt>
      <trkpt lat="48.16044" lon="-4.27251">
        <ele>54.93</ele>
        <time>2016-05-03T14:04:09Z</time>
      </trkpt>
      <trkpt lat="48.16022" lon="-4.27257">
        <ele>53.49</ele>
        <time>2016-05-03T14:04:26Z</time>
      </trkpt>
      <trkpt lat="48.16004" lon="-4.27259">
        <ele>53.49</ele>
        <time>2016-05-03T14:04:40Z</time>
      </trkpt>
      <trkpt lat="48.15983" lon="-4.27255">
        <ele>52.53</ele>
        <time>2016-05-03T14:04:57Z</time>
      </trkpt>
      <trkpt lat="48.15982" lon="-4.27255">
        <ele>52.05</ele>
        <time>2016-05-03T14:04:58Z</time>
      </trkpt>
      <trkpt lat="48.15967" lon="-4.27246">
        <ele>51.09</ele>
        <time>2016-05-03T14:05:11Z</time>
      </trkpt>
      <trkpt lat="48.15961" lon="-4.27238">
        <ele>49.16</ele>
        <time>2016-05-03T14:05:19Z</time>
      </trkpt>
      <trkpt lat="48.1596" lon="-4.2723">
        <ele>49.16</ele>
        <time>2016-05-03T14:05:24Z</time>
      </trkpt>
      <trkpt lat="48.1596" lon="-4.27216">
        <ele>48.2</ele>
        <time>2016-05-03T14:05:32Z</time>
      </trkpt>
      <trkpt lat="48.15962" lon="-4.27197">
        <ele>47.72</ele>
        <time>2016-05-03T14:05:43Z</time>
      </trkpt>
      <trkpt lat="48.15966" lon="-4.27182">
        <ele>46.28</ele>
        <time>2016-05-03T14:05:52Z</time>
      </trkpt>
      <trkpt lat="48.15967" lon="-4.27179">
        <ele>45.8</ele>
        <time>2016-05-03T14:05:54Z</time>
      </trkpt>
      <trkpt lat="48.15973" lon="-4.27158">
        <ele>44.36</ele>
        <time>2016-05-03T14:06:06Z</time>
      </trkpt>
      <trkpt lat="48.15979" lon="-4.27137">
        <ele>41.95</ele>
        <time>2016-05-03T14:06:19Z</time>
      </trkpt>
      <trkpt lat="48.15981" lon="-4.27111">
        <ele>40.99</ele>
        <time>2016-05-03T14:06:34Z</time>
      </trkpt>
      <trkpt lat="48.15981" lon="-4.27104">
        <ele>40.51</ele>
        <time>2016-05-03T14:06:38Z</time>
      </trkpt>
      <trkpt lat="48.15981" lon="-4.27101">
        <ele>40.51</ele>
        <time>2016-05-03T14:06:40Z</time>
      </trkpt>
      <trkpt lat="48.15982" lon="-4.27095">
        <ele>40.03</ele>
        <time>2016-05-03T14:06:43Z</time>
      </trkpt>
      <trkpt lat="48.15982" lon="-4.27089">
        <ele>39.55</ele>
        <time>2016-05-03T14:06:47Z</time>
      </trkpt>
      <trkpt lat="48.15979" lon="-4.27063">
        <ele>40.99</ele>
        <time>2016-05-03T14:07:01Z</time>
      </trkpt>
      <trkpt lat="48.15978" lon="-4.27061">
        <ele>40.51</ele>
        <time>2016-05-03T14:07:02Z</time>
      </trkpt>
      <trkpt lat="48.15971" lon="-4.2704">
        <ele>38.59</ele>
        <time>2016-05-03T14:07:15Z</time>
      </trkpt>
      <trkpt lat="48.15963" lon="-4.27018">
        <ele>38.11</ele>
        <time>2016-05-03T14:07:29Z</time>
      </trkpt>
      <trkpt lat="48.15962" lon="-4.27011">
        <ele>36.67</ele>
        <time>2016-05-03T14:07:34Z</time>
      </trkpt>
      <trkpt lat="48.15964" lon="-4.26987">
        <ele>36.19</ele>
        <time>2016-05-03T14:07:47Z</time>
      </trkpt>
      <trkpt lat="48.15965" lon="-4.26975">
        <ele>35.71</ele>
        <time>2016-05-03T14:07:54Z</time>
      </trkpt>
      <trkpt lat="48.15969" lon="-4.26956">
        <ele>32.34</ele>
        <time>2016-05-03T14:08:06Z</time>
      </trkpt>
      <trkpt lat="48.15973" lon="-4.26931">
        <ele>30.9</ele>
        <time>2016-05-03T14:08:21Z</time>
      </trkpt>
      <trkpt lat="48.15975" lon="-4.26923">
        <ele>30.9</ele>
        <time>2016-05-03T14:08:25Z</time>
      </trkpt>
      <trkpt lat="48.15981" lon="-4.26893">
        <ele>30.42</ele>
        <time>2016-05-03T14:08:41Z</time>
      </trkpt>
      <trkpt lat="48.15982" lon="-4.26887">
        <ele>30.9</ele>
        <time>2016-05-03T14:08:44Z</time>
      </trkpt>
      <trkpt lat="48.15977" lon="-4.26867">
        <ele>31.38</ele>
        <time>2016-05-03T14:08:55Z</time>
      </trkpt>
      <trkpt lat="48.15974" lon="-4.26863">
        <ele>31.86</ele>
        <time>2016-05-03T14:08:58Z</time>
      </trkpt>
      <trkpt lat="48.15967" lon="-4.26843">
        <ele>29.46</ele>
        <time>2016-05-03T14:09:11Z</time>
      </trkpt>
      <trkpt lat="48.15962" lon="-4.26827">
        <ele>28.5</ele>
        <time>2016-05-03T14:09:20Z</time>
      </trkpt>
      <trkpt lat="48.15959" lon="-4.26818">
        <ele>29.46</ele>
        <time>2016-05-03T14:09:30Z</time>
      </trkpt>
      <trkpt lat="48.15955" lon="-4.26802">
        <ele>30.42</ele>
        <time>2016-05-03T14:09:40Z</time>
      </trkpt>
      <trkpt lat="48.15954" lon="-4.26794">
        <ele>31.38</ele>
        <time>2016-05-03T14:09:45Z</time>
      </trkpt>
      <trkpt lat="48.15954" lon="-4.26777">
        <ele>32.34</ele>
        <time>2016-05-03T14:09:59Z</time>
      </trkpt>
      <trkpt lat="48.15954" lon="-4.26776">
        <ele>32.34</ele>
        <time>2016-05-03T14:10:00Z</time>
      </trkpt>
      <trkpt lat="48.15954" lon="-4.26767">
        <ele>31.38</ele>
        <time>2016-05-03T14:10:05Z</time>
      </trkpt>
      <trkpt lat="48.15952" lon="-4.2676">
        <ele>30.9</ele>
        <time>2016-05-03T14:10:09Z</time>
      </trkpt>
      <trkpt lat="48.15949" lon="-4.2673">
        <ele>28.98</ele>
        <time>2016-05-03T14:10:26Z</time>
      </trkpt>
      <trkpt lat="48.15948" lon="-4.26716">
        <ele>29.46</ele>
        <time>2016-05-03T14:10:34Z</time>
      </trkpt>
      <trkpt lat="48.15944" lon="-4.26688">
        <ele>29.94</ele>
        <time>2016-05-03T14:10:49Z</time>
      </trkpt>
      <trkpt lat="48.15942" lon="-4.26676">
        <ele>29.46</ele>
        <time>2016-05-03T14:10:56Z</time>
      </trkpt>
      <trkpt lat="48.1594" lon="-4.26655">
        <ele>28.5</ele>
        <time>2016-05-03T14:11:08Z</time>
      </trkpt>
      <trkpt lat="48.15938" lon="-4.26642">
        <ele>28.98</ele>
        <time>2016-05-03T14:11:14Z</time>
      </trkpt>
      <trkpt lat="48.15935" lon="-4.26617">
        <ele>28.5</ele>
        <time>2016-05-03T14:11:28Z</time>
      </trkpt>
      <trkpt lat="48.15932" lon="-4.26591">
        <ele>28.5</ele>
        <time>2016-05-03T14:11:42Z</time>
      </trkpt>
      <trkpt lat="48.15929" lon="-4.26575">
        <ele>29.46</ele>
        <time>2016-05-03T14:11:50Z</time>
      </trkpt>
      <trkpt lat="48.15928" lon="-4.26566">
        <ele>29.94</ele>
        <time>2016-05-03T14:11:55Z</time>
      </trkpt>
      <trkpt lat="48.15924" lon="-4.26537">
        <ele>29.94</ele>
        <time>2016-05-03T14:12:11Z</time>
      </trkpt>
      <trkpt lat="48.15922" lon="-4.26515">
        <ele>28.5</ele>
        <time>2016-05-03T14:12:23Z</time>
      </trkpt>
      <trkpt lat="48.15919" lon="-4.26491">
        <ele>27.05</ele>
        <time>2016-05-03T14:12:37Z</time>
      </trkpt>
      <trkpt lat="48.15918" lon="-4.26485">
        <ele>26.57</ele>
        <time>2016-05-03T14:12:40Z</time>
      </trkpt>
      <trkpt lat="48.15915" lon="-4.26467">
        <ele>25.13</ele>
        <time>2016-05-03T14:12:51Z</time>
      </trkpt>
      <trkpt lat="48.15915" lon="-4.26441">
        <ele>24.65</ele>
        <time>2016-05-03T14:13:05Z</time>
      </trkpt>
      <trkpt lat="48.15916" lon="-4.26409">
        <ele>23.21</ele>
        <time>2016-05-03T14:13:22Z</time>
      </trkpt>
      <trkpt lat="48.1592" lon="-4.26387">
        <ele>22.25</ele>
        <time>2016-05-03T14:13:34Z</time>
      </trkpt>
      <trkpt lat="48.15928" lon="-4.26355">
        <ele>22.73</ele>
        <time>2016-05-03T14:13:52Z</time>
      </trkpt>
      <trkpt lat="48.15935" lon="-4.26325">
        <ele>20.81</ele>
        <time>2016-05-03T14:14:09Z</time>
      </trkpt>
      <trkpt lat="48.15942" lon="-4.26299">
        <ele>19.36</ele>
        <time>2016-05-03T14:14:24Z</time>
      </trkpt>
      <trkpt lat="48.15949" lon="-4.26269">
        <ele>16</ele>
        <time>2016-05-03T14:14:41Z</time>
      </trkpt>
      <trkpt lat="48.15956" lon="-4.26243">
        <ele>16</ele>
        <time>2016-05-03T14:14:56Z</time>
      </trkpt>
      <trkpt lat="48.15956" lon="-4.26241">
        <ele>16</ele>
        <time>2016-05-03T14:14:57Z</time>
      </trkpt>
      <trkpt lat="48.15958" lon="-4.26233">
        <ele>15.52</ele>
        <time>2016-05-03T14:15:02Z</time>
      </trkpt>
      <trkpt lat="48.15965" lon="-4.26205">
        <ele>15.04</ele>
        <time>2016-05-03T14:15:17Z</time>
      </trkpt>
      <trkpt lat="48.15976" lon="-4.26178">
        <ele>12.63</ele>
        <time>2016-05-03T14:15:34Z</time>
      </trkpt>
      <trkpt lat="48.15987" lon="-4.26152">
        <ele>10.23</ele>
        <time>2016-05-03T14:15:51Z</time>
      </trkpt>
      <trkpt lat="48.15991" lon="-4.26142">
        <ele>9.75</ele>
        <time>2016-05-03T14:15:58Z</time>
      </trkpt>
      <trkpt lat="48.16001" lon="-4.26118">
        <ele>9.27</ele>
        <time>2016-05-03T14:16:13Z</time>
      </trkpt>
      <trkpt lat="48.16011" lon="-4.26093">
        <ele>8.31</ele>
        <time>2016-05-03T14:16:30Z</time>
      </trkpt>
      <trkpt lat="48.16016" lon="-4.26083">
        <ele>7.35</ele>
        <time>2016-05-03T14:16:38Z</time>
      </trkpt>
      <trkpt lat="48.16019" lon="-4.26075">
        <ele>7.35</ele>
        <time>2016-05-03T14:16:42Z</time>
      </trkpt>
      <trkpt lat="48.16021" lon="-4.26068">
        <ele>7.35</ele>
        <time>2016-05-03T14:16:47Z</time>
      </trkpt>
      <trkpt lat="48.16031" lon="-4.26037">
        <ele>7.83</ele>
        <time>2016-05-03T14:17:05Z</time>
      </trkpt>
      <trkpt lat="48.16041" lon="-4.26016">
        <ele>9.27</ele>
        <time>2016-05-03T14:17:19Z</time>
      </trkpt>
      <trkpt lat="48.16045" lon="-4.26002">
        <ele>8.79</ele>
        <time>2016-05-03T14:17:32Z</time>
      </trkpt>
      <trkpt lat="48.16053" lon="-4.25986">
        <ele>8.31</ele>
        <time>2016-05-03T14:17:43Z</time>
      </trkpt>
      <trkpt lat="48.1606" lon="-4.25967">
        <ele>9.27</ele>
        <time>2016-05-03T14:17:55Z</time>
      </trkpt>
      <trkpt lat="48.16069" lon="-4.25949">
        <ele>10.71</ele>
        <time>2016-05-03T14:18:07Z</time>
      </trkpt>
      <trkpt lat="48.1608" lon="-4.25933">
        <ele>12.63</ele>
        <time>2016-05-03T14:18:20Z</time>
      </trkpt>
      <trkpt lat="48.16089" lon="-4.25917">
        <ele>12.63</ele>
        <time>2016-05-03T14:18:31Z</time>
      </trkpt>
      <trkpt lat="48.16089" lon="-4.25909">
        <ele>13.12</ele>
        <time>2016-05-03T14:18:36Z</time>
      </trkpt>
      <trkpt lat="48.16084" lon="-4.25901">
        <ele>13.12</ele>
        <time>2016-05-03T14:18:43Z</time>
      </trkpt>
      <trkpt lat="48.16072" lon="-4.25887">
        <ele>14.56</ele>
        <time>2016-05-03T14:18:56Z</time>
      </trkpt>
      <trkpt lat="48.1607" lon="-4.25883">
        <ele>15.52</ele>
        <time>2016-05-03T14:18:59Z</time>
      </trkpt>
      <trkpt lat="48.16057" lon="-4.25868">
        <ele>16</ele>
        <time>2016-05-03T14:19:13Z</time>
      </trkpt>
      <trkpt lat="48.16052" lon="-4.25857">
        <ele>15.52</ele>
        <time>2016-05-03T14:19:20Z</time>
      </trkpt>
      <trkpt lat="48.16051" lon="-4.25851">
        <ele>16</ele>
        <time>2016-05-03T14:19:24Z</time>
      </trkpt>
      <trkpt lat="48.16053" lon="-4.25837">
        <ele>17.44</ele>
        <time>2016-05-03T14:19:31Z</time>
      </trkpt>
      <trkpt lat="48.16056" lon="-4.25824">
        <ele>19.84</ele>
        <time>2016-05-03T14:19:39Z</time>
      </trkpt>
      <trkpt lat="48.16065" lon="-4.25806">
        <ele>21.29</ele>
        <time>2016-05-03T14:19:51Z</time>
      </trkpt>
      <trkpt lat="48.16073" lon="-4.25792">
        <ele>19.36</ele>
        <time>2016-05-03T14:20:02Z</time>
      </trkpt>
      <trkpt lat="48.16076" lon="-4.25789">
        <ele>18.88</ele>
        <time>2016-05-03T14:20:05Z</time>
      </trkpt>
      <trkpt lat="48.16081" lon="-4.25781">
        <ele>17.92</ele>
        <time>2016-05-03T14:20:11Z</time>
      </trkpt>
      <trkpt lat="48.16087" lon="-4.25774">
        <ele>17.44</ele>
        <time>2016-05-03T14:20:17Z</time>
      </trkpt>
      <trkpt lat="48.16092" lon="-4.25765">
        <ele>16.96</ele>
        <time>2016-05-03T14:20:24Z</time>
      </trkpt>
      <trkpt lat="48.16096" lon="-4.25762">
        <ele>17.44</ele>
        <time>2016-05-03T14:20:27Z</time>
      </trkpt>
      <trkpt lat="48.16107" lon="-4.25749">
        <ele>16.96</ele>
        <time>2016-05-03T14:20:40Z</time>
      </trkpt>
      <trkpt lat="48.16114" lon="-4.25742">
        <ele>17.44</ele>
        <time>2016-05-03T14:20:47Z</time>
      </trkpt>
      <trkpt lat="48.16117" lon="-4.25738">
        <ele>18.88</ele>
        <time>2016-05-03T14:20:51Z</time>
      </trkpt>
      <trkpt lat="48.16127" lon="-4.25727">
        <ele>20.32</ele>
        <time>2016-05-03T14:21:03Z</time>
      </trkpt>
      <trkpt lat="48.16132" lon="-4.25718">
        <ele>18.88</ele>
        <time>2016-05-03T14:21:10Z</time>
      </trkpt>
      <trkpt lat="48.16133" lon="-4.25711">
        <ele>18.88</ele>
        <time>2016-05-03T14:21:14Z</time>
      </trkpt>
      <trkpt lat="48.16132" lon="-4.25705">
        <ele>18.88</ele>
        <time>2016-05-03T14:21:22Z</time>
      </trkpt>
      <trkpt lat="48.16114" lon="-4.2569">
        <ele>19.84</ele>
        <time>2016-05-03T14:21:39Z</time>
      </trkpt>
      <trkpt lat="48.16098" lon="-4.25673">
        <ele>20.81</ele>
        <time>2016-05-03T14:21:56Z</time>
      </trkpt>
      <trkpt lat="48.1608" lon="-4.25656">
        <ele>20.32</ele>
        <time>2016-05-03T14:22:13Z</time>
      </trkpt>
      <trkpt lat="48.16066" lon="-4.2564">
        <ele>21.77</ele>
        <time>2016-05-03T14:22:27Z</time>
      </trkpt>
      <trkpt lat="48.16054" lon="-4.25621">
        <ele>20.81</ele>
        <time>2016-05-03T14:22:40Z</time>
      </trkpt>
      <trkpt lat="48.16044" lon="-4.25602">
        <ele>20.32</ele>
        <time>2016-05-03T14:22:53Z</time>
      </trkpt>
      <trkpt lat="48.16034" lon="-4.25579">
        <ele>16.48</ele>
        <time>2016-05-03T14:23:08Z</time>
      </trkpt>
      <trkpt lat="48.16032" lon="-4.25572">
        <ele>15.52</ele>
        <time>2016-05-03T14:23:12Z</time>
      </trkpt>
      <trkpt lat="48.1603" lon="-4.25564">
        <ele>12.15</ele>
        <time>2016-05-03T14:23:17Z</time>
      </trkpt>
      <trkpt lat="48.16025" lon="-4.25538">
        <ele>11.19</ele>
        <time>2016-05-03T14:23:32Z</time>
      </trkpt>
      <trkpt lat="48.16022" lon="-4.25511">
        <ele>11.19</ele>
        <time>2016-05-03T14:23:46Z</time>
      </trkpt>
      <trkpt lat="48.1602" lon="-4.25495">
        <ele>10.23</ele>
        <time>2016-05-03T14:23:55Z</time>
      </trkpt>
      <trkpt lat="48.16019" lon="-4.25464">
        <ele>9.75</ele>
        <time>2016-05-03T14:24:11Z</time>
      </trkpt>
      <trkpt lat="48.16018" lon="-4.25456">
        <ele>8.79</ele>
        <time>2016-05-03T14:24:15Z</time>
      </trkpt>
      <trkpt lat="48.16017" lon="-4.25431">
        <ele>6.39</ele>
        <time>2016-05-03T14:24:30Z</time>
      </trkpt>
      <trkpt lat="48.16016" lon="-4.25415">
        <ele>5.42</ele>
        <time>2016-05-03T14:24:39Z</time>
      </trkpt>
      <trkpt lat="48.16015" lon="-4.25407">
        <ele>6.39</ele>
        <time>2016-05-03T14:24:43Z</time>
      </trkpt>
      <trkpt lat="48.16012" lon="-4.25386">
        <ele>6.87</ele>
        <time>2016-05-03T14:24:54Z</time>
      </trkpt>
      <trkpt lat="48.1601" lon="-4.25365">
        <ele>5.91</ele>
        <time>2016-05-03T14:25:04Z</time>
      </trkpt>
      <trkpt lat="48.16008" lon="-4.25343">
        <ele>4.46</ele>
        <time>2016-05-03T14:25:17Z</time>
      </trkpt>
      <trkpt lat="48.16008" lon="-4.25324">
        <ele>1.1</ele>
        <time>2016-05-03T14:25:30Z</time>
      </trkpt>
      <trkpt lat="48.16006" lon="-4.253">
        <ele>0.62</ele>
        <time>2016-05-03T14:25:44Z</time>
      </trkpt>
      <trkpt lat="48.16007" lon="-4.25281">
        <ele>1.1</ele>
        <time>2016-05-03T14:25:55Z</time>
      </trkpt>
      <trkpt lat="48.16007" lon="-4.25279">
        <ele>1.1</ele>
        <time>2016-05-03T14:25:56Z</time>
      </trkpt>
      <trkpt lat="48.16007" lon="-4.25268">
        <ele>2.06</ele>
        <time>2016-05-03T14:26:01Z</time>
      </trkpt>
      <trkpt lat="48.16002" lon="-4.25231">
        <ele>5.42</ele>
        <time>2016-05-03T14:26:17Z</time>
      </trkpt>
      <trkpt lat="48.16001" lon="-4.25206">
        <ele>5.42</ele>
        <time>2016-05-03T14:26:30Z</time>
      </trkpt>
      <trkpt lat="48.16" lon="-4.25199">
        <ele>4.94</ele>
        <time>2016-05-03T14:26:34Z</time>
      </trkpt>
      <trkpt lat="48.15998" lon="-4.25178">
        <ele>6.39</ele>
        <time>2016-05-03T14:26:45Z</time>
      </trkpt>
      <trkpt lat="48.15997" lon="-4.25162">
        <ele>5.91</ele>
        <time>2016-05-03T14:26:57Z</time>
      </trkpt>
      <trkpt lat="48.15996" lon="-4.25134">
        <ele>3.98</ele>
        <time>2016-05-03T14:27:10Z</time>
      </trkpt>
      <trkpt lat="48.15996" lon="-4.25107">
        <ele>4.94</ele>
        <time>2016-05-03T14:27:22Z</time>
      </trkpt>
      <trkpt lat="48.15995" lon="-4.25097">
        <ele>5.91</ele>
        <time>2016-05-03T14:27:26Z</time>
      </trkpt>
      <trkpt lat="48.15992" lon="-4.2508">
        <ele>7.35</ele>
        <time>2016-05-03T14:27:36Z</time>
      </trkpt>
      <trkpt lat="48.15973" lon="-4.25077">
        <ele>5.42</ele>
        <time>2016-05-03T14:27:54Z</time>
      </trkpt>
      <trkpt lat="48.15962" lon="-4.2509">
        <ele>5.42</ele>
        <time>2016-05-03T14:28:07Z</time>
      </trkpt>
      <trkpt lat="48.15959" lon="-4.25097">
        <ele>5.42</ele>
        <time>2016-05-03T14:28:11Z</time>
      </trkpt>
      <trkpt lat="48.15956" lon="-4.25103">
        <ele>5.42</ele>
        <time>2016-05-03T14:28:14Z</time>
      </trkpt>
      <trkpt lat="48.15951" lon="-4.25113">
        <ele>5.91</ele>
        <time>2016-05-03T14:28:20Z</time>
      </trkpt>
      <trkpt lat="48.15949" lon="-4.25117">
        <ele>6.39</ele>
        <time>2016-05-03T14:28:23Z</time>
      </trkpt>
      <trkpt lat="48.15937" lon="-4.25126">
        <ele>6.87</ele>
        <time>2016-05-03T14:28:33Z</time>
      </trkpt>
      <trkpt lat="48.15932" lon="-4.25131">
        <ele>6.39</ele>
        <time>2016-05-03T14:28:46Z</time>
      </trkpt>
      <trkpt lat="48.15932" lon="-4.25131">
        <ele>6.39</ele>
        <time>2016-05-03T14:29:13Z</time>
      </trkpt>
      <trkpt lat="48.15931" lon="-4.25133">
        <ele>6.39</ele>
        <time>2016-05-03T14:29:34Z</time>
      </trkpt>
      <trkpt lat="48.15924" lon="-4.25142">
        <ele>6.87</ele>
        <time>2016-05-03T14:29:42Z</time>
      </trkpt>
      <trkpt lat="48.1592" lon="-4.25145">
        <ele>7.35</ele>
        <time>2016-05-03T14:29:45Z</time>
      </trkpt>
      <trkpt lat="48.15914" lon="-4.25153">
        <ele>6.87</ele>
        <time>2016-05-03T14:29:52Z</time>
      </trkpt>
      <trkpt lat="48.15905" lon="-4.25164">
        <ele>7.35</ele>
        <time>2016-05-03T14:30:02Z</time>
      </trkpt>
      <trkpt lat="48.15895" lon="-4.25182">
        <ele>9.27</ele>
        <time>2016-05-03T14:30:15Z</time>
      </trkpt>
      <trkpt lat="48.15891" lon="-4.25185">
        <ele>9.75</ele>
        <time>2016-05-03T14:30:18Z</time>
      </trkpt>
      <trkpt lat="48.1588" lon="-4.25201">
        <ele>8.79</ele>
        <time>2016-05-03T14:30:30Z</time>
      </trkpt>
      <trkpt lat="48.15875" lon="-4.25204">
        <ele>9.27</ele>
        <time>2016-05-03T14:30:34Z</time>
      </trkpt>
      <trkpt lat="48.15868" lon="-4.25209">
        <ele>10.23</ele>
        <time>2016-05-03T14:30:40Z</time>
      </trkpt>
      <trkpt lat="48.15864" lon="-4.25212">
        <ele>10.71</ele>
        <time>2016-05-03T14:30:45Z</time>
      </trkpt>
      <trkpt lat="48.15851" lon="-4.25219">
        <ele>11.19</ele>
        <time>2016-05-03T14:30:57Z</time>
      </trkpt>
      <trkpt lat="48.15848" lon="-4.25222">
        <ele>11.19</ele>
        <time>2016-05-03T14:31:01Z</time>
      </trkpt>
      <trkpt lat="48.15835" lon="-4.25233">
        <ele>9.75</ele>
        <time>2016-05-03T14:31:13Z</time>
      </trkpt>
      <trkpt lat="48.15823" lon="-4.25244">
        <ele>9.75</ele>
        <time>2016-05-03T14:31:25Z</time>
      </trkpt>
      <trkpt lat="48.15811" lon="-4.25255">
        <ele>11.19</ele>
        <time>2016-05-03T14:31:38Z</time>
      </trkpt>
      <trkpt lat="48.15808" lon="-4.2526">
        <ele>11.67</ele>
        <time>2016-05-03T14:31:43Z</time>
      </trkpt>
      <trkpt lat="48.15797" lon="-4.2528">
        <ele>14.56</ele>
        <time>2016-05-03T14:31:56Z</time>
      </trkpt>
      <trkpt lat="48.15795" lon="-4.25285">
        <ele>14.56</ele>
        <time>2016-05-03T14:32:00Z</time>
      </trkpt>
      <trkpt lat="48.15786" lon="-4.25309">
        <ele>15.52</ele>
        <time>2016-05-03T14:32:15Z</time>
      </trkpt>
      <trkpt lat="48.15776" lon="-4.25336">
        <ele>15.04</ele>
        <time>2016-05-03T14:32:33Z</time>
      </trkpt>
      <trkpt lat="48.15765" lon="-4.25358">
        <ele>15.04</ele>
        <time>2016-05-03T14:32:49Z</time>
      </trkpt>
      <trkpt lat="48.15755" lon="-4.2538">
        <ele>12.15</ele>
        <time>2016-05-03T14:33:02Z</time>
      </trkpt>
      <trkpt lat="48.15749" lon="-4.25386">
        <ele>13.12</ele>
        <time>2016-05-03T14:33:07Z</time>
      </trkpt>
      <trkpt lat="48.15745" lon="-4.25391">
        <ele>13.6</ele>
        <time>2016-05-03T14:33:11Z</time>
      </trkpt>
      <trkpt lat="48.15742" lon="-4.25392">
        <ele>13.12</ele>
        <time>2016-05-03T14:33:13Z</time>
      </trkpt>
      <trkpt lat="48.15741" lon="-4.25393">
        <ele>13.12</ele>
        <time>2016-05-03T14:33:15Z</time>
      </trkpt>
      <trkpt lat="48.15724" lon="-4.25395">
        <ele>10.71</ele>
        <time>2016-05-03T14:33:29Z</time>
      </trkpt>
      <trkpt lat="48.15712" lon="-4.25399">
        <ele>12.15</ele>
        <time>2016-05-03T14:33:41Z</time>
      </trkpt>
      <trkpt lat="48.15711" lon="-4.25399">
        <ele>11.67</ele>
        <time>2016-05-03T14:33:42Z</time>
      </trkpt>
      <trkpt lat="48.15698" lon="-4.25417">
        <ele>11.67</ele>
        <time>2016-05-03T14:33:57Z</time>
      </trkpt>
      <trkpt lat="48.15689" lon="-4.25429">
        <ele>10.71</ele>
        <time>2016-05-03T14:34:08Z</time>
      </trkpt>
      <trkpt lat="48.15681" lon="-4.2544">
        <ele>10.71</ele>
        <time>2016-05-03T14:34:19Z</time>
      </trkpt>
      <trkpt lat="48.15678" lon="-4.25456">
        <ele>9.75</ele>
        <time>2016-05-03T14:34:29Z</time>
      </trkpt>
      <trkpt lat="48.15673" lon="-4.25477">
        <ele>9.75</ele>
        <time>2016-05-03T14:34:44Z</time>
      </trkpt>
      <trkpt lat="48.15667" lon="-4.25493">
        <ele>8.79</ele>
        <time>2016-05-03T14:34:54Z</time>
      </trkpt>
      <trkpt lat="48.15668" lon="-4.25506">
        <ele>7.83</ele>
        <time>2016-05-03T14:35:06Z</time>
      </trkpt>
      <trkpt lat="48.15666" lon="-4.25507">
        <ele>7.35</ele>
        <time>2016-05-03T14:35:21Z</time>
      </trkpt>
      <trkpt lat="48.15665" lon="-4.25506">
        <ele>7.83</ele>
        <time>2016-05-03T14:35:39Z</time>
      </trkpt>
      <trkpt lat="48.15663" lon="-4.25505">
        <ele>7.83</ele>
        <time>2016-05-03T14:35:41Z</time>
      </trkpt>
      <trkpt lat="48.15653" lon="-4.25495">
        <ele>9.75</ele>
        <time>2016-05-03T14:35:54Z</time>
      </trkpt>
      <trkpt lat="48.15646" lon="-4.25486">
        <ele>14.56</ele>
        <time>2016-05-03T14:36:04Z</time>
      </trkpt>
      <trkpt lat="48.15639" lon="-4.25479">
        <ele>16.96</ele>
        <time>2016-05-03T14:36:13Z</time>
      </trkpt>
      <trkpt lat="48.15625" lon="-4.25467">
        <ele>18.88</ele>
        <time>2016-05-03T14:36:30Z</time>
      </trkpt>
      <trkpt lat="48.15622" lon="-4.25463">
        <ele>19.36</ele>
        <time>2016-05-03T14:36:37Z</time>
      </trkpt>
      <trkpt lat="48.15623" lon="-4.25462">
        <ele>21.29</ele>
        <time>2016-05-03T14:36:51Z</time>
      </trkpt>
      <trkpt lat="48.15622" lon="-4.25461">
        <ele>21.77</ele>
        <time>2016-05-03T14:37:13Z</time>
      </trkpt>
      <trkpt lat="48.15621" lon="-4.25461">
        <ele>21.77</ele>
        <time>2016-05-03T14:37:21Z</time>
      </trkpt>
      <trkpt lat="48.15611" lon="-4.25453">
        <ele>23.21</ele>
        <time>2016-05-03T14:37:34Z</time>
      </trkpt>
      <trkpt lat="48.15605" lon="-4.25444">
        <ele>22.73</ele>
        <time>2016-05-03T14:37:43Z</time>
      </trkpt>
      <trkpt lat="48.15592" lon="-4.25435">
        <ele>23.69</ele>
        <time>2016-05-03T14:37:56Z</time>
      </trkpt>
      <trkpt lat="48.15587" lon="-4.25432">
        <ele>25.13</ele>
        <time>2016-05-03T14:38:01Z</time>
      </trkpt>
      <trkpt lat="48.15583" lon="-4.2543">
        <ele>26.09</ele>
        <time>2016-05-03T14:38:05Z</time>
      </trkpt>
      <trkpt lat="48.15578" lon="-4.25426">
        <ele>26.57</ele>
        <time>2016-05-03T14:38:11Z</time>
      </trkpt>
      <trkpt lat="48.15572" lon="-4.2542">
        <ele>27.05</ele>
        <time>2016-05-03T14:38:18Z</time>
      </trkpt>
      <trkpt lat="48.15565" lon="-4.25415">
        <ele>27.53</ele>
        <time>2016-05-03T14:38:25Z</time>
      </trkpt>
      <trkpt lat="48.15564" lon="-4.25413">
        <ele>28.02</ele>
        <time>2016-05-03T14:38:27Z</time>
      </trkpt>
      <trkpt lat="48.15562" lon="-4.25412">
        <ele>28.02</ele>
        <time>2016-05-03T14:38:29Z</time>
      </trkpt>
      <trkpt lat="48.1555" lon="-4.25403">
        <ele>29.46</ele>
        <time>2016-05-03T14:38:41Z</time>
      </trkpt>
      <trkpt lat="48.15543" lon="-4.25397">
        <ele>28.98</ele>
        <time>2016-05-03T14:38:50Z</time>
      </trkpt>
      <trkpt lat="48.15536" lon="-4.25392">
        <ele>29.94</ele>
        <time>2016-05-03T14:38:57Z</time>
      </trkpt>
      <trkpt lat="48.15534" lon="-4.2539">
        <ele>30.9</ele>
        <time>2016-05-03T14:38:59Z</time>
      </trkpt>
      <trkpt lat="48.1553" lon="-4.25387">
        <ele>31.38</ele>
        <time>2016-05-03T14:39:03Z</time>
      </trkpt>
      <trkpt lat="48.15526" lon="-4.25384">
        <ele>31.86</ele>
        <time>2016-05-03T14:39:07Z</time>
      </trkpt>
      <trkpt lat="48.15513" lon="-4.25372">
        <ele>33.78</ele>
        <time>2016-05-03T14:39:20Z</time>
      </trkpt>
      <trkpt lat="48.15509" lon="-4.25368">
        <ele>34.26</ele>
        <time>2016-05-03T14:39:24Z</time>
      </trkpt>
      <trkpt lat="48.15504" lon="-4.25366">
        <ele>34.26</ele>
        <time>2016-05-03T14:39:28Z</time>
      </trkpt>
      <trkpt lat="48.15494" lon="-4.25355">
        <ele>32.82</ele>
        <time>2016-05-03T14:39:42Z</time>
      </trkpt>
      <trkpt lat="48.15481" lon="-4.25346">
        <ele>33.3</ele>
        <time>2016-05-03T14:39:55Z</time>
      </trkpt>
      <trkpt lat="48.15469" lon="-4.25335">
        <ele>36.19</ele>
        <time>2016-05-03T14:40:08Z</time>
      </trkpt>
      <trkpt lat="48.15463" lon="-4.2533">
        <ele>36.67</ele>
        <time>2016-05-03T14:40:14Z</time>
      </trkpt>
      <trkpt lat="48.15461" lon="-4.25328">
        <ele>36.67</ele>
        <time>2016-05-03T14:40:17Z</time>
      </trkpt>
      <trkpt lat="48.15454" lon="-4.25323">
        <ele>37.63</ele>
        <time>2016-05-03T14:40:23Z</time>
      </trkpt>
      <trkpt lat="48.1544" lon="-4.25311">
        <ele>36.19</ele>
        <time>2016-05-03T14:40:37Z</time>
      </trkpt>
      <trkpt lat="48.15438" lon="-4.2531">
        <ele>36.19</ele>
        <time>2016-05-03T14:40:39Z</time>
      </trkpt>
      <trkpt lat="48.15433" lon="-4.25307">
        <ele>36.19</ele>
        <time>2016-05-03T14:40:44Z</time>
      </trkpt>
      <trkpt lat="48.15421" lon="-4.25296">
        <ele>41.47</ele>
        <time>2016-05-03T14:40:56Z</time>
      </trkpt>
      <trkpt lat="48.15417" lon="-4.25292">
        <ele>41.47</ele>
        <time>2016-05-03T14:41:00Z</time>
      </trkpt>
      <trkpt lat="48.15413" lon="-4.25289">
        <ele>41.47</ele>
        <time>2016-05-03T14:41:04Z</time>
      </trkpt>
      <trkpt lat="48.1541" lon="-4.25287">
        <ele>41.95</ele>
        <time>2016-05-03T14:41:07Z</time>
      </trkpt>
      <trkpt lat="48.15408" lon="-4.25285">
        <ele>42.44</ele>
        <time>2016-05-03T14:41:09Z</time>
      </trkpt>
      <trkpt lat="48.15404" lon="-4.25283">
        <ele>43.4</ele>
        <time>2016-05-03T14:41:13Z</time>
      </trkpt>
      <trkpt lat="48.15397" lon="-4.25278">
        <ele>43.4</ele>
        <time>2016-05-03T14:41:20Z</time>
      </trkpt>
      <trkpt lat="48.15394" lon="-4.25275">
        <ele>43.4</ele>
        <time>2016-05-03T14:41:23Z</time>
      </trkpt>
      <trkpt lat="48.15389" lon="-4.25272">
        <ele>43.4</ele>
        <time>2016-05-03T14:41:28Z</time>
      </trkpt>
      <trkpt lat="48.1538" lon="-4.25267">
        <ele>43.4</ele>
        <time>2016-05-03T14:41:37Z</time>
      </trkpt>
      <trkpt lat="48.15377" lon="-4.25267">
        <ele>43.88</ele>
        <time>2016-05-03T14:41:40Z</time>
      </trkpt>
      <trkpt lat="48.15375" lon="-4.25268">
        <ele>43.88</ele>
        <time>2016-05-03T14:41:42Z</time>
      </trkpt>
      <trkpt lat="48.15369" lon="-4.25283">
        <ele>45.32</ele>
        <time>2016-05-03T14:41:54Z</time>
      </trkpt>
      <trkpt lat="48.15366" lon="-4.25299">
        <ele>46.28</ele>
        <time>2016-05-03T14:42:02Z</time>
      </trkpt>
      <trkpt lat="48.15365" lon="-4.25313">
        <ele>46.28</ele>
        <time>2016-05-03T14:42:10Z</time>
      </trkpt>
      <trkpt lat="48.15365" lon="-4.25319">
        <ele>46.28</ele>
        <time>2016-05-03T14:42:14Z</time>
      </trkpt>
      <trkpt lat="48.15364" lon="-4.25327">
        <ele>46.76</ele>
        <time>2016-05-03T14:42:19Z</time>
      </trkpt>
      <trkpt lat="48.1536" lon="-4.25354">
        <ele>45.32</ele>
        <time>2016-05-03T14:42:36Z</time>
      </trkpt>
      <trkpt lat="48.15359" lon="-4.25377">
        <ele>41.95</ele>
        <time>2016-05-03T14:42:51Z</time>
      </trkpt>
      <trkpt lat="48.15357" lon="-4.25396">
        <ele>36.67</ele>
        <time>2016-05-03T14:43:04Z</time>
      </trkpt>
      <trkpt lat="48.15349" lon="-4.25419">
        <ele>31.86</ele>
        <time>2016-05-03T14:43:18Z</time>
      </trkpt>
      <trkpt lat="48.15346" lon="-4.25429">
        <ele>30.42</ele>
        <time>2016-05-03T14:43:24Z</time>
      </trkpt>
      <trkpt lat="48.15343" lon="-4.25438">
        <ele>29.46</ele>
        <time>2016-05-03T14:43:30Z</time>
      </trkpt>
      <trkpt lat="48.15339" lon="-4.25445">
        <ele>30.9</ele>
        <time>2016-05-03T14:43:34Z</time>
      </trkpt>
      <trkpt lat="48.15331" lon="-4.25467">
        <ele>33.3</ele>
        <time>2016-05-03T14:43:48Z</time>
      </trkpt>
      <trkpt lat="48.15322" lon="-4.25489">
        <ele>35.23</ele>
        <time>2016-05-03T14:44:02Z</time>
      </trkpt>
      <trkpt lat="48.15319" lon="-4.25497">
        <ele>36.19</ele>
        <time>2016-05-03T14:44:06Z</time>
      </trkpt>
      <trkpt lat="48.15316" lon="-4.25507">
        <ele>36.19</ele>
        <time>2016-05-03T14:44:13Z</time>
      </trkpt>
      <trkpt lat="48.15306" lon="-4.2553">
        <ele>34.26</ele>
        <time>2016-05-03T14:44:28Z</time>
      </trkpt>
      <trkpt lat="48.15299" lon="-4.25552">
        <ele>33.3</ele>
        <time>2016-05-03T14:44:41Z</time>
      </trkpt>
      <trkpt lat="48.1529" lon="-4.25576">
        <ele>33.3</ele>
        <time>2016-05-03T14:44:56Z</time>
      </trkpt>
      <trkpt lat="48.15281" lon="-4.25598">
        <ele>33.78</ele>
        <time>2016-05-03T14:45:10Z</time>
      </trkpt>
      <trkpt lat="48.15269" lon="-4.25623">
        <ele>35.71</ele>
        <time>2016-05-03T14:45:27Z</time>
      </trkpt>
      <trkpt lat="48.15255" lon="-4.25647">
        <ele>35.23</ele>
        <time>2016-05-03T14:45:44Z</time>
      </trkpt>
      <trkpt lat="48.15245" lon="-4.25662">
        <ele>34.74</ele>
        <time>2016-05-03T14:45:57Z</time>
      </trkpt>
      <trkpt lat="48.15237" lon="-4.25673">
        <ele>34.74</ele>
        <time>2016-05-03T14:46:07Z</time>
      </trkpt>
      <trkpt lat="48.1523" lon="-4.25683">
        <ele>33.78</ele>
        <time>2016-05-03T14:46:15Z</time>
      </trkpt>
      <trkpt lat="48.15218" lon="-4.25698">
        <ele>31.86</ele>
        <time>2016-05-03T14:46:27Z</time>
      </trkpt>
      <trkpt lat="48.15204" lon="-4.25719">
        <ele>30.42</ele>
        <time>2016-05-03T14:46:42Z</time>
      </trkpt>
      <trkpt lat="48.15192" lon="-4.25734">
        <ele>28.98</ele>
        <time>2016-05-03T14:46:55Z</time>
      </trkpt>
      <trkpt lat="48.15182" lon="-4.25749">
        <ele>28.02</ele>
        <time>2016-05-03T14:47:07Z</time>
      </trkpt>
      <trkpt lat="48.15181" lon="-4.25751">
        <ele>28.02</ele>
        <time>2016-05-03T14:47:08Z</time>
      </trkpt>
      <trkpt lat="48.15183" lon="-4.2578">
        <ele>26.09</ele>
        <time>2016-05-03T14:47:25Z</time>
      </trkpt>
      <trkpt lat="48.15184" lon="-4.25782">
        <ele>25.61</ele>
        <time>2016-05-03T14:47:26Z</time>
      </trkpt>
      <trkpt lat="48.15185" lon="-4.25785">
        <ele>25.61</ele>
        <time>2016-05-03T14:47:28Z</time>
      </trkpt>
      <trkpt lat="48.15184" lon="-4.25798">
        <ele>24.17</ele>
        <time>2016-05-03T14:47:36Z</time>
      </trkpt>
      <trkpt lat="48.15185" lon="-4.25819">
        <ele>21.77</ele>
        <time>2016-05-03T14:47:48Z</time>
      </trkpt>
      <trkpt lat="48.15186" lon="-4.25829">
        <ele>20.32</ele>
        <time>2016-05-03T14:47:59Z</time>
      </trkpt>
      <trkpt lat="48.15184" lon="-4.25836">
        <ele>18.88</ele>
        <time>2016-05-03T14:48:04Z</time>
      </trkpt>
      <trkpt lat="48.15182" lon="-4.25846">
        <ele>16.96</ele>
        <time>2016-05-03T14:48:09Z</time>
      </trkpt>
      <trkpt lat="48.15181" lon="-4.2585">
        <ele>16.48</ele>
        <time>2016-05-03T14:48:11Z</time>
      </trkpt>
      <trkpt lat="48.15178" lon="-4.25856">
        <ele>15.52</ele>
        <time>2016-05-03T14:48:16Z</time>
      </trkpt>
      <trkpt lat="48.15169" lon="-4.25875">
        <ele>13.12</ele>
        <time>2016-05-03T14:48:28Z</time>
      </trkpt>
      <trkpt lat="48.15167" lon="-4.25879">
        <ele>13.12</ele>
        <time>2016-05-03T14:48:31Z</time>
      </trkpt>
      <trkpt lat="48.15164" lon="-4.25885">
        <ele>13.12</ele>
        <time>2016-05-03T14:48:35Z</time>
      </trkpt>
      <trkpt lat="48.15161" lon="-4.25891">
        <ele>13.12</ele>
        <time>2016-05-03T14:48:39Z</time>
      </trkpt>
      <trkpt lat="48.1516" lon="-4.25896">
        <ele>14.08</ele>
        <time>2016-05-03T14:48:42Z</time>
      </trkpt>
      <trkpt lat="48.15156" lon="-4.25905">
        <ele>14.56</ele>
        <time>2016-05-03T14:48:48Z</time>
      </trkpt>
      <trkpt lat="48.15159" lon="-4.25931">
        <ele>16.48</ele>
        <time>2016-05-03T14:49:03Z</time>
      </trkpt>
      <trkpt lat="48.1516" lon="-4.25937">
        <ele>16.48</ele>
        <time>2016-05-03T14:49:06Z</time>
      </trkpt>
      <trkpt lat="48.15163" lon="-4.25944">
        <ele>18.4</ele>
        <time>2016-05-03T14:49:10Z</time>
      </trkpt>
      <trkpt lat="48.15169" lon="-4.25972">
        <ele>16.96</ele>
        <time>2016-05-03T14:49:26Z</time>
      </trkpt>
      <trkpt lat="48.15174" lon="-4.25994">
        <ele>16.48</ele>
        <time>2016-05-03T14:49:39Z</time>
      </trkpt>
      <trkpt lat="48.15177" lon="-4.25999">
        <ele>16</ele>
        <time>2016-05-03T14:49:43Z</time>
      </trkpt>
      <trkpt lat="48.15194" lon="-4.26009">
        <ele>12.63</ele>
        <time>2016-05-03T14:49:58Z</time>
      </trkpt>
      <trkpt lat="48.15207" lon="-4.2602">
        <ele>14.08</ele>
        <time>2016-05-03T14:50:10Z</time>
      </trkpt>
      <trkpt lat="48.15214" lon="-4.26036">
        <ele>14.56</ele>
        <time>2016-05-03T14:50:22Z</time>
      </trkpt>
      <trkpt lat="48.15216" lon="-4.26041">
        <ele>14.56</ele>
        <time>2016-05-03T14:50:25Z</time>
      </trkpt>
      <trkpt lat="48.1522" lon="-4.26053">
        <ele>14.08</ele>
        <time>2016-05-03T14:50:32Z</time>
      </trkpt>
      <trkpt lat="48.15225" lon="-4.26065">
        <ele>14.56</ele>
        <time>2016-05-03T14:50:40Z</time>
      </trkpt>
      <trkpt lat="48.15237" lon="-4.26085">
        <ele>13.12</ele>
        <time>2016-05-03T14:50:54Z</time>
      </trkpt>
      <trkpt lat="48.15246" lon="-4.26101">
        <ele>12.15</ele>
        <time>2016-05-03T14:51:06Z</time>
      </trkpt>
      <trkpt lat="48.15249" lon="-4.26106">
        <ele>11.67</ele>
        <time>2016-05-03T14:51:10Z</time>
      </trkpt>
      <trkpt lat="48.15251" lon="-4.26109">
        <ele>12.15</ele>
        <time>2016-05-03T14:51:12Z</time>
      </trkpt>
      <trkpt lat="48.15253" lon="-4.26112">
        <ele>12.15</ele>
        <time>2016-05-03T14:51:14Z</time>
      </trkpt>
      <trkpt lat="48.15265" lon="-4.26133">
        <ele>12.15</ele>
        <time>2016-05-03T14:51:29Z</time>
      </trkpt>
      <trkpt lat="48.15267" lon="-4.26138">
        <ele>11.67</ele>
        <time>2016-05-03T14:51:32Z</time>
      </trkpt>
      <trkpt lat="48.15263" lon="-4.26162">
        <ele>11.19</ele>
        <time>2016-05-03T14:51:46Z</time>
      </trkpt>
      <trkpt lat="48.15256" lon="-4.26181">
        <ele>12.15</ele>
        <time>2016-05-03T14:51:57Z</time>
      </trkpt>
      <trkpt lat="48.15248" lon="-4.262">
        <ele>12.63</ele>
        <time>2016-05-03T14:52:10Z</time>
      </trkpt>
      <trkpt lat="48.15246" lon="-4.26213">
        <ele>12.15</ele>
        <time>2016-05-03T14:52:17Z</time>
      </trkpt>
      <trkpt lat="48.15243" lon="-4.26221">
        <ele>11.19</ele>
        <time>2016-05-03T14:52:22Z</time>
      </trkpt>
      <trkpt lat="48.15243" lon="-4.26223">
        <ele>10.71</ele>
        <time>2016-05-03T14:52:24Z</time>
      </trkpt>
      <trkpt lat="48.15241" lon="-4.26227">
        <ele>10.71</ele>
        <time>2016-05-03T14:52:27Z</time>
      </trkpt>
      <trkpt lat="48.15237" lon="-4.26238">
        <ele>10.71</ele>
        <time>2016-05-03T14:52:34Z</time>
      </trkpt>
      <trkpt lat="48.15235" lon="-4.26243">
        <ele>10.23</ele>
        <time>2016-05-03T14:52:37Z</time>
      </trkpt>
      <trkpt lat="48.1523" lon="-4.26256">
        <ele>9.75</ele>
        <time>2016-05-03T14:52:46Z</time>
      </trkpt>
      <trkpt lat="48.15224" lon="-4.26276">
        <ele>11.19</ele>
        <time>2016-05-03T14:52:58Z</time>
      </trkpt>
      <trkpt lat="48.15223" lon="-4.26277">
        <ele>11.19</ele>
        <time>2016-05-03T14:52:59Z</time>
      </trkpt>
      <trkpt lat="48.15219" lon="-4.26295">
        <ele>12.63</ele>
        <time>2016-05-03T14:53:09Z</time>
      </trkpt>
      <trkpt lat="48.15236" lon="-4.26306">
        <ele>11.19</ele>
        <time>2016-05-03T14:53:25Z</time>
      </trkpt>
      <trkpt lat="48.15239" lon="-4.26306">
        <ele>11.19</ele>
        <time>2016-05-03T14:53:28Z</time>
      </trkpt>
      <trkpt lat="48.15247" lon="-4.26308">
        <ele>10.71</ele>
        <time>2016-05-03T14:53:34Z</time>
      </trkpt>
      <trkpt lat="48.15251" lon="-4.2631">
        <ele>10.71</ele>
        <time>2016-05-03T14:53:38Z</time>
      </trkpt>
      <trkpt lat="48.15268" lon="-4.26312">
        <ele>9.27</ele>
        <time>2016-05-03T14:53:52Z</time>
      </trkpt>
      <trkpt lat="48.15279" lon="-4.26315">
        <ele>8.31</ele>
        <time>2016-05-03T14:54:01Z</time>
      </trkpt>
      <trkpt lat="48.15283" lon="-4.26317">
        <ele>7.83</ele>
        <time>2016-05-03T14:54:04Z</time>
      </trkpt>
      <trkpt lat="48.153" lon="-4.26323">
        <ele>7.35</ele>
        <time>2016-05-03T14:54:18Z</time>
      </trkpt>
      <trkpt lat="48.15316" lon="-4.26326">
        <ele>6.39</ele>
        <time>2016-05-03T14:54:32Z</time>
      </trkpt>
      <trkpt lat="48.15321" lon="-4.2633">
        <ele>5.91</ele>
        <time>2016-05-03T14:54:36Z</time>
      </trkpt>
      <trkpt lat="48.15335" lon="-4.26336">
        <ele>4.46</ele>
        <time>2016-05-03T14:54:47Z</time>
      </trkpt>
      <trkpt lat="48.15354" lon="-4.26345">
        <ele>2.06</ele>
        <time>2016-05-03T14:55:03Z</time>
      </trkpt>
      <trkpt lat="48.15367" lon="-4.26352">
        <ele>1.58</ele>
        <time>2016-05-03T14:55:15Z</time>
      </trkpt>
      <trkpt lat="48.15376" lon="-4.26355">
        <ele>1.58</ele>
        <time>2016-05-03T14:55:22Z</time>
      </trkpt>
      <trkpt lat="48.15388" lon="-4.26367">
        <ele>0.62</ele>
        <time>2016-05-03T14:55:34Z</time>
      </trkpt>
      <trkpt lat="48.1539" lon="-4.2637">
        <ele>0.62</ele>
        <time>2016-05-03T14:55:37Z</time>
      </trkpt>
      <trkpt lat="48.15393" lon="-4.2639">
        <ele>-0.82</ele>
        <time>2016-05-03T14:55:48Z</time>
      </trkpt>
      <trkpt lat="48.15393" lon="-4.26397">
        <ele>-0.82</ele>
        <time>2016-05-03T14:55:51Z</time>
      </trkpt>
      <trkpt lat="48.15395" lon="-4.26411">
        <ele>-1.79</ele>
        <time>2016-05-03T14:55:59Z</time>
      </trkpt>
      <trkpt lat="48.15394" lon="-4.26421">
        <ele>-3.23</ele>
        <time>2016-05-03T14:56:05Z</time>
      </trkpt>
      <trkpt lat="48.15394" lon="-4.26438">
        <ele>-8.03</ele>
        <time>2016-05-03T14:56:16Z</time>
      </trkpt>
      <trkpt lat="48.15396" lon="-4.26457">
        <ele>-8.51</ele>
        <time>2016-05-03T14:56:26Z</time>
      </trkpt>
      <trkpt lat="48.15394" lon="-4.2648">
        <ele>-7.55</ele>
        <time>2016-05-03T14:56:39Z</time>
      </trkpt>
      <trkpt lat="48.15391" lon="-4.26491">
        <ele>-7.55</ele>
        <time>2016-05-03T14:56:45Z</time>
      </trkpt>
      <trkpt lat="48.15391" lon="-4.26497">
        <ele>-8.03</ele>
        <time>2016-05-03T14:56:48Z</time>
      </trkpt>
      <trkpt lat="48.15388" lon="-4.26508">
        <ele>-7.07</ele>
        <time>2016-05-03T14:56:54Z</time>
      </trkpt>
      <trkpt lat="48.15389" lon="-4.26528">
        <ele>-6.11</ele>
        <time>2016-05-03T14:57:04Z</time>
      </trkpt>
      <trkpt lat="48.1539" lon="-4.26536">
        <ele>-6.11</ele>
        <time>2016-05-03T14:57:08Z</time>
      </trkpt>
      <trkpt lat="48.1539" lon="-4.26548">
        <ele>-5.63</ele>
        <time>2016-05-03T14:57:14Z</time>
      </trkpt>
      <trkpt lat="48.15394" lon="-4.26578">
        <ele>-3.71</ele>
        <time>2016-05-03T14:57:29Z</time>
      </trkpt>
      <trkpt lat="48.15394" lon="-4.2658">
        <ele>-3.71</ele>
        <time>2016-05-03T14:57:30Z</time>
      </trkpt>
      <trkpt lat="48.15396" lon="-4.26586">
        <ele>-3.23</ele>
        <time>2016-05-03T14:57:33Z</time>
      </trkpt>
      <trkpt lat="48.15397" lon="-4.26606">
        <ele>-2.75</ele>
        <time>2016-05-03T14:57:45Z</time>
      </trkpt>
      <trkpt lat="48.15397" lon="-4.26618">
        <ele>-2.75</ele>
        <time>2016-05-03T14:57:52Z</time>
      </trkpt>
      <trkpt lat="48.15398" lon="-4.26637">
        <ele>-3.23</ele>
        <time>2016-05-03T14:58:02Z</time>
      </trkpt>
      <trkpt lat="48.15397" lon="-4.2665">
        <ele>-4.19</ele>
        <time>2016-05-03T14:58:09Z</time>
      </trkpt>
      <trkpt lat="48.15395" lon="-4.26664">
        <ele>-5.15</ele>
        <time>2016-05-03T14:58:17Z</time>
      </trkpt>
      <trkpt lat="48.15392" lon="-4.2669">
        <ele>-5.15</ele>
        <time>2016-05-03T14:58:31Z</time>
      </trkpt>
      <trkpt lat="48.15392" lon="-4.26692">
        <ele>-5.15</ele>
        <time>2016-05-03T14:58:32Z</time>
      </trkpt>
      <trkpt lat="48.15388" lon="-4.26707">
        <ele>-4.67</ele>
        <time>2016-05-03T14:58:40Z</time>
      </trkpt>
      <trkpt lat="48.15386" lon="-4.26713">
        <ele>-4.67</ele>
        <time>2016-05-03T14:58:43Z</time>
      </trkpt>
      <trkpt lat="48.15386" lon="-4.26716">
        <ele>-4.19</ele>
        <time>2016-05-03T14:58:45Z</time>
      </trkpt>
      <trkpt lat="48.15378" lon="-4.26729">
        <ele>-5.63</ele>
        <time>2016-05-03T14:58:56Z</time>
      </trkpt>
      <trkpt lat="48.15376" lon="-4.26738">
        <ele>-5.63</ele>
        <time>2016-05-03T14:59:00Z</time>
      </trkpt>
      <trkpt lat="48.15365" lon="-4.26758">
        <ele>-6.59</ele>
        <time>2016-05-03T14:59:14Z</time>
      </trkpt>
      <trkpt lat="48.15364" lon="-4.26759">
        <ele>-6.59</ele>
        <time>2016-05-03T14:59:15Z</time>
      </trkpt>
      <trkpt lat="48.15359" lon="-4.26769">
        <ele>-5.15</ele>
        <time>2016-05-03T14:59:21Z</time>
      </trkpt>
      <trkpt lat="48.1535" lon="-4.26786">
        <ele>-5.15</ele>
        <time>2016-05-03T14:59:33Z</time>
      </trkpt>
      <trkpt lat="48.15341" lon="-4.26803">
        <ele>-4.19</ele>
        <time>2016-05-03T14:59:44Z</time>
      </trkpt>
      <trkpt lat="48.15341" lon="-4.26804">
        <ele>-4.19</ele>
        <time>2016-05-03T14:59:45Z</time>
      </trkpt>
      <trkpt lat="48.15331" lon="-4.26824">
        <ele>-1.79</ele>
        <time>2016-05-03T14:59:58Z</time>
      </trkpt>
      <trkpt lat="48.15329" lon="-4.26828">
        <ele>-1.3</ele>
        <time>2016-05-03T15:00:00Z</time>
      </trkpt>
      <trkpt lat="48.15326" lon="-4.26833">
        <ele>-1.3</ele>
        <time>2016-05-03T15:00:04Z</time>
      </trkpt>
      <trkpt lat="48.15324" lon="-4.26836">
        <ele>-0.82</ele>
        <time>2016-05-03T15:00:06Z</time>
      </trkpt>
      <trkpt lat="48.15321" lon="-4.26842">
        <ele>-1.3</ele>
        <time>2016-05-03T15:00:10Z</time>
      </trkpt>
      <trkpt lat="48.15316" lon="-4.26851">
        <ele>-0.82</ele>
        <time>2016-05-03T15:00:16Z</time>
      </trkpt>
      <trkpt lat="48.15306" lon="-4.26863">
        <ele>-0.82</ele>
        <time>2016-05-03T15:00:28Z</time>
      </trkpt>
      <trkpt lat="48.15299" lon="-4.26873">
        <ele>-0.82</ele>
        <time>2016-05-03T15:00:35Z</time>
      </trkpt>
      <trkpt lat="48.15291" lon="-4.26896">
        <ele>0.14</ele>
        <time>2016-05-03T15:00:48Z</time>
      </trkpt>
      <trkpt lat="48.15285" lon="-4.26912">
        <ele>-0.82</ele>
        <time>2016-05-03T15:00:58Z</time>
      </trkpt>
      <trkpt lat="48.15275" lon="-4.26943">
        <ele>-2.27</ele>
        <time>2016-05-03T15:01:16Z</time>
      </trkpt>
      <trkpt lat="48.15267" lon="-4.26967">
        <ele>-2.27</ele>
        <time>2016-05-03T15:01:31Z</time>
      </trkpt>
      <trkpt lat="48.15262" lon="-4.26977">
        <ele>-4.19</ele>
        <time>2016-05-03T15:01:38Z</time>
      </trkpt>
      <trkpt lat="48.15257" lon="-4.26988">
        <ele>-5.63</ele>
        <time>2016-05-03T15:01:45Z</time>
      </trkpt>
      <trkpt lat="48.15249" lon="-4.27007">
        <ele>-5.15</ele>
        <time>2016-05-03T15:01:58Z</time>
      </trkpt>
      <trkpt lat="48.15247" lon="-4.27013">
        <ele>-4.67</ele>
        <time>2016-05-03T15:02:01Z</time>
      </trkpt>
      <trkpt lat="48.15241" lon="-4.27028">
        <ele>-4.19</ele>
        <time>2016-05-03T15:02:10Z</time>
      </trkpt>
      <trkpt lat="48.15234" lon="-4.27045">
        <ele>-3.23</ele>
        <time>2016-05-03T15:02:22Z</time>
      </trkpt>
      <trkpt lat="48.15227" lon="-4.27056">
        <ele>-2.27</ele>
        <time>2016-05-03T15:02:32Z</time>
      </trkpt>
      <trkpt lat="48.15221" lon="-4.27077">
        <ele>-3.23</ele>
        <time>2016-05-03T15:02:44Z</time>
      </trkpt>
      <trkpt lat="48.15219" lon="-4.27088">
        <ele>-2.75</ele>
        <time>2016-05-03T15:02:51Z</time>
      </trkpt>
      <trkpt lat="48.15219" lon="-4.27096">
        <ele>-2.27</ele>
        <time>2016-05-03T15:02:56Z</time>
      </trkpt>
      <trkpt lat="48.15217" lon="-4.2711">
        <ele>-1.79</ele>
        <time>2016-05-03T15:03:03Z</time>
      </trkpt>
      <trkpt lat="48.15211" lon="-4.27128">
        <ele>-2.75</ele>
        <time>2016-05-03T15:03:14Z</time>
      </trkpt>
      <trkpt lat="48.15209" lon="-4.27132">
        <ele>-3.71</ele>
        <time>2016-05-03T15:03:18Z</time>
      </trkpt>
      <trkpt lat="48.15207" lon="-4.27138">
        <ele>-3.71</ele>
        <time>2016-05-03T15:03:21Z</time>
      </trkpt>
      <trkpt lat="48.152" lon="-4.27146">
        <ele>-2.27</ele>
        <time>2016-05-03T15:03:32Z</time>
      </trkpt>
      <trkpt lat="48.15198" lon="-4.27144">
        <ele>-2.27</ele>
        <time>2016-05-03T15:03:34Z</time>
      </trkpt>
      <trkpt lat="48.15197" lon="-4.27125">
        <ele>-2.27</ele>
        <time>2016-05-03T15:03:47Z</time>
      </trkpt>
      <trkpt lat="48.15199" lon="-4.27111">
        <ele>-2.27</ele>
        <time>2016-05-03T15:03:59Z</time>
      </trkpt>
      <trkpt lat="48.152" lon="-4.27103">
        <ele>0.62</ele>
        <time>2016-05-03T15:04:08Z</time>
      </trkpt>
      <trkpt lat="48.152" lon="-4.27097">
        <ele>3.98</ele>
        <time>2016-05-03T15:04:18Z</time>
      </trkpt>
      <trkpt lat="48.15195" lon="-4.2709">
        <ele>5.91</ele>
        <time>2016-05-03T15:04:29Z</time>
      </trkpt>
      <trkpt lat="48.15192" lon="-4.27083">
        <ele>8.31</ele>
        <time>2016-05-03T15:04:39Z</time>
      </trkpt>
      <trkpt lat="48.15192" lon="-4.27084">
        <ele>8.79</ele>
        <time>2016-05-03T15:04:42Z</time>
      </trkpt>
      <trkpt lat="48.15187" lon="-4.27078">
        <ele>10.71</ele>
        <time>2016-05-03T15:04:53Z</time>
      </trkpt>
      <trkpt lat="48.15186" lon="-4.2707">
        <ele>11.19</ele>
        <time>2016-05-03T15:05:03Z</time>
      </trkpt>
      <trkpt lat="48.15182" lon="-4.27064">
        <ele>15.04</ele>
        <time>2016-05-03T15:05:15Z</time>
      </trkpt>
      <trkpt lat="48.15181" lon="-4.27057">
        <ele>16.96</ele>
        <time>2016-05-03T15:05:26Z</time>
      </trkpt>
      <trkpt lat="48.15176" lon="-4.2705">
        <ele>18.4</ele>
        <time>2016-05-03T15:05:36Z</time>
      </trkpt>
      <trkpt lat="48.15176" lon="-4.27041">
        <ele>19.36</ele>
        <time>2016-05-03T15:05:48Z</time>
      </trkpt>
      <trkpt lat="48.15176" lon="-4.27033">
        <ele>19.36</ele>
        <time>2016-05-03T15:05:54Z</time>
      </trkpt>
      <trkpt lat="48.15174" lon="-4.27026">
        <ele>18.88</ele>
        <time>2016-05-03T15:05:59Z</time>
      </trkpt>
      <trkpt lat="48.1517" lon="-4.27016">
        <ele>20.81</ele>
        <time>2016-05-03T15:06:09Z</time>
      </trkpt>
      <trkpt lat="48.15161" lon="-4.27012">
        <ele>23.69</ele>
        <time>2016-05-03T15:06:21Z</time>
      </trkpt>
      <trkpt lat="48.15158" lon="-4.27012">
        <ele>25.13</ele>
        <time>2016-05-03T15:06:25Z</time>
      </trkpt>
      <trkpt lat="48.15156" lon="-4.27011">
        <ele>26.09</ele>
        <time>2016-05-03T15:06:28Z</time>
      </trkpt>
      <trkpt lat="48.15147" lon="-4.27006">
        <ele>29.46</ele>
        <time>2016-05-03T15:06:40Z</time>
      </trkpt>
      <trkpt lat="48.15139" lon="-4.27002">
        <ele>30.9</ele>
        <time>2016-05-03T15:06:52Z</time>
      </trkpt>
      <trkpt lat="48.1513" lon="-4.26996">
        <ele>31.86</ele>
        <time>2016-05-03T15:07:02Z</time>
      </trkpt>
      <trkpt lat="48.15117" lon="-4.26988">
        <ele>33.3</ele>
        <time>2016-05-03T15:07:17Z</time>
      </trkpt>
      <trkpt lat="48.15108" lon="-4.26975">
        <ele>33.3</ele>
        <time>2016-05-03T15:07:31Z</time>
      </trkpt>
      <trkpt lat="48.15108" lon="-4.26969">
        <ele>33.3</ele>
        <time>2016-05-03T15:07:36Z</time>
      </trkpt>
      <trkpt lat="48.15116" lon="-4.26949">
        <ele>33.78</ele>
        <time>2016-05-03T15:07:50Z</time>
      </trkpt>
      <trkpt lat="48.15117" lon="-4.26947">
        <ele>33.78</ele>
        <time>2016-05-03T15:07:51Z</time>
      </trkpt>
      <trkpt lat="48.15118" lon="-4.26941">
        <ele>33.78</ele>
        <time>2016-05-03T15:07:55Z</time>
      </trkpt>
      <trkpt lat="48.15127" lon="-4.26924">
        <ele>33.78</ele>
        <time>2016-05-03T15:08:08Z</time>
      </trkpt>
      <trkpt lat="48.15133" lon="-4.26911">
        <ele>30.42</ele>
        <time>2016-05-03T15:08:19Z</time>
      </trkpt>
      <trkpt lat="48.15133" lon="-4.26906">
        <ele>28.98</ele>
        <time>2016-05-03T15:08:22Z</time>
      </trkpt>
      <trkpt lat="48.15134" lon="-4.269">
        <ele>27.53</ele>
        <time>2016-05-03T15:08:26Z</time>
      </trkpt>
      <trkpt lat="48.15134" lon="-4.26891">
        <ele>27.53</ele>
        <time>2016-05-03T15:08:31Z</time>
      </trkpt>
      <trkpt lat="48.15129" lon="-4.26882">
        <ele>29.46</ele>
        <time>2016-05-03T15:08:38Z</time>
      </trkpt>
      <trkpt lat="48.15116" lon="-4.26871">
        <ele>29.94</ele>
        <time>2016-05-03T15:08:52Z</time>
      </trkpt>
      <trkpt lat="48.15101" lon="-4.26858">
        <ele>29.94</ele>
        <time>2016-05-03T15:09:07Z</time>
      </trkpt>
      <trkpt lat="48.15089" lon="-4.26844">
        <ele>27.05</ele>
        <time>2016-05-03T15:09:20Z</time>
      </trkpt>
      <trkpt lat="48.15085" lon="-4.26837">
        <ele>26.09</ele>
        <time>2016-05-03T15:09:26Z</time>
      </trkpt>
      <trkpt lat="48.15077" lon="-4.26826">
        <ele>25.61</ele>
        <time>2016-05-03T15:09:35Z</time>
      </trkpt>
      <trkpt lat="48.1507" lon="-4.26815">
        <ele>24.17</ele>
        <time>2016-05-03T15:09:44Z</time>
      </trkpt>
      <trkpt lat="48.15055" lon="-4.26794">
        <ele>22.25</ele>
        <time>2016-05-03T15:10:01Z</time>
      </trkpt>
      <trkpt lat="48.15045" lon="-4.2678">
        <ele>21.29</ele>
        <time>2016-05-03T15:10:14Z</time>
      </trkpt>
      <trkpt lat="48.15039" lon="-4.26771">
        <ele>20.81</ele>
        <time>2016-05-03T15:10:21Z</time>
      </trkpt>
      <trkpt lat="48.15029" lon="-4.26754">
        <ele>19.36</ele>
        <time>2016-05-03T15:10:35Z</time>
      </trkpt>
      <trkpt lat="48.15021" lon="-4.26744">
        <ele>17.92</ele>
        <time>2016-05-03T15:10:43Z</time>
      </trkpt>
      <trkpt lat="48.15008" lon="-4.26725">
        <ele>15.52</ele>
        <time>2016-05-03T15:10:58Z</time>
      </trkpt>
      <trkpt lat="48.15008" lon="-4.26724">
        <ele>15.52</ele>
        <time>2016-05-03T15:10:59Z</time>
      </trkpt>
      <trkpt lat="48.14993" lon="-4.26709">
        <ele>13.6</ele>
        <time>2016-05-03T15:11:15Z</time>
      </trkpt>
      <trkpt lat="48.14982" lon="-4.26698">
        <ele>12.15</ele>
        <time>2016-05-03T15:11:26Z</time>
      </trkpt>
      <trkpt lat="48.14976" lon="-4.26693">
        <ele>11.67</ele>
        <time>2016-05-03T15:11:32Z</time>
      </trkpt>
      <trkpt lat="48.14971" lon="-4.26688">
        <ele>11.19</ele>
        <time>2016-05-03T15:11:36Z</time>
      </trkpt>
      <trkpt lat="48.14955" lon="-4.26671">
        <ele>8.79</ele>
        <time>2016-05-03T15:11:52Z</time>
      </trkpt>
      <trkpt lat="48.14953" lon="-4.26668">
        <ele>8.79</ele>
        <time>2016-05-03T15:11:55Z</time>
      </trkpt>
      <trkpt lat="48.14948" lon="-4.26665">
        <ele>8.31</ele>
        <time>2016-05-03T15:11:59Z</time>
      </trkpt>
      <trkpt lat="48.14931" lon="-4.26649">
        <ele>6.39</ele>
        <time>2016-05-03T15:12:16Z</time>
      </trkpt>
      <trkpt lat="48.14918" lon="-4.26633">
        <ele>3.98</ele>
        <time>2016-05-03T15:12:30Z</time>
      </trkpt>
      <trkpt lat="48.1491" lon="-4.26625">
        <ele>3.5</ele>
        <time>2016-05-03T15:12:39Z</time>
      </trkpt>
      <trkpt lat="48.14898" lon="-4.26615">
        <ele>3.5</ele>
        <time>2016-05-03T15:12:52Z</time>
      </trkpt>
      <trkpt lat="48.14894" lon="-4.2661">
        <ele>3.02</ele>
        <time>2016-05-03T15:12:57Z</time>
      </trkpt>
      <trkpt lat="48.14881" lon="-4.26605">
        <ele>0.62</ele>
        <time>2016-05-03T15:13:09Z</time>
      </trkpt>
      <trkpt lat="48.14873" lon="-4.26619">
        <ele>0.14</ele>
        <time>2016-05-03T15:13:20Z</time>
      </trkpt>
      <trkpt lat="48.1487" lon="-4.26625">
        <ele>0.14</ele>
        <time>2016-05-03T15:13:24Z</time>
      </trkpt>
      <trkpt lat="48.14866" lon="-4.2663">
        <ele>0.14</ele>
        <time>2016-05-03T15:13:28Z</time>
      </trkpt>
      <trkpt lat="48.1486" lon="-4.2664">
        <ele>0.62</ele>
        <time>2016-05-03T15:13:35Z</time>
      </trkpt>
      <trkpt lat="48.14855" lon="-4.2665">
        <ele>0.14</ele>
        <time>2016-05-03T15:13:42Z</time>
      </trkpt>
      <trkpt lat="48.14845" lon="-4.26671">
        <ele>-0.34</ele>
        <time>2016-05-03T15:13:56Z</time>
      </trkpt>
      <trkpt lat="48.14845" lon="-4.26673">
        <ele>-0.34</ele>
        <time>2016-05-03T15:13:57Z</time>
      </trkpt>
      <trkpt lat="48.14842" lon="-4.26677">
        <ele>-0.82</ele>
        <time>2016-05-03T15:14:00Z</time>
      </trkpt>
      <trkpt lat="48.14841" lon="-4.2668">
        <ele>-1.3</ele>
        <time>2016-05-03T15:14:02Z</time>
      </trkpt>
      <trkpt lat="48.14831" lon="-4.26703">
        <ele>-3.23</ele>
        <time>2016-05-03T15:14:17Z</time>
      </trkpt>
      <trkpt lat="48.14828" lon="-4.26711">
        <ele>-4.67</ele>
        <time>2016-05-03T15:14:24Z</time>
      </trkpt>
      <trkpt lat="48.14824" lon="-4.26722">
        <ele>-6.11</ele>
        <time>2016-05-03T15:14:32Z</time>
      </trkpt>
      <trkpt lat="48.14817" lon="-4.26736">
        <ele>-6.11</ele>
        <time>2016-05-03T15:14:41Z</time>
      </trkpt>
      <trkpt lat="48.14814" lon="-4.26746">
        <ele>-4.19</ele>
        <time>2016-05-03T15:14:45Z</time>
      </trkpt>
      <trkpt lat="48.14808" lon="-4.26771">
        <ele>-1.79</ele>
        <time>2016-05-03T15:14:58Z</time>
      </trkpt>
      <trkpt lat="48.14802" lon="-4.268">
        <ele>-5.15</ele>
        <time>2016-05-03T15:15:14Z</time>
      </trkpt>
      <trkpt lat="48.14795" lon="-4.26822">
        <ele>-5.15</ele>
        <time>2016-05-03T15:15:27Z</time>
      </trkpt>
      <trkpt lat="48.1479" lon="-4.26843">
        <ele>-4.67</ele>
        <time>2016-05-03T15:15:39Z</time>
      </trkpt>
      <trkpt lat="48.14789" lon="-4.26848">
        <ele>-4.67</ele>
        <time>2016-05-03T15:15:42Z</time>
      </trkpt>
      <trkpt lat="48.14786" lon="-4.26874">
        <ele>-5.63</ele>
        <time>2016-05-03T15:15:56Z</time>
      </trkpt>
      <trkpt lat="48.14781" lon="-4.26902">
        <ele>-5.15</ele>
        <time>2016-05-03T15:16:12Z</time>
      </trkpt>
      <trkpt lat="48.14779" lon="-4.26905">
        <ele>-5.63</ele>
        <time>2016-05-03T15:16:15Z</time>
      </trkpt>
      <trkpt lat="48.14776" lon="-4.26909">
        <ele>-6.11</ele>
        <time>2016-05-03T15:16:19Z</time>
      </trkpt>
      <trkpt lat="48.14766" lon="-4.26933">
        <ele>-6.59</ele>
        <time>2016-05-03T15:16:34Z</time>
      </trkpt>
      <trkpt lat="48.14762" lon="-4.26959">
        <ele>-5.15</ele>
        <time>2016-05-03T15:16:48Z</time>
      </trkpt>
      <trkpt lat="48.14758" lon="-4.26987">
        <ele>-3.71</ele>
        <time>2016-05-03T15:17:03Z</time>
      </trkpt>
      <trkpt lat="48.14758" lon="-4.27">
        <ele>-3.23</ele>
        <time>2016-05-03T15:17:10Z</time>
      </trkpt>
      <trkpt lat="48.14757" lon="-4.27008">
        <ele>-3.71</ele>
        <time>2016-05-03T15:17:14Z</time>
      </trkpt>
      <trkpt lat="48.14756" lon="-4.27028">
        <ele>-3.23</ele>
        <time>2016-05-03T15:17:26Z</time>
      </trkpt>
      <trkpt lat="48.14758" lon="-4.27033">
        <ele>-2.75</ele>
        <time>2016-05-03T15:17:38Z</time>
      </trkpt>
      <trkpt lat="48.14758" lon="-4.27035">
        <ele>-2.27</ele>
        <time>2016-05-03T15:17:42Z</time>
      </trkpt>
    </trkseg>
  </trk>
</gpx>